0% encontró este documento útil (0 votos)
235 vistas93 páginas

Registro de Contactos y Fechas

Este documento contiene una lista de nombres de padres de familia o acudientes junto con sus números de teléfono celular. La lista incluye más de 100 entradas con fecha y hora del 1 de abril de 2020, con números de teléfono de Colombia. Cada entrada incluye el nombre de la persona, la fecha y hora de registro y el número de teléfono celular correspondiente.

Cargado por

Yohana Mendez
Derechos de autor
© All Rights Reserved
Nos tomamos en serio los derechos de los contenidos. Si sospechas que se trata de tu contenido, reclámalo aquí.
Formatos disponibles
Descarga como XLSX, PDF, TXT o lee en línea desde Scribd
0% encontró este documento útil (0 votos)
235 vistas93 páginas

Registro de Contactos y Fechas

Este documento contiene una lista de nombres de padres de familia o acudientes junto con sus números de teléfono celular. La lista incluye más de 100 entradas con fecha y hora del 1 de abril de 2020, con números de teléfono de Colombia. Cada entrada incluye el nombre de la persona, la fecha y hora de registro y el número de teléfono celular correspondiente.

Cargado por

Yohana Mendez
Derechos de autor
© All Rights Reserved
Nos tomamos en serio los derechos de los contenidos. Si sospechas que se trata de tu contenido, reclámalo aquí.
Formatos disponibles
Descarga como XLSX, PDF, TXT o lee en línea desde Scribd

Marca temporal Nombre del padre de familia o acudiente

Indique
delun número de teléfono celular
4/1/2020 18:32:12 Diana Paola cuenca 3142000195
4/1/2020 18:35:05 Nathaly Chavarro Valenzuela 3143847604
4/1/2020 18:36:56 Maria ninfa espinosa Vázquez 3108697930
4/1/2020 18:38:47 Luz Mary Hiter 3214292629
4/1/2020 18:39:26 Eucaris Vargas Fajardo 3108194525
4/1/2020 18:40:07 omaira Barragan Gutiérrez 3105848290
4/1/2020 18:40:27 Luz Elida mutumbajoy anaconda 3112201523
4/1/2020 18:41:16 Elizabed Wagner poveda 3212797357
4/1/2020 18:43:36 Zennyt Beverly Rondón Jaimes 3177108239
4/1/2020 18:44:58 Orfilia guaca velazquez 3115787534
4/1/2020 18:44:58 Betsabe Anaya 3228142807
4/1/2020 18:45:00 Edilma Abella Artunduaga 3112837990
4/1/2020 18:46:13 Nathaly Chavarro Valenzuela 3143847604
4/1/2020 18:47:24 Gonzalo Vaquero Jaramillo 314 2238052
4/1/2020 18:47:36 Rusmery ospina trujillo 3124678735
4/1/2020 18:47:45 Yuri tatiana nuñez arce 3102902019.......3102
4/1/2020 18:47:46 Wendy vanessa ibarra 3222247741
4/1/2020 18:47:59 Luz nelly Valencia 3203444521
4/1/2020 18:47:59 Yury Paola cardona 3213128296
4/1/2020 18:48:47 Edilma Abella Artunduaga 3112837990
4/1/2020 18:49:10 Nathaly Chavarro Valenzuela 3143847604
4/1/2020 18:49:21 Betsabe anaya 3228142807
4/1/2020 18:50:36 Norma Cecilia moreno osorio 3108009427
4/1/2020 18:52:52 Clara Maritza Quintero Ocampo 3172173066
4/1/2020 18:54:07 Viviana Vega parra 3142687229
4/1/2020 18:54:09 Katerin Viviana Silva nuñez 3212315939
4/1/2020 18:54:16 Diana Paola cuenca proaños 3138872440
4/1/2020 18:54:47 Yerlin yuliana quiroz torres 3227169624
4/1/2020 18:54:52 Marlodis Galvis Franco 3205697318
4/1/2020 18:55:33 Claudia Patricia Arias 3133778444
4/1/2020 18:55:40 Yarleny Trujillo Murcia 3124795055
4/1/2020 18:57:20 Marlodis Galvis Franco 3205697318
4/1/2020 18:58:18 Viviana vega parra 3142687229
4/1/2020 18:58:34 Diana Paola cuenca proaños 3138872440
4/1/2020 18:59:07 Yarleny trujillo murcia 3124795055
4/1/2020 18:59:22 Jorge Enrrique Gasca 3213326966
4/1/2020 18:59:28 Adriana Patarroyo 3132394349
4/1/2020 19:01:44 Sindy constanza murcia andrade 3223091688
4/1/2020 19:02:00 Genni Lorena Pino Rodriguez 3185471082
4/1/2020 19:02:18 Yohana Cabrera cuellar 3224009388
4/1/2020 19:02:52 Rubiela ortega 3208222323
4/1/2020 19:04:05 Victor Gómez 3107973954
4/1/2020 19:04:14 Damaris diaz carbajal 3202897988
4/1/2020 19:05:19 Jorge Enrrique Gasca 3213326966
4/1/2020 19:05:54 Yurani andrea Vargas Betancourth 3102579655
4/1/2020 19:05:57 Sandra Milena Ospina Trochez 3188689713
4/1/2020 19:06:07 Yira yuli conde 3126708647
4/1/2020 19:06:20 Marisol murcia 3144320794
4/1/2020 19:06:33 Blancaflor luna 3229359903
4/1/2020 19:07:34 Yenny marcela ruiz ruiz 3118856876
4/1/2020 19:08:37 Marisol murcia 3144320794
4/1/2020 19:09:04 Evelio Diaz 3144504682
4/1/2020 19:09:36 Sandra valencia 3143078433
4/1/2020 19:11:04 Edna karina tabares yasno 3138900877
4/1/2020 19:11:55 Laura aide rojas mejia 3114481819
4/1/2020 19:12:05 Lilibed Marly Varela lugo 3144442000
4/1/2020 19:12:34 Luisa Amelia cruz scarpeta 3163217795
4/1/2020 19:13:24 Leidy Johana mosquera Andrade. 3144632900
4/1/2020 19:15:28 Rosa Helena Peña 3108543194
4/1/2020 19:16:55 Dora Luz Correa Penagos 3144473728
4/1/2020 19:17:34 Deissy marleidy Botache toro 314-213-75-37
4/1/2020 19:18:13 Mireya jimenez acosta 3143765412
4/1/2020 19:18:16 Yisely delgado Cortez 3118071373
4/1/2020 19:18:26 Victor Gomez 3107973954
4/1/2020 19:20:41 Jen Marly Correa Jimenez 3228773044
4/1/2020 19:21:13 Dora Luz Correa Penagos 3144473728
4/1/2020 19:21:40 Blancaflor luna 3229359903
4/1/2020 19:21:45 Jheraldin avendaño 3108553474
4/1/2020 19:22:23 Nini yoana culma lugo 3118356945
4/1/2020 19:22:37 Nelly Isabel Olaya 3213418054
4/1/2020 19:22:52 leidy johana mosquera andrade 3212220416
4/1/2020 19:22:58 Erika juliana galeno rojas 3102489687
4/1/2020 19:22:59 Marianna Yolanda Quintero 3144153703
4/1/2020 19:23:00 Diana Mileth Muñoz 3507381761
4/1/2020 19:24:10 Erica yinet tique 3212811568
4/1/2020 19:24:47 Nini yoana culma lugo 3118356945
4/1/2020 19:25:18 Deisy marcela plazas 3202960600
4/1/2020 19:25:20 Nelcy Manjarrez 3107770051
4/1/2020 19:25:55 Erika juliana galeno rojas 3102489687
4/1/2020 19:27:57 Mabel yoana 3232160933
4/1/2020 19:27:58 Bellani muñoz quintero 3126708985
4/1/2020 19:28:56 Ofelia opina mosquera 3138702738
4/1/2020 19:29:39 Jackelinne 3208238010
4/1/2020 19:31:01 Maryoli cabrera segura 3134466137
4/1/2020 19:31:01 Yisely delgado Cortez 3118071373
4/1/2020 19:31:14 Orfilia guaca velasquez 3115787534
4/1/2020 19:31:24 Derly yohana guevara Castañeda 3214827224
4/1/2020 19:31:37 Urbina Aguilar Quintero 3203309034 3203309034 juandavi
4/1/2020 19:32:44 Cláudia marcela grisales valero 3133454153
4/1/2020 19:33:22 Elizabeth Vidal 3203551021
4/1/2020 19:34:00 James jimenez 3124212271
4/1/2020 19:35:03 Islena Constanza Gutiérrez Velasquez 3102583878
4/1/2020 19:35:05 Genis Yañez Falla 3207271585
4/1/2020 19:35:16 Marisel ariza perez 3132171630
4/1/2020 19:38:40 Luzeida Medina Andrade 3118496570
4/1/2020 19:39:30 Rubiela ortega 3208222323
4/1/2020 19:41:29 Hasbleidy Cuellar Molano 3114671203
4/1/2020 19:43:09 Liliam Patricia Acosta Clatos 3144723634
4/1/2020 19:44:32 Paola Andrea Soto Ramires 3102272258
4/1/2020 19:44:40 Mileidi suaza losada 3222936088
4/1/2020 19:44:48 Aldemar ramos 3223502645
4/1/2020 19:44:49 Luisa fernanda Pimentel lucumi 3102254981
4/1/2020 19:45:05 Luz Herminda Loiza Cuellar 3229008119
4/1/2020 19:45:13 Leidy johana mosquera andrade 3212220416
4/1/2020 19:46:08 Maria yaneth rendon serrato 3209201231
4/1/2020 19:47:02 Erica yinet tique canacue 3212811568
4/1/2020 19:47:04 Doris morales gomes 3133089863
4/1/2020 19:48:00 MARIANA SANCHEZ ROJAS 3212803518
4/1/2020 19:48:19 Yudy aguirre 3134792588
4/1/2020 19:48:42 Nini johanna triviño jordan 3123871816
4/1/2020 19:48:45 Nayibe bermude 3227229092
4/1/2020 19:49:11 Paola Andrea Soto Ramires 3102272258
4/1/2020 19:49:29 Yadira Pérez Torres 3112219055
4/1/2020 19:50:09 Ana raque muñoz roa 3223600790
4/1/2020 19:50:57 Emilce Galindo Valencia 3223721350 3144655
4/1/2020 19:50:58 Yorladis Vargas rojas 3165083279
4/1/2020 19:51:41 Ismenia figueroa 3188200942
4/1/2020 19:51:57 Edna karina tabares yasno 3138900877
4/1/2020 19:52:08 Jasmin Vergara Leiton 3232079476
4/1/2020 19:52:18 Nayibe bermudez 3227229092
4/1/2020 19:52:41 Yuddy cristina jaramillo salinas 3203671199
4/1/2020 19:52:44 Rubiela mosquera salinas 3115983285
4/1/2020 19:53:42 Gloria mercedes cordoba 3203710841
4/1/2020 19:53:49 liliana Rojas Vargas 321 2520947
4/1/2020 19:54:00 Lindeya pena prieto 3118829422
4/1/2020 19:55:05 Sidalia cruz poveda 3204391432
4/1/2020 19:55:24 Esperanza Arrigui Navia 3212611424
4/1/2020 19:56:30 Ducelix Quintero Gracias 3124729956
4/1/2020 19:56:34 Yuddy cristina jaramillo salinas 3203671199
4/1/2020 19:56:46 Emilce Galindo Valencia 3223721350 3144655
4/1/2020 19:57:54 Luisa Fernanda Pimentel Lucumi 3102254981
4/1/2020 19:57:58 BETTY OVIEDO RODRÍGUEZ 3123154713
4/1/2020 19:58:24 Lindeya pena prieto 3118829422
4/1/2020 19:58:35 Hidaly Padilla 3142971879
4/1/2020 19:59:24 Edna karina tabares yasno 3138900877
4/1/2020 20:00:07 Carlos Hernandez Rubiano 3202234205
4/1/2020 20:00:14 Yuddy cristina jaramillo salinas 1117934318
4/1/2020 20:00:35 Emelda calambas rivera 3133991199
4/1/2020 20:00:42 Francia rocio rivera cuellar 3115740480
4/1/2020 20:01:06 Martha Isabel Quintero valencia 3212603003
4/1/2020 20:01:31 Sidalia cruz poveda 3204391432
4/1/2020 20:01:34 Hidaly padilla 3142971879
4/1/2020 20:01:38 Luznidia bermudes 3123684751
4/1/2020 20:03:07 Ingrid joven parra 3125391200
4/1/2020 20:03:29 Marleny 3115146458
4/1/2020 20:04:18 Rosalva Ducuara Vera 3165581980
4/1/2020 20:05:53 Rosalba Montealgre Carvajal 3123837539
4/1/2020 20:06:39 YENNY ROBITA MUÑOZ ACOSTA 3117025267
4/1/2020 20:06:50 Fermin Hoyos 3127350300
4/1/2020 20:07:03 Diana marcela rivera 3204548054
4/1/2020 20:07:23 Marleny 3115146458
4/1/2020 20:07:39 Carmen tovar cutiva 3222287730
4/1/2020 20:07:55 Adriana bahamon davila 3104828854
4/1/2020 20:08:02 Paola andrea ordoñez carvajal 3205578474
4/1/2020 20:08:05 Noelia Garzón olmos 3133096146
4/1/2020 20:08:11 Lilia Mercedes llanos alvarez 3138863974
4/1/2020 20:08:54 Sandra Milena castro Quiñones 3102709603
4/1/2020 20:09:47 Ingrid kimberly joven parra 3125391200
4/1/2020 20:09:58 Ceudi adriana jimenez mendoza 3134757959
4/1/2020 20:10:05 sandra Patricia Rodríguez Flórez 3148596101
4/1/2020 20:10:08 Maria Victoria Camayo Lopez 3102721509
4/1/2020 20:10:30 Ligia 3114426979
4/1/2020 20:11:00 Argenis Suárez trujillo 3125545097
4/1/2020 20:11:00 Jhoana gutierrez peraz 3143227542
4/1/2020 20:11:05 Luz nidia bermudes 3128684751
4/1/2020 20:11:14 Aldemar ramos 3133910723
4/1/2020 20:12:19 Fermin Hoyos 3127350300
4/1/2020 20:12:29 Maria elcira pechene ossa 3134746513
4/1/2020 20:12:57 Lorena triviño 3148376212
4/1/2020 20:13:29 YENNY ROBIRA MUÑOZ ACOSTA 3117025267
4/1/2020 20:13:35 Janer elisa escue pilgue 3219365107
4/1/2020 20:13:47 Noelia Garzón olmos 3133096146
4/1/2020 20:15:03 Lourdes murcia rojas 3124420591
4/1/2020 20:15:45 Amelia estefany sanabria restrepo 3202952848
4/1/2020 20:15:49 Maria lourdes 3102046429
4/1/2020 20:15:53 Yeni paola correa yara 3123565805
4/1/2020 20:15:58 Jhoana gutierrez perez 3143227542
4/1/2020 20:16:02 Fermin Hoyos 3127350300
4/1/2020 20:16:09 Blancaluz taborda 3115760330
4/1/2020 20:16:16 Sara Milena Morales Valderrama 3136202922
4/1/2020 20:16:27 Gina Consuelo Mavesoy Osorio 3153535613
4/1/2020 20:16:38 RAMON HENAO 3142182387
4/1/2020 20:16:55 Nayibi Peña 3117877029
4/1/2020 20:17:17 Idaluz nieto meza 3118637051
4/1/2020 20:17:17 Alba lucia perez 3213211574
4/1/2020 20:17:30 Flor Alicia chambo mensa 3117507160
4/1/2020 20:17:45 Magola Méndez Figueroa 3142473567
4/1/2020 20:17:53 Wilfredo Marin 3115813552
4/1/2020 20:18:02 Ana cecilia tumbo Hincapie 3223201072
4/1/2020 20:18:05 Janer elisa escue pilgue 3219365107
4/1/2020 20:18:08 Luz celida almario zambrano 3134756528
4/1/2020 20:18:39 Ligia balanta 3146525222
4/1/2020 20:18:59 Duberney triviño sierra 3134465940
4/1/2020 20:19:59 Victor Gomez 3107973954
4/1/2020 20:20:48 Liliana Lozada joven 3202847533
4/1/2020 20:21:24 nelsy rojas figueroa 3202840292
4/1/2020 20:22:04 RAMON HENAO 3142182387
4/1/2020 20:22:05 Maria alejandra ruiz suarez 3215086351
4/1/2020 20:22:54 johanna gutierrez perez 3143227542
4/1/2020 20:23:08 Blanca luz taborda 3115760330
4/1/2020 20:23:10 Karla Patricia orozco rojas 3102252187
4/1/2020 20:23:13 Marly pimentel 3103142060
4/1/2020 20:23:19 Victor gomez 3107973954
4/1/2020 20:23:35 Marcela cardona 3113430180
4/1/2020 20:24:34 Diva moreno 3118670106
4/1/2020 20:24:47 Marleny silva trujillo 3123210006
4/1/2020 20:24:48 Maryi yulieth Sánchez zapata 3105889853
4/1/2020 20:25:35 Cadterine Patiño Quintero 3223543654
4/1/2020 20:25:40 Mary Perdomo carvajal 3124871616
4/1/2020 20:26:41 Jennifer Quintero 3205981797
4/1/2020 20:27:41 Duberney triviño sierra 3134465940
4/1/2020 20:29:14 Silvia Vargas 3148758979
4/1/2020 20:29:24 Marly pimentel 3103132060
4/1/2020 20:30:17 Catherine tavera parra 3128672536
4/1/2020 20:30:54 Leidy Katherine Moreno 3144682513
4/1/2020 20:31:12 Luisa fernada gonzales ortis 3162744536
4/1/2020 20:32:00 Flor Alba Fajardo Alarcon 3124173945
4/1/2020 20:32:05 Maria Rubiela pogimuy gonzalez 3202165484
4/1/2020 20:32:18 Mercedes Quintero Sáenz 3202451393
4/1/2020 20:32:33 Jennifer alexandra Quintero 3205981797
4/1/2020 20:32:53 Yibi johana peña jamioy 3226019596
4/1/2020 20:33:17 Luz Mery Díaz Núñez 3144183481
4/1/2020 20:33:21 Yineth Cabrera toquica 3224359783
4/1/2020 20:33:32 Marly pimentel 3103132060
4/1/2020 20:33:56 Ailen gasca garcia 3144566674
4/1/2020 20:34:29 Ana Argenis Claros Hincapie 310 2036017
4/1/2020 20:34:35 Luz Miriam Córdoba calero 3138599978
4/1/2020 20:34:39 Johan Bolaños 3144061664
4/1/2020 20:36:24 María de los Ángeles Peña Achipi 3183006076
4/1/2020 20:37:48 Ediver pulecio peña 3222169952
4/1/2020 20:39:10 Yosoty Isabel herrera Pérez 3183001081
4/1/2020 20:40:12 Karla Patricia orozco Rojas 3102252187
4/1/2020 20:41:10 Carolina 3144592325
4/1/2020 20:43:21 carolina calderon caro 3118142026
4/1/2020 20:43:40 Karla Patricia orozco Rojas 3102252187
4/1/2020 20:43:55 Pablo emilio castro muñoz 3203737682
4/1/2020 20:49:01 Emilce Galindo Valencia 3223721350 3144655
4/1/2020 20:49:12 Margelis Barreto prieto 3222115501
4/1/2020 20:49:36 Yorly Xiomara Joven Ordoñez 3124311452
4/1/2020 20:50:04 Rosalba Montealegre Carvajal 3202306451
4/1/2020 20:50:47 Elvia milena cuellar García 3223518841
4/1/2020 20:51:11 Maryi liliana guaraca perdomo 3232049561
4/1/2020 20:51:57 Sandra paola ramos castro 3108732027
4/1/2020 20:52:59 Liliana Lozada joven 3202847533
4/1/2020 20:53:34 Bidisbrani Rubio Sánchez 3138319973
4/1/2020 20:54:52 Margelis Barreto Prieto 3222115501
4/1/2020 20:55:45 Yorly Xiomara Joven Ordoñez 3124311452
4/1/2020 20:57:41 Nini johana vaca 3133155607
4/1/2020 20:58:10 Maryi liliana guaraca perdomo323 3232049561
4/1/2020 20:58:29 Yennyjosefagonzalezhenao 3122364909
4/1/2020 20:59:09 Rosalba Montealegre Carvajal 3202306451
4/1/2020 20:59:28 Yury Toquica Hernandez 3133502201 o 3204911
4/1/2020 21:00:09 Jose alape chico 3115884309
4/1/2020 21:00:44 Yorly Xiomara Joven Ordoñez 3124311452
4/1/2020 21:01:35 Martha Cecilia Dorado Cuellar 3112106858
4/1/2020 21:02:02 Yolanda artunduaga sabi 3137819582
4/1/2020 21:02:08 Yessica Andrea Home vargas 3223256171
4/1/2020 21:02:17 Yuri Natalia Tobar Buitrago 3164086793
4/1/2020 21:02:17 Lida Gómez rivera 3214015589
4/1/2020 21:03:47 Gabriela Triviño 3133286385
4/1/2020 21:03:56 Carlos Hernandez Rubiano 3202234205
4/1/2020 21:04:26 gloria ines polo vargas 3203914992
4/1/2020 21:04:29 Yenny Pulido cabrales 3142678660
4/1/2020 21:04:39 Rosa angelica prias oino 3214006115
4/1/2020 21:04:45 Rosalba Rodríguez Lozada 3125512409
4/1/2020 21:06:01 Luz dary cabrera 3214352361
4/1/2020 21:06:25 Walter Berrío Mesa 3229369834
4/1/2020 21:06:29 Flor Alba Fajardo Alarcón 3124173945
4/1/2020 21:06:55 Yuri Natalia Tobar Buitrago 3164086793
4/1/2020 21:07:27 Flor Ángela Galindo claros 3214838418
4/1/2020 21:08:08 Ligia balanta 3146525222
4/1/2020 21:08:11 Nini johanna segura ramos 3142171069
4/1/2020 21:08:37 Naryive Narvaez Marin 3124726583
4/1/2020 21:09:01 Diana marcela coronado bran 3112397200
4/1/2020 21:09:32 Yuri Natalia Tobar Buitrago 3164086793
4/1/2020 21:10:47 Adriana losada carvajal 3219425871
4/1/2020 21:11:15 Raquel peña parra 3124401113
4/1/2020 21:11:15 Dirley Ortiz Molano 3232993035
4/1/2020 21:11:17 Deonice Anturi Florez 3208355502
4/1/2020 21:11:39 Walter Berrío Mesa 3229369834
4/1/2020 21:13:14 Diana marcela coronado bran 3112397200
4/1/2020 21:13:20 Alirio 3202454617
4/1/2020 21:13:25 Leidy andrea cubillos Quintero 3219877655
4/1/2020 21:13:28 gloria ines polo vargas 3203914992
4/1/2020 21:13:36 Yurani zapata perez 3224207018
4/1/2020 21:15:57 Martha Cecilia Dorado Cuellar 3112106858
4/1/2020 21:18:13 Yurani zapata perez 3224207018
4/1/2020 21:18:49 Yamiled Trujillo melo 3123020909
4/1/2020 21:19:58 Sixta Tulia Ospina Beltran 3132880165
4/1/2020 21:20:05 Paola Andrea Arias Mendoza 3228686980
4/1/2020 21:22:21 Paola Andrea Arias Mendoza 3228686980
4/1/2020 21:23:42 Maryoli cabrera Segura 3134466137
4/1/2020 21:24:01 Nubia Lozada Suárez 3115306286
4/1/2020 21:26:13 Maryoli cabrera segura 3134466137
4/1/2020 21:26:35 Karla Ramirez Cordoba 3167209887
4/1/2020 21:27:19 Amparo molina ninco 3232239558
4/1/2020 21:28:50 Arelis ascencio silva 313218250t
4/1/2020 21:29:46 Rosa maria Ramos 3144571658
4/1/2020 21:29:58 Luz marina alviz cadena 3103257976
4/1/2020 21:30:54 Humberto muñoz achuri 3115099452
4/1/2020 21:31:29 Luz Elena Cavarria Rosas 3214858109
4/1/2020 21:31:47 Marielly Trujillo 3142071018
4/1/2020 21:31:54 Amparo molina ninco 3232239558
4/1/2020 21:32:18 Rosario valderrama parra 3112265914
4/1/2020 21:32:21 Yuri sulay Patarroyo 3217077318
4/1/2020 21:32:42 Deyanira plazas contreras 3123329083
4/1/2020 21:32:54 Mónica Trujillo rodriges 3122163205
4/1/2020 21:33:17 Magnolia alvarez urriago 3208359697
4/1/2020 21:34:57 Luz nirida Bocanegra Villada 3203033016
4/1/2020 21:35:19 Amparo Murcia Núñez 3138647168
4/1/2020 21:36:14 Diana carolina paz legarda 3005781958
4/1/2020 21:36:48 Rosario Valderrama parra 3112265914
4/1/2020 21:37:01 Luz dary Lizcano 3223904815
4/1/2020 21:37:46 Esdicnadith olaya castro 3115534606
4/1/2020 21:38:10 Maritza Fajardo Chaux 3134775100
4/1/2020 21:38:28 Mónica Trujillo Rodríguez 3122163205
4/1/2020 21:39:21 Gerlen Vargas piamba 3112040282
4/1/2020 21:40:07 Nelsy rojas figueroa 3202840292
4/1/2020 21:40:49 Maritza Fajardo Chaux 3134775100
4/1/2020 21:43:00 Esdicnadith olaya castro 3115534606
4/1/2020 21:43:54 Marcela Figueroa Correa 3224406776 o 322402
4/1/2020 21:46:46 Martha cecilia vargas cepeda 3046423472
4/1/2020 21:49:32 Lucila Medina Ramos 3115457355
4/1/2020 21:51:57 Gerlen Vargas piamba 3112040282
4/1/2020 21:54:58 Yineth Varón Duque3136424009 3136424009
4/1/2020 22:05:41 maria olga cortes 3133231134
4/1/2020 22:10:21 maria idalid brand collazos 3142639712
4/1/2020 22:10:29 Lidia hernandez 3112369959
4/1/2020 22:10:36 Mordida Ordóñez sotto 3228787927
4/1/2020 22:14:40 Vianey Soto Scarpeta 3124431719
4/1/2020 22:15:08 Lidia hernandez 3112369959
4/1/2020 22:15:13 Maria olinda otavo ferla 3102668092
4/1/2020 22:19:07 Yeni paola Hernandez ortiz 3227006255- 3123946
4/1/2020 22:19:41 Yuliana andrea monroy alcaraz 3209922232
4/1/2020 22:20:47 José Alfonso Ochoa 3132004107
4/1/2020 22:22:08 Cindy Lorena López 3206504720
4/1/2020 22:23:28 maria idalid brand Collazos 3142639712
4/1/2020 22:23:38 Yeni Paola Hernandez Ortiz 3227006255- 3123946
4/1/2020 22:24:23 Yenny marcela ruiz ruiz 3118856876
4/1/2020 22:33:14 Yudy aguirre 313 3124768006
4/1/2020 22:35:03 Idalmin Sierra Castro 3142191648
4/1/2020 22:37:45 Luz nelly Valencia 3203444521
4/1/2020 22:40:37 Luz nelly Valencia 3203444521
4/1/2020 22:42:11 María Daile Lesmes Moreno 3224046393
4/1/2020 22:44:40 Luz nelly Valencia 3203444521
4/1/2020 22:51:35 Karla Yurani Benavidez 3123397559
4/1/2020 22:57:37 Merly Yulieth Navarro Cardozo 3115628831
4/1/2020 23:00:08 Martha lucia valencia forero 3112310474
4/1/2020 23:06:07 jhenny florez 3203416248
4/1/2020 23:24:51 Angela Vivian Chala González 3118821810
4/1/2020 23:56:09 Alba luz barrera toro 3143849745
4/2/2020 0:07:39 Maricel hoyos 1118070973
4/2/2020 3:10:14 Ana francisca calapzù 3136219361
4/2/2020 7:22:58 Ana cecilia Hoyos 3102443247
4/2/2020 7:55:25 Olga constanza Sánchez Rojas 3213047728
4/2/2020 8:01:22 Olgaconstanza Sánchez Rojas 3213047728
4/2/2020 8:20:36 Brigitte tatiana 3165363126
4/2/2020 8:27:50 Brigite tatiana 3165363126
4/2/2020 8:30:41 Mónica Rico rramires 3208639808
4/2/2020 8:43:27 William Lozada Carvajal 3223690512
4/2/2020 8:45:01 Disney caleño parada 3204575352
4/2/2020 8:48:36 Disney caleño parada 3204575352
4/2/2020 8:52:01 Disney caleño parada 3204575352
4/2/2020 8:52:35 Nydya moreno 3144690362
4/2/2020 8:54:53 Mayenith charo mendez 3214442653
4/2/2020 8:56:31 Nydya moreno 3144690362
4/2/2020 8:58:44 Yinberli Becerra Cuellar 3137619274
4/2/2020 9:02:40 Enerto gutierres trujillo 32119051717
4/2/2020 9:13:40 Carmenza Falla Murcia 3133138373
4/2/2020 9:14:19 Norma constanza quiceno gomez 3113112153
4/2/2020 9:14:30 Eileen Calderón castaño 3123739649
4/2/2020 9:18:21 Eileen Calderón castaño 3123739649
4/2/2020 9:20:39 Norma constanza quiceno gomez 3142946947
4/2/2020 9:22:15 Isaías Bernal Ruiz 3165395274 ,,3133903
4/2/2020 9:25:09 Norma Constanza Quiñones 3228645336
4/2/2020 9:26:03 María Fernanda Gil zapata 3209071646
4/2/2020 9:26:04 Geidy Gutiérrez Flores 3134040996
4/2/2020 9:26:18 Isnelda Gutiérrez España 3144736925
4/2/2020 9:26:36 mayulie Céspedes jurado 3143958795
4/2/2020 9:31:32 Carolina Martinez Murcia 3224776151
4/2/2020 9:35:18 María Yaqueline Bernal Flores 3232108018
4/2/2020 9:35:33 Carolina Martinez Murcia 3224776151
4/2/2020 9:38:55 Nini Constanza Sánchez perdomo 3138019591
4/2/2020 9:39:07 Carolina Martinez Murcia 3224776151
4/2/2020 9:44:43 Nini constanza Sánchez Perdomo 3138019591
4/2/2020 9:46:05 Héctor Quiñonez samboni 3142663002
4/2/2020 9:47:41 LEIDY AREVALO GUERRERO 3225358441
4/2/2020 9:49:15 LEIDY AREVALO GUERRERO 3225358441
4/2/2020 9:52:39 Luz edilma collazos silva 3107717519
4/2/2020 9:54:10 María Suleidy Ocampo leal 3142663002
4/2/2020 9:54:26 Nini Constanza Sánchez perdomo 3207832011
4/2/2020 9:58:43 Ximena tobar buitrago 3202192031
4/2/2020 9:58:44 GRISELIO GONZALEZ ESPAÑA 3214011091
4/2/2020 10:01:29 Yenny Paola figueroa ortiz 3133962378
4/2/2020 10:01:49 Jackelinne 3208238010
4/2/2020 10:04:11 Yenny Paola figueroa ortiz 3133962378
4/2/2020 10:04:21 Fabiola peña 3212585394
4/2/2020 10:05:23 Sandra milena Ramírez perez 3133302182
4/2/2020 10:06:44 Fabiola peña 3212585394
4/2/2020 10:07:02 Nidia ruth cadena zanchez 3124895200
4/2/2020 10:08:59 Fabiola peña 3212585394
4/2/2020 10:10:47 Fabiola peña 3212585394
4/2/2020 10:13:27 Maria Daile Lesmes Moreno 3223395838
4/2/2020 10:14:07 Sandra Milena Lugo Cuellar 3112718251
4/2/2020 10:17:12 Martha cecilia Polonia muños 3114851834
4/2/2020 10:19:32 Nidia ruth cadena zanchez 3124895200
4/2/2020 10:28:06 MARCELA PEÑA VELA 3232463942
4/2/2020 10:29:23 MARCELA PEÑA VELA 3232463942
4/2/2020 10:30:41 Shirley johana rodriguez saldaña 3004109936
4/2/2020 10:30:54 Lina maría Pérez Caicedo 3143865513
4/2/2020 10:31:36 MARCELA PEÑA VELA 3232463942
4/2/2020 10:32:29 Neireth motta 3227056230
4/2/2020 10:34:50 Luz edilma Collazos Silva 3107717519
4/2/2020 10:46:21 Marielly Tellez Paez 3222236694
4/2/2020 10:48:21 Adela aguirre 3219780503
4/2/2020 10:50:19 Rosa Elena Santanilla Artunduaga 3102203671
4/2/2020 10:52:29 Mercedes Ramirez González 3102481466
4/2/2020 10:54:41 Diana lopez ceballos 3115779599
4/2/2020 10:57:11 Senaida mosquer 3115751770
4/2/2020 11:04:58 Marleny Vasquez Rodríguez 3209586173
4/2/2020 11:05:55 Marleny Vasquez Rodriguez 3209586173
4/2/2020 11:06:09 Cindy Parra cuadrado 3138193835
4/2/2020 11:08:58 Adelmo vega garcia 3103014429
4/2/2020 11:10:25 Lourdes Murcia rojas 3124420591
4/2/2020 11:11:06 Sandra Milena tuzarma Trujillo 3115499240
4/2/2020 11:13:51 Zuleny muñoz murcia 3142946423
4/2/2020 11:14:15 Sandra Milena tuzarma Trujillo 3115499240
4/2/2020 11:14:31 Lourdes Murcia rojas 3124420591
4/2/2020 11:15:32 Nidia liceth Caviedes Trujillo 3114809016
4/2/2020 11:15:50 Angie lorena parra fajardo 3123046417
4/2/2020 11:16:22 Luis camilo vera uricochea 3123116834
4/2/2020 11:19:01 Nidia Liceth Caviedes Trujillo 3114809016
4/2/2020 11:21:26 Lourdes Murcia rojas 3124420591
4/2/2020 11:23:13 Heidy jazmí rojas 3 3157489220
4/2/2020 11:23:36 Vivia Horta 3102785006
4/2/2020 11:24:47 Nubia cuadrado 3134460416
4/2/2020 11:27:24 Heidy jazmín rojas 3157489220
4/2/2020 11:31:10 Floralba España Anturi 3112676997
4/2/2020 11:35:48 María Elena Palomares Monsalve 3155033730
4/2/2020 11:37:38 APOLONIA RAMOS 3134494803
4/2/2020 11:38:27 Olga milena parez 3148591224
4/2/2020 11:38:58 Jhily Johana Quiñonez 3223952887
4/2/2020 11:41:10 Jader Acosta Imbachi 3209196645
4/2/2020 11:41:54 Vilma garcia 3143856180
4/2/2020 11:44:07 Silvia Patricia artunduaga Ortega 3212358096
4/2/2020 11:44:33 Disney Zapata Tapiero 3204248056
4/2/2020 11:45:56 Yineth Velandia calderon 3135371759
4/2/2020 11:47:17 Luz Gutiérrez 3142498409
4/2/2020 11:52:44 Lidia Constanza Vargas 3106773110
4/2/2020 11:53:29 Martha Vanegas 3223601943
4/2/2020 11:53:57 Sonia loaiza ramos 3202783566
4/2/2020 11:54:07 Elcira valencia Quintero 3114974036
4/2/2020 11:56:13 Elvia 3114662323
4/2/2020 11:57:33 Jhily Johana Quiñonez 3223952887
4/2/2020 11:57:51 Diana gutierrez perez 3142207935
4/2/2020 11:57:57 argenis pulecio 3134831760
4/2/2020 11:58:09 Marco antonio samboni obregon 3203313836
4/2/2020 11:58:55 Yolanda oliveros 3128290134
4/2/2020 11:58:58 Stella meneses parra 3202526009
4/2/2020 11:59:03 jhenny florez 3203416248
4/2/2020 11:59:10 Kelly johanna támara 3136897575
4/2/2020 11:59:33 Sonia loaiza ramos 3202783566
4/2/2020 12:01:47 Kelly johanna támara 3136897575
4/2/2020 12:01:50 Sandra Milena Cuellar 3213496736
4/2/2020 12:05:30 Magola Bran Murcia 3115545844
4/2/2020 12:06:49 Stella meneses parra 3202526009
4/2/2020 12:07:02 Diana Marcela correa 3217932939
4/2/2020 12:08:10 ERMELINDA CÁRDENAS 3115407355
4/2/2020 12:08:17 Marley 3114759739
4/2/2020 12:09:30 ERMELINDA CÁRDENAS 3115407355
4/2/2020 12:10:12 Maria isabel jaramillo varon 3144880018
4/2/2020 12:11:03 Nidia Ruth Cadena Zanchez 3124895200
4/2/2020 12:11:26 Andrea Santofinio Gomez 3227070674
4/2/2020 12:12:07 Kelly johanna támara 3136897575
4/2/2020 12:12:41 Diana Marcela correa 3217932939
4/2/2020 12:12:45 María Nelcy González Buitrago 3224593868
4/2/2020 12:13:57 Marley 3114759739
4/2/2020 12:14:26 Magola Bran Murcia 3115545844
4/2/2020 12:15:03 Mauerli portllo cisneros 3157345315
4/2/2020 12:18:16 Argenis Buitrago 3204186354
4/2/2020 12:18:23 NINI JOHANA TRIVIÑO RENTERIA 3104815739
4/2/2020 12:18:48 Laura dayana Vargas perez 3115676968- 3112935
4/2/2020 12:19:37 Maria Oliva Bucuru Alape 3214317804
4/2/2020 12:19:43 diana milena palma montoya 3214582495
4/2/2020 12:20:15 NINI JOHANA TRIVIÑO RENTERIA 3104815739
4/2/2020 12:21:55 Milady velasquez Milady velasquez
4/2/2020 12:22:12 Maria Oliva Bucuru Alape 3123335668
4/2/2020 12:22:42 Argenis Buitrago 3204186354
4/2/2020 12:27:40 Omaira rincon 3208715472
4/2/2020 12:28:51 DORALBA CRUZ POVEDA 3213673371
4/2/2020 12:34:54 Carolina perez Garzón 3202155624
4/2/2020 12:35:01 Andrea yakeline mora 3132583433
4/2/2020 12:38:26 Yosoty herrera perez 3183001081
4/2/2020 12:41:56 diana milena palma montoya 3214582495
4/2/2020 12:43:31 Lidia enith Valencia Perdomo 3134093270
4/2/2020 12:43:34 Ingrid Katherine rojano zapata 3118923339
4/2/2020 12:44:10 Kelly johanna támara 3136897575
4/2/2020 12:45:51 YAMILED ZAPATA SILVA 3146095939 _ 31088
4/2/2020 12:50:54 Ines cabezas 3227442363
4/2/2020 12:58:44 Diana Lorena Bautista Sánchez 3107636442
4/2/2020 13:01:07 Sandra Patricia Morales sandoval 3103010419
4/2/2020 13:09:47 Ingri Katherine busca carvajal 3202012038
4/2/2020 13:12:05 Carmelina Ortiz perafan 3112540735
4/2/2020 13:16:12 FLOR EDID PATIÑO PAJOY 3107788265
4/2/2020 13:17:41 FLOR EDID PATIÑO PAJOY 3107788265
4/2/2020 13:21:31 Maria alejandra yalanda salazar 3103404776
4/2/2020 13:29:00 Flor Maria Pinzon Lasso 3207850176
4/2/2020 13:29:31 Heidy Paola Bolivar 313 454 6000
4/2/2020 13:33:26 massiel agredo coque 3108861036
4/2/2020 13:35:23 Heidy Paola Bolivar 313 454 6000
4/2/2020 13:36:35 Mariela claros 3114605602
4/2/2020 13:36:50 Eri a cortes hoyos 3209096362
4/2/2020 13:43:40 Heidy Paola Bolivar 313 454 6000
4/2/2020 13:49:18 Luz mila rojas 3132411209
4/2/2020 13:49:33 Mayerli portillo cisneros 3157345315
4/2/2020 13:51:27 YOMARLY TIMANA 3125448984
4/2/2020 13:52:05 Blanca zambrano 3208270486
4/2/2020 13:54:15 YOMARLY TIMANA 3125448984
4/2/2020 14:05:30 Sandramilena 3229356107
4/2/2020 14:15:55 Argenis Medina Ramos 3222236355
4/2/2020 14:16:24 RUBY MORENO MESA 3208768054
4/2/2020 14:21:38 Yorladis marin cruz 3223042019
4/2/2020 14:21:47 Kelly Stephanel Collazos Ramos 3146485933
4/2/2020 14:28:13 nini johanna uribe londoño 3114800476
4/2/2020 14:31:29 Yolanda Valencia Ramires 3142622410
4/2/2020 14:31:46 Marisol silva 3225892256
4/2/2020 14:34:43 Jeny Alejandra Saldaña Quintero 3204286240
4/2/2020 14:49:33 José Gilberto Castro Duarte 3212527116
4/2/2020 14:52:48 Maria suleima tenorio 3108771690
4/2/2020 14:55:59 Maria Suleima tenorio 3108771690
4/2/2020 14:57:24 Luz Deicy Toro Gómez 3214535210
4/2/2020 14:59:27 Maria suleima tenorio 3108771690
4/2/2020 15:00:53 Martha lucia valencia forero 3112310474
4/2/2020 15:02:57 Nelvi Tatiana Cuellar Rojas 3105559934
4/2/2020 15:04:40 Luz Deicy Toro Gómez 3214535210
4/2/2020 15:06:29 Nadia vera alape 3105651510
4/2/2020 15:06:43 Martha lilia Casanova Yalusan 3133361211
4/2/2020 15:18:52 José Gilberto Castro Duarte 3212527116
4/2/2020 15:20:15 Zulma Juliana Bobadilla Muñoz 3103469633
4/2/2020 15:22:04 Luz arelis chala 3213446922
4/2/2020 15:30:22 Blanca aurora Garsia 3132313610
4/2/2020 15:32:28 Lidia Constanza Vargas 3106773110
4/2/2020 15:35:11 Karen Tatiana Córdoba santofinio 3208028667
4/2/2020 15:37:18 YURI HINCAPIE CHARO 3235774908
4/2/2020 15:50:48 Yaneth artunduaga fajardo 3202576086
4/2/2020 15:58:04 Yolanda Cendales Ortiz 3136046159
4/2/2020 16:05:55 Dilsa Renteria Naranjo 3228522132
4/2/2020 16:07:30 Joralia roa castro 3118451147
4/2/2020 16:09:02 Roman cuenca ocampo 3142840919
4/2/2020 16:11:18 Alberto Medina ramos 3202836769
4/2/2020 16:11:50 Joralia roa castro 3118451145
4/2/2020 16:13:12 Roman cuenca ocampo 3142840919
4/2/2020 16:14:20 Alberto Medina Ramos 3202836769
4/2/2020 16:21:23 Leidy yicela brabo lozada 3107983929, 31
4/2/2020 16:22:14 Adriana milena monaneguedo hernandez 3134759904
4/2/2020 16:24:11 Adriana milena monaneguedo hernandez 3134759904
4/2/2020 16:26:53 Adriana milena monaneguedo hernandez 3134759904
4/2/2020 16:29:25 Martha Lucia Ramirez Betancur 3138608994
4/2/2020 16:31:11 Sandra patricia neira uribe 3133402503
4/2/2020 16:35:52 Rosalba Gutiérrez 3133524306
4/2/2020 16:35:57 Tivisay silva 3118285589
4/2/2020 16:36:50 Blanca libia sandoval 3112374526
4/2/2020 16:42:19 Rosalba Gutiérrez 3133524306
4/2/2020 16:47:08 Luz marina parra Valderrama 3134977920
4/2/2020 16:53:32 Maria dina gracia Sierra 3224223566
4/2/2020 16:54:22 Rosa Elena Blandon 3136046159
4/2/2020 16:57:38 Nidia Olaya 3115838867
4/2/2020 17:00:06 Tivisay silva 3118285589
4/2/2020 17:00:08 Luz Miriam Aldana 3132652311
4/2/2020 17:01:08 José Jesús Quintero Castaño 3128520628
4/2/2020 17:02:06 Luz Miriam Aldana Ruiz 3132652311
4/2/2020 17:03:52 Judith Yanel Bolaños Parra 3137241637
4/2/2020 17:12:07 Edilma 3107687492
4/2/2020 17:14:29 Arvenis Muñoz 3134144752
4/2/2020 17:16:29 Edilma 3107687492
4/2/2020 17:19:24 Edilma 3107687492
4/2/2020 17:22:41 Diana marsela murcia 3123033710
4/2/2020 17:26:59 Diana murcia 3123033710
4/2/2020 17:27:28 Martha Isabel suares Gaitan 3123957527
4/2/2020 17:29:23 Diana Marcela murcia 3123033710
4/2/2020 17:32:21 Luz Angela cuellar samboni 3103373071
4/2/2020 17:33:55 Juan carlos curllar 3227229092
4/2/2020 17:35:11 Digna Maria montealegre torres 3118403323
4/2/2020 17:50:25 Deisy Lorena Ruiz 312 848 1730
4/2/2020 17:53:44 Yineth diaz 3203690956
4/2/2020 17:54:45 Maria diliavidalesprada 3142650749
4/2/2020 17:55:15 Yeini johana acosta sabogal 3212211980
4/2/2020 17:55:50 Deisy lorena ruiz 3128481730
4/2/2020 17:55:52 Elcy manrrique Peñuela 3102294295
4/2/2020 17:58:05 ROSARIO ARRIGUI NAVIA 3114744436
4/2/2020 17:59:32 Maryibi Arango Quintero 3206736849
4/2/2020 18:03:28 Martha Isabel Suárez Gaitan 3123957527
4/2/2020 18:08:23 Maria Dilia Vidales Prada 3125800134
4/2/2020 18:11:51 Disney Andrade Noreña 3118480826
4/2/2020 18:13:59 Sandra Muñoz Rozada 3144017868
4/2/2020 18:21:32 Rubianit 3209696187
4/2/2020 18:26:34 Disnory tatiana Suárez ospina 3208418214
4/2/2020 18:26:38 Disney Zapata 311 2111419
4/2/2020 18:26:40 Rubianit 3209696187
4/2/2020 18:26:52 Tulia Johana Gutiérrez 3213899740
4/2/2020 18:29:36 Yadira Bocanegra tafur 3107763648
4/2/2020 18:30:49 Enrrique cuellar claros 3115124279
4/2/2020 18:32:30 Maria elizabeth 3208945654
4/2/2020 18:34:44 Yadira Bocanegra tafur 3107763648
4/2/2020 18:43:11 Lidubina ortiz fierro 3219323960
4/2/2020 18:49:20 Marbi vivíana Rocha Pelaez 3204948683
4/2/2020 18:53:27 Marbi vivíana Rocha Pelaez 3204948683
4/2/2020 19:01:06 Yira Liseth Cuellar Jimenez 3163549609
4/2/2020 19:04:10 Delia González Triviño 3112631723
4/2/2020 19:04:28 Yudith penagos valencia 3125299964-32083688
4/2/2020 19:10:12 Cirley zuñoga montealegre 3142088050
4/2/2020 19:10:55 Yudith penagos valencia 3125299964-32083688
4/2/2020 19:13:56 Victor alfonsa trujillo 3118616541
4/2/2020 19:20:31 Mirley calderon gomes 3143857729
4/2/2020 19:21:42 Nayari Buitrago 3138782682-31124580
4/2/2020 19:26:17 Nini Johana Batista Yépez 3144501650
4/2/2020 19:29:10 Carlos alberto tique 3118113901
4/2/2020 19:43:33 Oscar Eduardo Osso 311 5937350
4/2/2020 19:45:18 Jeiny lorena montiel 3144004586
4/2/2020 19:48:03 Letty Yesenia Rivera Vargas 3185119602
4/2/2020 20:02:16 Deicy Carvajal Gutiérrez 3118276562
4/2/2020 20:03:31 Martha Rorio Pajoy Guzman 3138971183
4/2/2020 20:07:52 Maria Rocio Cuscue Pechene 3208432117
4/2/2020 20:09:42 Adriana Rendon 3223634558
4/2/2020 20:14:28 Andrea estefania perez escandon 3203181739
4/2/2020 20:26:43 Bellanid floriano 3145761020
4/2/2020 20:28:26 Adriána Rendon 3223634558
4/2/2020 20:30:11 Yamile gonzalez gomez 3133744107
4/2/2020 20:40:08 Maria Inés Gutiérrez Losada 3118279364
4/2/2020 20:41:00 Johana Salcedo Sánchez 3219560294
4/2/2020 20:46:06 Doris palomares 3128605775
4/2/2020 20:48:00 Doris palomares 3128605775
4/2/2020 20:48:21 Martha Rocio Pajoy Guzman 3138971183
4/2/2020 20:55:08 Milena Álvarez Becerra 3142881052
4/2/2020 20:59:06 Ildamaris silva quebrada 3142869741
4/2/2020 21:00:29 Yineth Loaiza Tique 3203014275
4/2/2020 21:00:33 Lidia Andrea Pajoy Guzmàn 3138848121
4/2/2020 21:14:34 Eva María Zabala Hurtado 3143984224
4/2/2020 21:18:00 Milena Álvarez Becerra 3142881052
4/2/2020 21:18:07 Eva María Zabala Hurtado 3143984224
4/2/2020 21:19:18 Leidy Johana Mosquera Andrade 3212220416
4/2/2020 21:24:22 Ana angelica ortiz hernandéz 3208287631
4/2/2020 21:24:24 Orfa piamba chaux 3123240646
4/2/2020 21:46:29 Deni jurdey beltran 3108533247
4/2/2020 21:57:15 Leidy Ziomara Londoño Londoño 3113557713
4/2/2020 22:24:11 Nicolas Obregón Trujillo 3132733783
4/2/2020 22:25:12 Carmenza Castaño López 3137336885
4/2/2020 22:43:04 Carmenza Castaño López 3137336885
4/3/2020 3:15:41 Yhury Andrea Clavijo Quintero 3203973424
4/3/2020 8:35:46 Diva Maria vargas 3124935044
4/3/2020 9:12:08 Isabel Calderón Ordóñez 3114702343
4/3/2020 9:31:20 ORFELINA ALAPE TAPIERO 3213910227
4/3/2020 9:37:48 Ana mildrey montes murcia 3015585094
4/3/2020 9:46:10 Gina consuelo mavesoy osorio 3153535613
4/3/2020 9:55:39 Maria omaira hernandez 3144909880
4/3/2020 10:13:06 Adriana zambrano 3115300465
4/3/2020 10:47:43 Luz angélica ceron samboni 3143012243
4/3/2020 10:52:31 Luz angélica ceron samboni 3143012243
4/3/2020 11:06:36 Luz arelis cortes dussan 3122463748
4/3/2020 11:17:06 ZENIDA SILVA BRIÑEZ 3223589245
4/3/2020 11:29:42 ALBERTO MEDINA RAMOS 3202836769
4/3/2020 11:31:19 ALBERTO MEDINA RAMOS 3202836769
4/3/2020 11:32:09 Edith Garzon Reyes 3106679932
4/3/2020 11:46:44 VILLADELCY ALDANA RUIZ 3112240254
4/3/2020 11:48:59 VILLADELCY ALDANA RUIZ 3112240254
4/3/2020 11:49:54 Angie lorena claros hincapie 31 3102048051
4/3/2020 11:59:08 Delia reyes zambrano 3102850008
4/3/2020 12:01:18 YURY HARLEY ROBLES VILLAPRADEZ 3107937407
4/3/2020 12:08:21 Angie lorena claros hincapie 3102048051
4/3/2020 12:17:00 Angie lorena claros hincapie 3102048051
4/3/2020 12:17:03 Luz dary Lizcano 3123480452
4/3/2020 12:18:21 Álvaro gomez 3224393519
4/3/2020 13:20:02 yamile andrea naranjo avirama 3102501165
4/3/2020 13:29:46 Luceny Pastrana lozada 3143169023
4/3/2020 13:31:35 Damaris Pulecio Cuellar 3125226795
4/3/2020 13:32:53 Lilia Villanueva 3135256744
4/3/2020 13:35:09 Carmenza Tique Culma 3215057851
4/3/2020 13:38:07 Mary Ibeth Gómez Leal 3208613781
4/3/2020 13:51:05 Mary Ibeth Gómez Leal 3208613781
4/3/2020 13:54:17 Ana argenis claros hincapie 3228508132
4/3/2020 13:54:31 Mary Ibeth Gómez Leal 3208613781
4/3/2020 14:01:12 Elizabeth Martínez Lozada 3105893954
4/3/2020 14:20:12 María yesmin Sánchez otros 3208478592
4/3/2020 14:20:46 Ildamaris silva quebrada 3142869741
4/3/2020 15:08:22 Sandra Milena Cuellar Lozada 3136433007
4/3/2020 15:12:22 Ines cabezas 3227442363
4/3/2020 15:17:08 Ines cabezas 3227442363
4/3/2020 15:23:16 Luz marinnamurcis 3222457957
4/3/2020 15:29:48 Ines cabezas 3227442363
4/3/2020 15:30:37 EMERITA QUINTERO CHAUX 3134715740
4/3/2020 15:32:22 ADRIANA VALLEJO VARGAS 3124447896
4/3/2020 15:32:28 norma constanza narvaez caviedes 3138756482
4/3/2020 15:37:35 johana villaquira 3125867767
4/3/2020 15:46:50 Luz Marina Tapiero Diaz 3104569392
4/3/2020 15:53:26 Yina marcela paredes cardenas 3204899804
4/3/2020 15:59:00 Maria noemi quintero romero 3204648730
4/3/2020 16:00:36 diana marcele quinetro tique 3203628400
4/3/2020 16:10:54 MARIA DEYANIRA VARGAS MUÑOZ 3103350339
4/3/2020 16:22:45 MARIA ALEJANDRA PORTILLA MEDINA 3132087674
4/3/2020 16:35:11 Blanca Delly Lozano Gomez 3134062766
4/3/2020 16:40:43 Maria inez gutierrez lozada 3118279364
4/3/2020 16:44:42 ROBINSON RAMIREZ SALAZAR 3108112687
4/3/2020 17:05:49 Maria ines angulo sanchez 3222867684
4/3/2020 17:11:32 Eudicia Aroca Mendoza 3218831941
4/3/2020 17:22:57 Luz Eleni Orosco Cruz 3207646368
4/3/2020 17:51:34 Nohelia ramirez 3153854844
4/3/2020 18:06:00 Jhon fredi parraga españa 3138799198
4/3/2020 18:07:27 Quintero Tique Diana Marcela 3203628400
4/3/2020 18:15:00 Yineth Diaz 3203690956
4/3/2020 18:19:20 Luz celida almario zambrano 3134756528
4/3/2020 18:24:45 Lurda irne Urrea ospitia 3202256921
4/3/2020 18:41:31 Anali Murcia peńa 3143843605
4/3/2020 18:41:38 Yira yuli conde 3126708647
4/3/2020 19:09:42 ANAYIBE ENDP 3214339663
4/3/2020 19:30:08 Luz elena gaitán olaya 3143868658
4/3/2020 19:38:20 Yira yulieth conde 3126708647
4/3/2020 19:55:16 Maria emilia rojas claros 3115572567
4/3/2020 20:03:16 Misael rivera varga 3227070713
4/3/2020 20:06:43 Lina maría Pérez Caicedo 3143865513
4/3/2020 20:18:20 Martha busto alvira 3115783027
4/3/2020 20:52:49 Yulene galvis franco 3204071386
4/3/2020 20:59:28 Eider javier cardona cruz 3108500645
4/3/2020 21:02:05 Tivisay silva 3118285589
4/3/2020 21:17:35 Miller marines 3132251335
4/3/2020 21:19:38 Gloria Patricia Gomez Vargas 3105528360
4/3/2020 21:27:58 Gloria Patricia Gomez Vargas 3105528360
4/3/2020 23:03:08 Gloria Nelcy monsalve 3132266424
4/4/2020 7:08:47 Maricel Rodriguez Marquez 3217835430
4/4/2020 8:39:31 Maria olga jacanamejoy sotto 3103970433
4/4/2020 8:45:58 Karla Benavidez Rivera 3123397559
4/4/2020 9:08:19 Paola Andrea murcia 3132141985
4/4/2020 9:14:01 Paola Andrea murcia endo 3132141985
4/4/2020 11:36:17 Diana paola cabrera vargas 3138304267
4/4/2020 11:45:37 Deisy marcela plazas mosquera 3202960600
4/4/2020 12:10:47 Yakeline villada 3176832384
4/4/2020 12:12:05 nilsa Paola Ducuara toquica 3118095587
4/4/2020 12:13:31 DAVID YATE DUCUARA 3225342283
4/4/2020 12:17:03 ANA ARMEYIS CUELLAR ALVARES 3103000018
4/4/2020 12:28:12 olga Lucía flores 3143082624
4/4/2020 12:56:19 Adriana jimenez mendoza 3134757959
4/4/2020 13:02:02 Leidy Johana Home vargas 3118095811
4/4/2020 13:36:32 Elvira nuñez bonilla 3124926969
4/4/2020 13:47:18 Elvira nuñez bonilla 3124926969
4/4/2020 13:58:45 Johana Trujillo 3202188037
4/4/2020 14:19:12 Darly cubillos 3143856207
4/4/2020 15:20:08 DEISY VASQUEZ ROMERO 3214150990
4/4/2020 15:22:12 DEISY VASQUEZ ROMERO 3214150990
4/4/2020 15:22:45 Ruth ñenny Rojas 3118899182
4/4/2020 15:23:49 DEISY VASQUEZ ROMERO 3214150990
4/4/2020 16:24:12 Rosa isela buendia moreno 3105888828
4/4/2020 16:45:14 Dilsa montilla gasca 3188975135
4/4/2020 16:55:22 Kyleen brillehiny melo 3124959082
4/4/2020 17:27:06 Martha Lizeth yate Ledezma 3223866797
4/4/2020 17:29:56 Martha Lizeth yate Ledezma 3223866797
4/4/2020 17:39:40 LUZ DARY MARTINEZ PIZO 3208141535
4/4/2020 17:56:03 LUZ DARY MARTINEZ PIZO 3208141535
4/4/2020 18:04:55 MARISOL CHAUX HURTADO 3162937737
4/4/2020 18:50:57 Adelia saldaña3 3102800775
4/4/2020 19:33:37 Yamile andrea tellez 3143686931
4/4/2020 19:43:29 Lucelida. Ramos 3219932747. 322
4/4/2020 19:58:41 Maribel vera florez 3134861846
4/4/2020 20:13:56 Leidi Johana torres hurtado 3102927299
4/4/2020 23:19:59 Maricela rojas guerrero 3124341606
4/5/2020 8:19:47 Yhury Andrea Clavijo Quintero 3203973424
4/5/2020 10:43:17 ALEJADRO CAICEDO CASTRO 3104812339 - 322444
4/5/2020 10:48:01 SANDRA CLEMENCIA RAMIREZ BERMUD 3204534967
4/5/2020 10:52:40 JANETH ARTUNDUAGA 3202576086
4/5/2020 10:54:39 JANETH ARTUNDUAGA 3202576086
4/5/2020 11:03:44 YOLANDA NUÑEZ RAMOS 3204961546
4/5/2020 11:21:00 ELIANA YIRLESA CABRERA BONILLA 310 4960096
4/5/2020 11:23:35 ELIANA YIRLESA CABRERA BONILLA 3104960096
4/5/2020 11:33:11 YULIBEL QUILA TORO 3144736562
4/5/2020 11:34:45 MARIA LOURDES ANACONA 3102046429
4/5/2020 11:37:31 EDILBERTO RENGIFO ROJAS 3134441751
4/5/2020 11:40:41 MIRIAM ELENA CARDONA ROSAS 3134086559
4/5/2020 11:41:33 CINDY LORENA LOPEZ 3206504720
4/5/2020 11:42:48 MIRIAM ELENA CARDONA ROSAS 3134086559
4/5/2020 11:48:23 DIANA SHIRLEY TRIANA SANCHEZ 3114558269 - 3166094398
4/5/2020 11:50:41 DIANA SHIRLEY TRIANA SANCHEZ 3114558269 - 3166094
4/5/2020 11:51:26 NANCY PAPAMIJA 3124831187
4/5/2020 11:58:34 YENNY FERNANDA VARGAS ROJAS 3125403533
4/5/2020 12:01:07 Diana Maria Buendia Moreno 3114518818
4/5/2020 12:03:48 Diana Maria Buendia Moreno 3114518818
4/5/2020 13:51:47 Marleny Ortiz Chala 3215056413
4/5/2020 13:55:21 Marleny Ortiz Chala 3215056413
4/5/2020 14:03:47 Lilibed maely 3144442000
4/5/2020 14:06:14 Marleny Ortiz Chala 3215056413
4/5/2020 14:06:34 lilibed maely Varela lugo 3144442000
4/5/2020 14:38:51 Ana Luceny Quintero Celis 3102559010-31349349
4/5/2020 14:42:22 Ana Luceny Quintero Celis 3102559010-31349349
4/5/2020 15:22:54 OFELIA BUSTAMANTE MORENO 3115063165
4/5/2020 15:33:12 ERICA YINET TIQUE 3212811568
4/5/2020 15:36:17 CENIDA SILVA BRINEZ 3223589245
4/5/2020 15:39:11 NELLY CRUZ BUSTOS 3132432967
4/5/2020 15:44:24 ELIZABETH ESTERLIN HERNANDEZ 3229708885
4/5/2020 15:55:24 PATRICIA HERNANDEZ GONZALES 3218285849
4/5/2020 16:06:17 Diana marcela quintero tique 3203628400
4/5/2020 16:09:08 LUZ MILA HOYOS 3507093937
4/5/2020 16:36:54 CENAIDA PERDOMO 3212667212
4/5/2020 18:04:51 Jhily Johana Quiñonez 3223952887
4/5/2020 18:10:47 Luz elena gaitan olaya 3124380169
4/5/2020 18:10:49 Luz Elena Gaitan 3124380169._3123198
4/5/2020 18:14:26 GABRIEL QUINTERO 3118723383
4/5/2020 18:17:09 Luz Elena Gaitan 3124380169._3123198
4/5/2020 18:23:04 Maria rubiela olaya londoño 3106016693
4/5/2020 18:49:09 Claudia Marcela Córdoba romero 3228347274
4/5/2020 20:37:23 Elicenia Yoja Vargas 3142214963
4/5/2020 21:41:46 Eibar Muñoz Romero 3176696579
4/6/2020 9:21:40 JACKELINE VILLADA 3176832384
4/6/2020 9:27:58 YURI HINCAPIE CHARO 3235774908
4/6/2020 9:29:56 YURI HINCAPIE CHARO 3235774908
4/6/2020 9:35:44 Blanca Daisy Villamid Prieto 3185234046
4/6/2020 9:37:53 BLANCA DAISY VILLAMIL PRIETO 3185234046
4/6/2020 9:44:24 SANDRA MILENA QUIVANO 3134235721
4/6/2020 9:50:30 NIDIA VERGARA 3142590319
4/6/2020 9:56:30 LUZ MARI LOAIZA CACAI 3132571664
4/6/2020 9:59:20 LUZ MARI LOAIZA CACAI 3132571664
4/6/2020 9:59:43 MARIA STELLA VARGAS NUÑEZ 3124097531
4/6/2020 10:03:46 ALCIDES LEON 3208478592
4/6/2020 10:06:48 jhoana bonilla trujillo 3214594331
4/6/2020 10:15:54 María Idalid Brand Collazos 3142639712
4/6/2020 10:21:31 ROSA SOSA ROJAS 3145553265
4/6/2020 10:24:38 CLAUDINA GUTIERREZ 3214173035- 3124082
4/6/2020 10:27:46 FELIZ ZUÑIGA CLAVIJO 3213419446
4/6/2020 10:29:50 LEIDY JOHANA ANACONA GARCIA 3222258102
4/6/2020 10:31:32 NATALIA ROJAS HURTADO 3228885274
4/6/2020 10:31:57 Maria isabel jaramillo varon 3144880018
4/6/2020 10:35:09 MARTHA LUCIA RAMOS PEÑA 3118655051
4/6/2020 10:37:12 MARTHA LUCIA RAMOS PEÑA 3118655051
4/6/2020 10:39:15 CLAUDINA GUTIERREZ 3214173035
4/6/2020 10:39:34 MARTHA BUSTOS ALVIRA 3115783027
4/6/2020 10:41:50 CLAUDINA GUTIERREZ 3214173035
4/6/2020 10:44:14 PATRICIA PULGARIN 3115037095
4/6/2020 10:45:24 ROSA AISAMA AISAMA 3144911283
4/6/2020 10:48:35 MARIA HERLINDA RODRIGUEZ 3128235920
4/6/2020 10:49:27 Dilsa renteria narajo 3228522123
4/6/2020 10:53:49 Yolanda ramirez gonzales 3142046464
4/6/2020 10:56:55 JESSICA ALEJANDRA PLAZAS CULMA 3143448769
4/6/2020 10:57:57 Erika Natalia Cubillos Villaquira 3214335218
4/6/2020 10:59:12 Yamari criollo 3142046464
4/6/2020 10:59:59 GIMENA TRIANA SANCHEZ 3124329788
4/6/2020 11:12:21 Mariannys medina 3209364048
4/6/2020 11:20:32 EUGENIA ARELY CARRERA TOLEDO 3214564170-31245324
4/6/2020 11:20:51 Gina. Marcela Galindo Ramires 3144580706
4/6/2020 11:21:01 Mariannys medina 3209364048
4/6/2020 11:31:15 EUGENIA CARRRERA 3124974850
4/6/2020 11:31:20 EUGENIA CARRRERA 3124974850-
4/6/2020 11:41:01 Rudy yaneth chala 3123238466
4/6/2020 11:46:26 Zulma juliana bobadilla muñoz 3103469633
4/6/2020 11:48:13 Rusmery Ospina trujillo 3127799157
4/6/2020 12:05:18 Hector Alirio Laon pinzon 3133082344
4/6/2020 12:05:29 Nidia Ramirez Hernandez 3103081574
4/6/2020 12:22:21 JACKELINA PARRA MONTIEL 3206500475
4/6/2020 12:22:36 JACKELIN PARRA MONTIEL 3206500475
4/6/2020 12:32:35 Mercedes Criollo murcia 3118094394
4/6/2020 12:44:14 Elena ospina 3203419085
4/6/2020 12:47:32 María Amparo Nivia Nivia 3202810346
4/6/2020 12:47:41 Elena ospina 3213081731
4/6/2020 12:59:18 Luceli iglecias sanchez 3118089656
4/6/2020 13:00:16 María Amparo Nivia Nivia 3202810346
4/6/2020 13:05:58 yoana villaquira 3125867777
4/6/2020 13:11:27 Jaidith Quintero cardenas 3143875700
4/6/2020 13:15:17 Maria Deici Guapacha 3183136369
4/6/2020 13:20:37 Sorfiria tafur arturo 3214471891
4/6/2020 13:21:13 Diana marcela martinez sanchez 3138067973
4/6/2020 13:31:42 yina Marcela González cruz 3125387321
4/6/2020 13:33:05 María Omaira ospina bolivar 3212840411
4/6/2020 13:44:34 Yorladis Marín cruz 3223042019
4/6/2020 13:49:51 Luis Hernán perez 3123115460
4/6/2020 14:03:34 Nancy Hernán Jiménez 3134193980
4/6/2020 14:07:46 Dania mirelly caicedo Calderón 3222480298
4/6/2020 14:08:52 Lázaro Dominico Dominico 3224512631
4/6/2020 14:10:36 Lida Yolanda sambony 3123540199
4/6/2020 14:22:06 NILSA YUŔLENY LUNA MALAMBO 3143101756
4/6/2020 14:22:45 Esmilda pimentel perez 3219177500
4/6/2020 14:30:24 Edith Covaleda carvajal 3147767178
4/6/2020 14:34:34 Edith cobaleda carvajal 3147767178
4/6/2020 14:35:55 Diana Paola Claros 3212843771
4/6/2020 14:40:43 Gloria milena Rodríguez 310 848 2399
4/6/2020 14:51:51 WILMER GARCIA GIL 3138276883
4/6/2020 14:53:57 Olga Carmenza Ibarra gonzales 3134483099
4/6/2020 14:58:54 ANAYIBE ENDO 3214339663
4/6/2020 15:07:39 Elida Martínez fierro 3133249318
4/6/2020 15:09:23 Dirley Ortiz Molano 3232993035
4/6/2020 15:22:07 Leidy 3115564059
4/6/2020 15:29:16 Leidy vasquez 3134723411
4/6/2020 15:32:08 Dora lilia campos 3143999094
4/6/2020 15:36:09 Lina paola florez sanchez 3124043741 -31439018
4/6/2020 15:41:11 Lina Paola florez sanchez 3124043741 -31439018
4/6/2020 15:42:46 Darcy Pulecio Cuellar 3112376547
4/6/2020 15:43:35 Alba ruth castaño 3208857878
4/6/2020 15:47:50 Leidy rodriges 3115564059
4/6/2020 15:55:52 RICARDO MURCIA OTAVO 3218287561
4/6/2020 16:04:19 YUDI MARCELA PRIETO CARVAJAL 3127483508
4/6/2020 16:18:03 FLOR YENNI LEDESMA CUELLAR 3204349749
4/6/2020 16:21:19 Diana Paola claros escalante 3212843771
4/6/2020 16:25:20 LUZ MIRIAM VELEZ RUIZ 3174501413
4/6/2020 16:27:54 LUZ MIRIAM VELEZ RUIZ 3174501413
4/6/2020 16:36:54 YOLANDA URBINA ARTUNDUAGA 3224398417
4/6/2020 16:40:29 YOLANDA URBINA ARTUNDUAGA 3224398417
4/6/2020 16:45:17 BELFA AYSAMA TASCON 3223591502
4/6/2020 16:47:51 BELFA AYSAMA TASCON 3223591502
4/6/2020 16:53:42 Karol marin gutierrez 3228529913
4/6/2020 16:56:13 YULIANA PAOLA PERDOMO GUARISUM 3202715919
4/6/2020 17:01:08 Lucero Collazos 3142216715
4/6/2020 17:03:04 Edinson ospina 3143949846jho
4/6/2020 17:04:57 IDALMY SIERRA CASTRO 3142191648
4/6/2020 17:18:00 MAYERLY JUANIAS ANGEL 3143291822
4/6/2020 17:22:22 Luz marina betancur 3107755593
4/6/2020 17:30:41 Maria Rosa c aipe caicedo 3126496080
4/6/2020 17:32:34 Rocio cordoba males 3143846610
4/6/2020 17:42:37 LEIDY JOHANA POLO RIOS 3108601863
4/6/2020 17:49:12 DAMARIS GIRON FLOREZ 3124498995
4/6/2020 17:51:09 DAMARIS GIRON FLOREZ 3124498995
4/6/2020 17:52:07 Andrea Mileth Valencia Ramírez 3227577774
4/6/2020 18:14:03 Argenis suarez trujillo 3125545097
4/6/2020 18:33:38 Carolina Osorio 3144592325
4/6/2020 18:57:43 Mónica Alejandra cubillos ramos 3142097584
4/6/2020 19:02:38 mayra alejandra artunduaga gutierrez 3227166600
4/6/2020 19:05:59 Luz elida onando reyes 3134723385
4/6/2020 19:13:15 Luz elida obando reyes 3134723385
4/6/2020 19:24:25 me parece bien con esta propuesta 3118262624
4/6/2020 19:30:24 Luz marina betancur 3107755593
4/6/2020 19:31:52 ESEQUIEL RIVERA 3223248163
4/6/2020 19:33:38 ESEQUIEL RIVERA 3223248163
4/6/2020 20:47:45 Evelin ramos Muñoz 3102557829
4/6/2020 20:51:54 Nilson roncancio 3222379327
4/6/2020 21:15:30 Yamile Andrea Téllez losano 3143686931
4/6/2020 21:35:49 Yessica paola Gómez claros 3227224647
4/6/2020 23:10:49 Yorleny García jimenez 3123710364
4/7/2020 9:40:27 Zoraida muños 3106292064
4/7/2020 10:47:55 maria nohemi quintero romero 3204648730
4/7/2020 12:25:33 Maryi paola Marines Brand 3112695891
4/7/2020 12:32:04 Maryi paola Marines Brand 3112695891
4/7/2020 12:35:20 Maryi paola Marines Brand 3112695891
4/7/2020 12:58:30 Zoraida Muños 3106292064
4/7/2020 15:38:56 ZAFIREKUDO CUYOTECA OSVALDO 3107620448
4/7/2020 15:42:39 MARIA ALEJANDRA DELGADI DIAZ 3143694080
4/7/2020 15:46:27 YUDI ANGELICA MENDOZA ORTIZ 3123004287
4/7/2020 15:52:17 ENEIDA CORREA 3107669262
4/7/2020 15:54:44 Yovani Gaviria 3115591039
4/7/2020 16:05:09 YILTON ANDRES DAZA 3232143675
4/7/2020 16:11:11 norma Lozano 3103014238
4/7/2020 16:12:24 Diana shirley Gomez Guarnizo 3118661367
4/7/2020 16:21:43 MAIRA DIAZ CAMARGO 3115231220
4/7/2020 16:27:23 MARYORY SANCHEZ 3113099896
4/7/2020 16:32:49 NIDIA PEDRAZA CALDUCHO 3214246169
4/7/2020 16:38:01 SANDRA MAYERLY CASALLAS MONTES 3118058510
4/7/2020 16:41:45 GLORIA MERCEDES ALDANA TORRES 3103315529
4/7/2020 16:45:12 SANDRA MILENA GUTIERREZ CULMA 3203085593
4/7/2020 16:51:13 SANDRA JOHANA YELA ANGEL 3138834048
4/7/2020 18:01:23 Cecila ortiz muños 3128699372
4/7/2020 18:27:29 Ángela Madrigal Suaza 3142205534
4/7/2020 18:32:47 Liliana Ramírez Rojas 3213003111
4/7/2020 18:35:17 Liliana Ramírez Rojas 3213003111
4/7/2020 18:38:30 Maria Salome Baca 3106953219
4/7/2020 19:05:39 Margarita Rubiano Alape 3213101037
4/7/2020 19:10:44 Margarita Rubiano 3213101037
4/7/2020 19:32:45 Maria Soledad correa Murcia 3214798805
4/7/2020 19:41:34 Luz Yineth Gomez Robayo 3208352474
4/7/2020 20:00:41 Anlly Tatiana Jaramillo 3125084516
4/7/2020 20:18:14 Jhon kenedy ramos 3125084516
4/7/2020 20:37:12 Leopoldo Gutierrez Escudero 3105501545
4/7/2020 20:57:00 Yolanda Cuellar Gomez 3224221502
4/8/2020 8:43:03 Yury marcela hurtado bueno 3142173085
4/8/2020 9:52:42 Viviana robles 3123011227
4/8/2020 10:03:49 Isabel Natalia Díaz 3104805852
4/8/2020 10:14:34 Aurora Gomez Vargas 3135944559
4/8/2020 10:34:03 Johana Salcedo 3219560294
4/8/2020 11:11:48 Adaicy Parra España 3148487545
4/8/2020 11:31:40 María Reina Capera 3219866147
4/8/2020 11:33:14 Juancarlos polania 3115147293
4/8/2020 11:57:46 Nubia vasquez romero 3232495296
4/8/2020 12:39:22 Yolanda zapata perez 3138713028
4/8/2020 12:43:34 Yolanda zapata perez 3138713028
4/8/2020 12:47:17 Yolanda zapata perez 3138713028
4/8/2020 12:49:43 Yolanda zapata perez 3138713028
4/8/2020 13:10:54 ARGENIS SANCHEZ 3144485784
4/8/2020 15:09:43 GLADIS MENDEZ BECERRA 3204836133
4/8/2020 15:12:36 GLADIS MENDEZ BECERRA 3204836133
4/8/2020 15:21:44 OLGA LUCIA ARCILA PEREZ 3107988329
4/8/2020 15:29:17 CESAR AUGUSTO PRIETO PATARROYO 3114975575
4/8/2020 17:08:12 MARIA INES CRUZ IQUINA 3133831135
4/8/2020 17:19:02 GREIDY ORLADYS FERNANDEZ ENDO 3124814063
4/8/2020 19:00:39 Clara Inés solano jara 3134618136
4/8/2020 19:21:04 Marialuz martinez patiño 3214331994
4/8/2020 19:39:47 Aurora vaquez 3223276024
4/8/2020 20:52:09 Maria Reina Erazo Guzman 3123405222
4/9/2020 7:21:54 Nurbeyi navero trujillo 3208035890
4/9/2020 13:15:46 Elizabeth Bautista 3125459087
4/9/2020 15:15:21 Ana Rudi Valencia florez 3103033736
4/9/2020 15:17:56 Lina fernanda Galindo Rodriguez 3125598862
4/9/2020 20:35:57 Jaidith quintero 1117508357
4/9/2020 20:40:34 Angie Paola morales morales 3123215660
4/9/2020 20:45:10 Jaidith Quintero cardenas 3143875700
4/10/2020 14:09:46 Nini johana Vargas urquina 3125277947
4/11/2020 17:18:09 Yurisney Córdoba Córdoba 3228509483
4/11/2020 17:24:50 Yurisney Córdoba Córdoba 3228509483l
4/11/2020 17:37:08 Mercedes fajardo Carvajal 3508065510
4/11/2020 17:43:56 Mercedes fajardo Carvajal 3508065510
4/11/2020 19:05:56 Erika Paola ospina collazo 3224001115
4/11/2020 19:06:45 Erlinda Ortiz Sterling 3208591346
4/11/2020 19:11:03 Erlinda Ortiz Sterling 3208591346
4/11/2020 21:02:07 Luis Fernando plazas 3144566674
4/13/2020 13:14:55 Fredy murcia chachinoy 3214346257
4/13/2020 13:18:56 Fredy murcia chachinoy 3214346257
4/13/2020 15:09:28 Gladys Macana León 3167819262. 32196609
4/13/2020 15:14:52 Gladys Macana León 3167819262. 321966
4/13/2020 15:19:13 Gladys Macana Leon 3167819262. 321966
Nombres y apellidos del estudiante EscribNivel educativo que están
Oscar Andrés tapiero cuenca andreDécimo Grupo 2
Kevin andres Hernández Chavarro Octavo Grupo 1
Neider David cadena espinosa NeideOctavo Grupo 1
Elkin Javier Joanias Hiter eelki Décimo Grupo 2
Paula Juliana Sanchez Vargas SanchDécimo Grupo 2
ferney camilo garzon Barragan omairDécimo Grupo 1
Stefania Ortiz mutumbajoy mutum Décimo Grupo 1
Stephany Alexandra Ledesma wagner Cuarto Grupo 2
Anthony Josué prada Rondón ZennyCuarto Grupo 2
Juan sebastian gutierrez guaca jguti Décimo Grupo 1
Diana marcela Chimonja Anaya Décimo Grupo 2
Daniel Felipe Torres Abella mimiaQuinto Grupo 2
Jherson lorenzo hernandez claros Séptimo Grupo 1
Yenci Paola Vaquero Escobar yenci Décimo Grupo 1
Yuliza fernanda Ortega ospina Yuliz Octavo Grupo 1
Xiomara meneses nuñez Tatit Preescolar Grupo 5
Luna sofia ramirez ibarra Wendy Segudo Grupo 2
Saray Jimena vera PaolaPreescolar Grupo 5
Naira Alejandra chaux cardona Preescolar Grupo 5
Angel Smith Torres Abella mimiaPrimero Grupo 5
Angie katherine Hernández Chavarro parq Sexto Grupo 1
Leidy johana chimonja anaya Décimo Grupo 2
Juan Pablo Losada Moreno normaPreescolar Grupo 5
Andrés Camilo Quintero Ocampo cmquiOctavo Grupo 2
Juan Estaban Arandia Vega Tercero Grupo 1
Marlon Andrés Ramírez Silva Cuarto Grupo 2
Angie Daniela tapiero cuenca Cuarto Grupo 2
Ronal alejandro muneton quiroz yulia Segudo Grupo 2
Yan Carlos Garcia Galvis Quinto Grupo 4
Santiago García Arias patoaPreescolar Grupo 5
Brayan Daniel Ceballos Trujillo Yarle Segudo Grupo 2
Mauren Julieth Rada Galvis Cuarto Grupo 2
Edwin cuenca vega edwinNoveno Grupo 2
Luis Miguel tapiero cuenca Sexto Grupo 2
Brandon alduany Ceballos Trujillo yarle Quinto Grupo 1
Briny Yulier Gasca Rivera Briny Séptimo Grupo 3
Laura Valentina calderón Patarroyo patar Segudo Grupo 2
Lauren nicolle buenahora murcia MarceSegudo Grupo 2
Yeimy Alejandra Cuella Pino Cuarto Grupo 2
Sergio Fabian Peña Cabrera Octavo Grupo 2
Wilian andres tovar quintero Once Grupo 2
Gelen Dayana Moyano Segudo Grupo 2
Jenifer katerine bernal diaz Séptimo Grupo 4
Jasbleidy Gasca Rivera Sexto Grupo 4
Miguel Ángel rojas Vargas andreSegudo Grupo 2
Karol Yadaily Agudelo Ospina Décimo Grupo 1
Yilmer bocanegra conde Séptimo Grupo 3
Joaquín olivo loaiza murcia Séptimo Grupo 4
Johan stiven pajoy luna JhoniCuarto Grupo 2
Juan jose ruiz ruiz Cuarto Grupo 2
Maikol stiven murcia reyez Tercero Grupo 4
Yency Daniela Diaz Pico YencyOnce Grupo 2
Julio cesar avila valencia Avila Once Grupo 2
Jhoan alexis gomez tabares ednit Cuarto Grupo 4
Damaris muñoz rojas Segudo Grupo 2
Cristian Camilo Ramírez Varela Décimo Grupo 2
Pablo Elias torres cruz godoyOnce Grupo 2
Daniel StivenMosquera Andrade. Noveno Grupo 2
Andrés Sánchez Peña YenniPreescolar Grupo 5
Wilmer Stiven Silva Correa Silva Décimo Grupo 2
Erick Alexis Sogamoso Botache DeisySegudo Grupo 2
Cesar david bermudes Mirel Cuarto Grupo 4
Danna yiseth delgado Cortez Segudo Grupo 5
Steban Manuel Gomez Moyano Segudo Grupo 3
Carlos Alberto Peña Mejia carlo Séptimo Grupo 3
Dora Mayerly Silva Correa MayerDécimo Grupo 2
Jhonier alexander pajoy luna Cuarto Grupo 4
Audry sofia muñoz avendaño JheraQuinto Grupo 4
Liz saray gordillo culma Segudo Grupo 1
Cardozo Olaya yeimy yulieth Cuarto Grupo 2
ronald adrian mosquera andrade Séptimo Grupo 2
Juan Sebastián céspedes galeno galenPreescolar Grupo 5
Saúl Ospitia Quintero sospi Once Grupo 2
Angel David Carabali Tercero Grupo 1
Yensy tatiana calderon avila CaldeDécimo Grupo 2
Luna sofia culma lugo Quinto Grupo 1
Braidy camila caicedo plazas Sexto Grupo 4
Nikoll Fernanda penagos Manjarrez manjaSegudo Grupo 1
Evelin céspedes galeno galenQuinto Grupo 1
Yisneidi Preescolar Grupo 5
Valerie vanessa vasquez muñoz bella Cuarto Grupo 2
Carol listeth Sierra ospina CaroOnce Grupo 1
Gillian Selena Arandia Diaz gilli Cuarto Grupo 2
Camilo cabrera segura yulia Cuarto Grupo 4
Yulisa hoyos delgado Sexto Grupo 4
Faddy nayibe canacue guaca Cuarto Grupo 1
Maycol Stiven artunduaga Guevara Segudo Grupo 1
Juan david henao Aguilar Séptimo Grupo 3
Emily palencia grisales MarceCuarto Grupo 1
Brinyi Carolina Molina Vidal briny Séptimo Grupo 3
Jean carlos jimenez ortega jimenDécimo Grupo 1
Evelyn Nicolle Gutiérrez Velasquez carit Preescolar Grupo 2
Tania Gikol Quintero Yañez yicol Octavo Grupo 2
Maidy yulitza ariza perez Tercero Grupo 1
Heidy Uriana claros Medina Segudo Grupo 1
Maudy Alejandra Tovar Quintero Maudy Noveno Grupo 2
Jose Ricardo Arrahondo Muñoz cuell Preescolar Grupo 5
Laura Patricia Castillo Acosta Séptimo Grupo 4
Stivenson Sneider Quintana Soto JquinQuinto Grupo 4
Lesdiney ruiz suaza Tercero Grupo 2
Yessica lorena ramos mayorga loren Décimo Grupo 1
Paula ximena Chambo pimentel PaulaNoveno Grupo 2
Angie Darnelly González Loaiza LoizaOnce Grupo 1
Maria fernanda muñoz mosquera navieQuinto Grupo 1
Sharith dayana castro rendon Quinto Grupo 1
Carmen melissa calderon tique Tercero Grupo 2
Carlos andres castro morales Tercero Grupo 2
LAURA SOFIA RUIZ SANCHEZ Cuarto Grupo 4
Allison Ariadna Claros Aguirre yudydPreescolar Grupo 5
Jhonnier alexander villarreal triviño Cuarto Grupo 2
Michelle dayanna gonzalez bermudez YasnoQuinto Grupo 1
Tifanny Kristal Quintana Soto JquinPrimero Grupo 5
Juan David Marinez Pérez torre Quinto Grupo 1
Brayan julian muñoz roa Tercero Grupo 2
Ester Tapiero Galindo Cuarto Grupo 2
Arley David Mendoza Vargas Tercero Grupo 2
Daily yorely castro figueroa Cuarto Grupo 2
Danny alejandra gomez tabares ednit Octavo Grupo 4
Johan Esneider García Vergara johanOctavo Grupo 4
Nicolas estiven vallejo bermudez YasnoPrimero Grupo 2
David estiven jaramillo salinas Séptimo Grupo 5
Valentina mosquera salinas Octavo Grupo 2
Juan alejandro vela glori Cuarto Grupo 1
Leslie Katherine Figueroa Rojas esarvSegudo Grupo 2
Andri Lizeth Ramírez pena 2020lSexto Grupo 1
Valentina ramirez cruz Sexto Grupo 3
Valentina Valencia Arrigui Jsatk Octavo Grupo 3
Xiomara Quintero García ducelOctavo Grupo 4
Ivan andres parra jaramillo1 Quinto Grupo 4
Laura Sofía Tapiero Galindo Sexto Grupo 1
Kevin Fernando Pimentel Pimentel LuisaCuarto Grupo 1
Edward DUVAN Martínez Oviedo betty Octavo Grupo 4
Jeiner Alexis Ramírez pena 2020lCuarto Grupo 2
Nikolas y Andrey Felipe alba Padilla Tercero Grupo 2
Jessica alexandra gomez tabares ednit Séptimo Grupo 5
Dina Jhulieth Hernandez Chaves CharlDécimo Grupo 2
Yulieth alejandra parra jaramillo Tercero Grupo 4
Deisy Zambrano calambas deisy Once Grupo 2
Ashley zarid polo cortes Segudo Grupo 1
Brayan Daniel cubillos Quintero leicu Cuarto Grupo 4
yurleni guilombo cruz Octavo Grupo 3
Nikolas alba Padilla Quinto Grupo 2
Karen dayana bermudes rojas Tercero Grupo 3
Huberley muños joven germaTercero Grupo 1
Fleyles Andrés Murcia Caicedo Segudo Grupo 5
Juan David Basto Ducuara Noveno Grupo 1
Nikoll Stefann Polania Montealgre Once Grupo 2
GRENCY NATALY MUÑOZ ACOSTA Cuarto Grupo 4
Yensy Hoyos Cuellar Séptimo Grupo 5
Nicolle Dayana caicedo rivera Quinto Grupo 1
Miguel Ángel Vargas Caicedo Primero Grupo 6
Laura tatiana trujillo vasquez Once Grupo 2
Adriana isabel rodriguez bahamon Adria Tercero Grupo 2
Dania carolina silva Ordoñez Pc707Tercero Grupo 1
Luis Alejandro Vargas Garzon Cuarto Grupo 4
Carlos Eduardo Neira llanos Séptimo Grupo 4
Cesar Luis Ramirez Castro CastrNoveno Grupo 1
Ingrid tatiana muños joven germaSegudo Grupo 1
Keiner alejandro jimenez mendoza Segudo Grupo 1
yadilton andres cerquera Rodríguez rodri Tercero Grupo 4
Valeryn Sareth Acosta Camayo camayPreescolar Grupo 5
Wilder alape castro wilde Tercero Grupo 1
Juan Andrés londoño suares Tercero Grupo 2
Didier Herney muñoz gutierrez Didie Séptimo Grupo 5
balentina bermuz rojas Tercero Grupo 3
Adrian stiven ramos mayorga Séptimo Grupo 4
Dania Hoyos Cuellar Octavo Grupo 4
Cheli alejandra pechene ossa MariaCuarto Grupo 4
Juan Pablo triviño londoño Preescolar Grupo 5
DANNA SOFIA MUÑOZ ACOTA Segudo Grupo 2
Angela ximena Ducuara escue JanerCuarto Grupo 4
GERALDINE LIZETH VARGAS GARZON Cuarto Grupo 3
Maria paulina parra murcia Noveno Grupo 2
Sara julieth londoño sanabria Cuarto Grupo 1
Briyith Tatiana Becerra Anacona Sexto Grupo 4
Daniel Eduardo Cruz correa CorrePreescolar Grupo 5
Ingrid yuliana muñoz gutierrez Ingri Octavo Grupo 2
Wilder Hoyos Cuellar Sexto Grupo 4
andres felipe renteria taborda Primero Grupo 4
Katherine Yosa Morales kyosaDécimo Grupo 2
Julian David Silva Mabesoy silva Noveno Grupo 2
KEVIN HENAO Noveno Grupo 1
Junior Alexander Suaza Peña Décimo Grupo 1
Jhofran mauricio garcia nieto Noveno Grupo 1
Diego fernando cañon perez Décimo Grupo 1
Ingri Dayana chambo mensa Décimo Grupo 1
Óscar Emilio González Rojas Sexto Grupo 3
Cristian Marin Sexto Grupo 4
Diego Reinel Gonzalez Tumbo Cuarto Grupo 4
Gerson albeiro ducuara JanerOctavo Grupo 3
Juan Sebastián parra Calderón Tercero Grupo 2
Leidy paola giraldo balanta Sexto Grupo 1
Santiago Junior triviño madroñero MadroSegudo Grupo 2
Gleiden Sofia Penagos Preescolar Grupo 1
Lezly Estefany Vargas lozada Preescolar Grupo 1
BRAHIAN STIVEN UCHIMA ROJAS Octavo Grupo 4
Dina marcela henao Sexto Grupo 3
Lauren yaritza lemus ruiz Preescolar Grupo 1
Jhon eider muñoz gutierrez Segudo Grupo 5
Gabriel stibe renteria taborda Tercero Grupo 1
Jaider danilo Orozco rojas Quinto Grupo 3
Jana Valeria pimenPreescolar Grupo 1
Maidy valeria palomino Preescolar Grupo 1
Lizeth Johana Murcia cardona Segudo Grupo 1
Sharay Sofía moreno NormiSegudo Grupo 1
Faiver David Rodríguez Silva FaiveDécimo Grupo 1
Derly xiumara artunduaga sanchez Tercero Grupo 2
Maidy Fernanda Parra Patiño pinzoTercero Grupo 2
Cristian Camilo tapiero bobadilla Tercero Grupo 4
Jeison sleider Salazar Quintero Segudo Grupo 1
Yeimy Paola triviño peña MadroCuarto Grupo 2
Juliana Andrea Vargas Chala vargaOnce Grupo 1
Lauren Estefaní Pimentel pimenPreescolar Grupo 1
Kleiver stiven ramirez tavera CatheSegudo Grupo 1
Laura Sofia Triana Moreno LeidySegudo Grupo 1
Adriana lucia narvaez gonzales LuisaPreescolar Grupo 1
Yeison Stiven Ordoñez Fajardo ordoyNoveno Grupo 2
Jhon fredy pogimuy gonzalez Séptimo Grupo 4
Yessika Fernanda Quintero Sáenz MerceOctavo Grupo 2
Juan stevan Salazar Quintero Tercero Grupo 4
Andrés felipe Campos peña PenajPreescolar Grupo 5
Laura Catalina Loaiza Díaz catal Once Grupo 1
Yeferson David Rojas yinet Quinto Grupo 3
Camila Pimentel pimenSexto Grupo 4
Angela Michell martinez gasca Preescolar Grupo 2
Juan Sebastián Tovar Claros tovar Décimo Grupo 2
Yury Tatiana Madroñero cordoba MadroSéptimo Grupo 3
Karen Liceth peñafiel oviedo Sexto Grupo 2
Iker Arbei Figueroa Ramires Preescolar Grupo 3
Victoria pulecio garcia ediveSexto Grupo 3
Jose leonidas barrero Herrera Tercero Grupo 3
Karen sofia becerra orozco Cuarto Grupo 1
Heidy Katherine Navia Osorio Noveno Grupo 1
wendy tamara hoyos calderon carol Primero Grupo 3
Jehiner santiago becerra orozco Segudo Grupo 5
Laura Camila castro perez Décimo Grupo 1
Juán David Tapiero Galindo Preescolar Grupo 1
Karol Andrea Barreto Prieto barre Segudo Grupo 1
Luis Deiber Cabrera Joven Cuarto Grupo 2
Ginna Vanessa Rey Montealegre oscarTercero Grupo 3
Nelcy andrea cuellar García Cuell Noveno Grupo 1
Yudi natalia ballesteros Cuarto Grupo 2
Jhon alex medina ramos Quinto Grupo 3
Katherin lizetn Suárez Lozada Segudo Grupo 4
Tatiana Loaiza Rubio tatal Décimo Grupo 2
Jonathan Barreto Prieto barre Tercero Grupo 4
Andrelli Xiomara Cabrera Joven andreSéptimo Grupo 2
Brenda lizeth gutierrez vaca Quinto Grupo 1
Dainer alexis ballesteros guaraca 111 Tercero Grupo 3
Yormanstevenromerogonzalez YormaSéptimo Grupo 3
Danna Isabella Rey Montealegre oscarSexto Grupo 1
Yury Viviana Joven Toquica Preescolar Grupo 1
Johan aldidier alape castro WildeSexto Grupo 1
Kevin Santiago Cabrera Joven Primero Grupo 4
Xiomara Dorado Cuellar xiomaNoveno Grupo 2
Sara michel morales artunduaga Segudo Grupo 2
Brigith Tatiana Rodríguez home Primero Grupo 5
Jhoan Sebastián bustos Tobar yntobSéptimo Grupo 4
Dana Michel moreno gomez Tercero Grupo 3
Keyner David Rodriguez Cano Noveno Grupo 1
Elcy Jhureidy Hernandez Chaves CharlOnce Grupo 1
sulay daniela vargas pono pologPreescolar Grupo 1
Oscar Adrián riascos casas Cuarto Grupo 2
Michael stiven peña prias Quinto Grupo 1
Oscar Milán Álvarez Rodríguez ros-h Primero Grupo 4
Laurent valentina castañeda cabrera CabrePrimero Grupo 3
Nikkol Stefany Berrío Jara Noveno Grupo 1
Yudy Yurany Ordóñez Fajardo yudy1Séptimo Grupo 2
Brikney jhaleisi villada Tobar yntobSexto Grupo 3
Nicoll Sofía Sarmiento galindo YastsTercero Grupo 2
Yeferson giraldo balanta Séptimo Grupo 5
Juan diego Ramírez segura Nini0 Tercero Grupo 1
Yensy fernanda Cuellar YedalNoveno Grupo 1
Silva coronado Brayan alberto Séptimo Grupo 4
Jesús Daniel Tobar yntobSegudo Grupo 2
Yenifer dahayana osuna losada adria Octavo Grupo 4
Dayana Valentina chavarro cortes Séptimo Grupo 1
Hellen Gabriela Ruiz Ortiz ortiz Preescolar Grupo 3
Yorman stiven García Anturi Séptimo Grupo 5
Dulcemaria Berrío Jara Cuarto Grupo 1
Elisabel dayana silva coronado Sexto Grupo 1
Yaidi fernanda leyton almario Aliri Cuarto Grupo 1
Erick alejandro Daza cubillos leicu Primero Grupo 5
haider fabian vargas polo pologOctavo Grupo 3
Anyi carolina sanches zapata Sexto Grupo 3
Daniela Dorado Cuellar BrayaNoveno Grupo 1
Karen licet guaraca zapata Primero Grupo 5
Juan Manuel Buenaventura trujillo Sexto Grupo 3
Juan Sebastian Ospina Beltran sebasSéptimo Grupo 5
Geerly zharai rengifo Arias arias Segudo Grupo 3
Andry julieth rengifo Arias arias Tercero Grupo 3
Laura Valentina Charo cabrera yulia Tercero Grupo 3
Anderson Miler Lozada Lozada Sexto Grupo 3
Vivi Alexandra Charo cabrera yulia Primero Grupo 2
Rivaldo Muñoz Ramirez Once Grupo 1
Kerly tatiana ramirez molina Noveno Grupo 2
Dayana lizeth ascencio silva Quinto Grupo 1
JANDREY Pereira Ramos Cuarto Grupo 3
Yedinson stiven cometa alvis DafneCuarto Grupo 3
Yilber andres muñoz benavides Yulia Sexto Grupo 2
Danna Michelle Caceres Chavarria Octavo Grupo 4
Julián yasmani burbano Tercero Grupo 1
Yonthan javier ramirez molina Quinto Grupo 4
Kerly yurani patarroyo valderrama 2903kDécimo Grupo 2
Emili sulay Ramírez Patarroyo Cuarto Grupo 3
Lizeth camila puyo plazas Cuarto Grupo 1
Juan David culma trujillo tjuan Noveno Grupo 1
Karol michel Gómez Álvarez Octavo Grupo 2
Manuel Iván Bocanegra morales luzni Séptimo Grupo 3
Yiber Humberto Casanova Murcia Séptimo Grupo 2
Anyela sofia mogollon paz carol Preescolar Grupo 3
Camila Patarroyo valderrama Séptimo Grupo 5
Ana Maria Mora Lizcano Séptimo Grupo 4
Karen sofia salazar olaya Octavo Grupo 1
Darwin Andrés Orozco Londoño horte Cuarto Grupo 2
Julián Andrés Culma Trujillo andreNoveno Grupo 1
Dilan gahel Vargas piamba Primero Grupo 4
Luis sebastian uchima rojas Cuarto Grupo 3
Brayan Alberto Orozco Fajardo horte Octavo Grupo 4
Juan pablo salazar olaya Tercero Grupo 1
Yuliana Andrea Cuellar Figueroa cuell Octavo Grupo 2
Julio cesar vega vargas Noveno Grupo 1
Juan Sebastián Medina Ramos Sexto Grupo 1
Michelle taliana Vargas Aldana Quinto Grupo 1
Joseph Sebastián Varón Duque VaronSéptimo Grupo 5
harinson gomez cortes olga1Cuarto Grupo 1
sara sofia ortiz brand sara. Cuarto Grupo 2
Angela moncada hernandez Quinto Grupo 2
Laura banesa Losada ordoñez yenci Quinto Grupo 3
Kerly yurlisa Cuéllar Soto vianeSéptimo Grupo 2
Laura Isabella valencia hernandez Segudo Grupo 2
Mayerly briñez otavo Brine Séptimo Grupo 2
Lizeth Sophia Rodriguez Hernandez yenypCuarto Grupo 1
Duban Felipe Duarte Monroy Segudo Grupo 2
Darwin Ochoa Ospina darwiSéptimo Grupo 3
Leider Daniel matoma López Sexto Grupo 3
luis ángel Ortiz brand sara. Segudo Grupo 3
Danna Paola Guarnizo Hernandez yenypPrimero Grupo 2
Cleider valderrama ruiz Primero Grupo 1
Dayqna sofia triana aguirre yudydCuarto Grupo 3
Elied Xiomara Pérez Sierra Elied Sexto Grupo 5
Marly katerine Miranda Valencia PaolaQuinto Grupo 2
Yeison alejandro Miranda Valencia PaolaSexto Grupo 3
Yulitsa Alejandra Murcia Lesmes Yulit Octavo Grupo 2
Michael Stiven Miranda Valencia PaolaSegudo Grupo 5
Yurani Garzón Benavidez KayubTercero Grupo 2
Yilber Kees Soriano Navarro Noveno Grupo 1
Maria fernanda valencia forero Preescolar Grupo 3
juan sebastian rodriguez florez Sexto Grupo 4
Jhoon Jaber Chacón Chala Segudo Grupo 5
Okoner Javier Trujillo barrera Primero Grupo 4
Juan Sebastian Moreno hoyos SebasSéptimo Grupo 3
Eliana valentina Herrera calapzù Sexto Grupo 1
Cristian alexis tobon hoyos hoyosTercero Grupo 1
Sánchez rojas haidy Zharick Noveno Grupo 1
Dylan BAruchs Rojas Sánchez Segudo Grupo 4
Yon esneider cortazar avendaño YonesNoveno Grupo 2
Dylan mateus avendaño Primero Grupo 3
Viviana Córdoba leal Octavo Grupo 2
Jhon fredy Lozada Chacón jhonf Noveno Grupo 2
Anlliri liced ceron caleño AngieNoveno Grupo 1
Yuliana gutierrez caleño Quinto Grupo 2
Maryuri gutierres caleño Tercero Grupo 4
Juan David prada moreno nydyaPrimero Grupo 2
Maylen Fernanda Perdomo charo Mayen Preescolar Grupo 1
Yuly daniela prada moreno nydyaOctavo Grupo 2
Tahel Sofia Castañeda Becerra yimbePrimero Grupo 2
Jesus arlei gutierres patiño Segudo Grupo 5
David Alejandro Falla Escobar Falla Décimo Grupo 1
YoHan sebastian nuñez quiceno SebasSexto Grupo 4
Joel David Prieto Calderón Quinto Grupo 2
Lilibeht Prieto Calderón Sexto Grupo 3
Juan esteban nuñez quiceno JuaneSéptimo Grupo 2
Kevin Alexis Bernal Rosero elkev Sexto Grupo 4
Jhon Edinson Tavera Quiñones NormiSexto Grupo 5
Steisy Carolina Ducuara Jil Cuarto Grupo 2
Brillitte Sharick Gaona Gutierrez Preescolar Grupo 5
Jharold mathias Gutiérrez España Isnel Preescolar Grupo 3
Santiago Céspedes jurado Primero Grupo 4
Juliana Acosta Martinez cmartSéptimo Grupo 1
Jhon Estiben Bernal Flores Primero Grupo 2
Jaider Estiven Martinez Murcia cmartOnce Grupo 2
Estefania parra sanchez Cuarto Grupo 4
Julian Hernan Acosta Martinez cmartSexto Grupo 2
Jun David luaiza Sánchez No Preescolar Grupo 5
Ana Sofía Quiñonez López Séptimo Grupo 1
DILAN JOSE JÍMENEZ AREVALO Preescolar Grupo 1
MATEO DAVID JÍMEZ AREVALO Preescolar Grupo 1
Laura camila jimenez collazos luzedNoveno Grupo 1
Alexander Maldonado Ocampo leidy Primero Grupo 3
Derly yulith bustos sanchez Tercero Grupo 3
Valeria ochoa tobar Preescolar Grupo 3
YURANI ALEXANDRA GONZALEZ DUSAN Cuarto Grupo 4
Joan Sebastián Méndez figueroa Octavo Grupo 2
Leidy Nathaly Arandia Diaz nathaNoveno Grupo 1
Yinna Paola Méndez figueroa Quinto Grupo 3
Rubén Santiago Garavitob Peña Cuarto Grupo 2
Ronaldiño valenciano ramirez SandrSexto Grupo 2
Carlos Esteban Vargas Peña Sexto Grupo 4
Yoselin esteisy peña cadena C861Primero Grupo 4
Yeni Paola Vargas Peña Cuarto Grupo 4
Samanta Garavito Peña Primero Grupo 6
Isabella Cruz Lesmes daile Sexto Grupo 2
Brayan Stiven Leiva Montaño montaSéptimo Grupo 3
Yudy alexandra guarnizo Polonia Octavo Grupo 2
Yexica valentina peña cadena C8619Séptimo Grupo 2
DUVAN ALEXIS MADRIGAL PEÑA Cuarto Grupo 4
VALENTINA MADRIGAL PEÑA Sexto Grupo 1
Angel David Mena Rodriguez sjrs1 Sexto Grupo 1
Luis ángel Cuellar Pérez Quinto Grupo 3
LINA MARCELA MADRIGAL PEÑA Octavo Grupo 2
Deiner Primero Grupo 4
Saily Gabriela Jiménez Collazos luzedPreescolar Grupo 4
Danna Shirley Gonzalez Cortes Séptimo Grupo 5
Yersi alejandra collazos plazas aleja Séptimo Grupo 5
Leonel Urbano Santanilla elenaTercero Grupo 4
Karla Michell Soto Ramires MerceSegudo Grupo 4
Sandi jainover loaiza lopez Séptimo Grupo 5
Samuel collazos mosquera Quinto Grupo 3
Kevin Andrés Medina vasquez Octavo Grupo 2
Mabel Sirley Medina Vasquez Preescolar Grupo 4
Julián Santiago palomo parra riasc Primero Grupo 5
Luis miguel vega triana LuismSéptimo Grupo 2
María Luisa Parra murcia Octavo Grupo 2
Dayra Geraldine Cardozo tuzarma Primero Grupo 5
Wilfran esteban garcia muñoz ZulenSéptimo Grupo 3
Sara Nicolle Cardozo tuzarma Tercero Grupo 2
María José Parra murcia Primero Grupo 3
Pedro Stiven Rodríguez Caviedes [Link] Grupo 4
Viviana carolina parra fajardo Sexto Grupo 4
Mauren Janella vera muñoz LucavCuarto Grupo 4
Martín Elías Rodríguez Caviedes [Link] Grupo 1
Maira Alejandra Parra murcia Octavo Grupo 2
Kevin alejandro barragan rojas barra Séptimo Grupo 5
Sara Nicoll Londoño Zapata vivi. Primero Grupo 5
Jarlinson Medina cuadrado Octavo Grupo 4
Germán andrey Barragán Rojas HeidyOctavo Grupo 2
Yuri Paola Vanegas Cordero Tercero Grupo 3
Jeimy Alexandra Acosta Palomares jader Segudo Grupo 1
Carlos Daniel Medina Ramos apoloSexto Grupo 1
Mayra Alejandra Renteria Perez Octavo Grupo 1
Carlos Alberto Quiñonez Galán jhily Primero Grupo 4
Juan David Acosta Palomares JaderTercero Grupo 3
Luz angelica cano garcia Quinto Grupo 4
Nicolle sofia artunduaga Ortega Primero Grupo 5
Lina Andrea Jiménez Zapata Sexto Grupo 1
Surli camila Beltrán Velandia Séptimo Grupo 1
Leidy Dayana Vargas Cruz Séptimo Grupo 5
Jhonatan steban Vargas Julia Primero Grupo 3
Jeferson Hernan Joven Vanegas hernaNoveno Grupo 1
Shamy Thaliana Pedraza loaiza Cuarto Grupo 3
Yensy karina gonzalez valencia Décimo Grupo 1
Maicon Andres Murcia Cuellar MaicoNoveno Grupo 1
Carlos Santiago Galán Quiñonez jhily Sexto Grupo 4
Alan stiven aguirre gutierrez Sexto Grupo 4
wendy karina carvajal pulecio Once Grupo 2
Miguel angel samboni pineda MigueNoveno Grupo 1
Yubeli Alexandra Medina Oliveros Octavo Grupo 4
Karol viviana ramirez meneses Karol Séptimo Grupo 3
juan david rodriguez florez Noveno Grupo 2
Karen brisney Perafan Tamara Kelly Segudo Grupo 5
Jenifer Tatiana Loaiza ramos Séptimo Grupo 2
Cristian Camilo Perafan Tamara Kelly Quinto Grupo 3
Cesar stiven Vargas Quivano CesarSéptimo Grupo 2
Karen Yulieth Coronado Bran KarenNoveno Grupo 2
Karen valentina ramirez meneses KarenSéptimo Grupo 3
Jaime jhovanny Tascón correa JhovaSéptimo Grupo 3
JOSE ADOLFO ROJAS CARDENAS rojas Once Grupo 1
María Fernanda lezama peñafiel Octavo Grupo 1
HARRINZON ROJAS CARDENAS rojas Quinto Grupo 3
Harold erney betancoirt jaramillo Once Grupo 1
Yeison Stiven Peña Cadena C861Noveno Grupo 2
Angie Paola Rivera Santofinio angieSéptimo Grupo 2
Yuberledinson Perafan Tamara Kelly Octavo Grupo 4
Brigette Tatiana rojas correa Quinto Grupo 2
Sirley katerine Castro González CastrNoveno Grupo 2
Gabriela lezama Séptimo Grupo 2
Nathalia Coronado Bran KarenSexto Grupo 2
Brayan estiben vaca portillo Stive Séptimo Grupo 2
Laura Sofía Vega Buitrago buitr Sexto Grupo 1
LAURA ALEJANDRA GARCÍA TRIVIÑO Once Grupo 2
Sharith Sofía Ramírez Vargas LauraPrimero Grupo 5
Yuberly Andrea Correa Bucuru andreOnce Grupo 1
maira milena perdomo palma mairaOctavo Grupo 1
JUAN DAVID GARCÍA TRIVIÑO Quinto Grupo 2
Laura sofia Garcia Sexto Grupo 3
Angie Lorena Correa Bucuru Séptimo Grupo 1
Luisa Fernanda Buitrago Reyes Buitr Décimo Grupo 1
Eddy alejandro barrios rincon Séptimo Grupo 2
BREINER STEVEN LARGO CRUZ Sexto Grupo 1
Karo sofia Bustos Pérez Sexto Grupo 3
Sharick Stefanny López mora jachaSexto Grupo 1
Isabel Mercedes barrero herrera OsotySegudo Grupo 3
mariana milena perdomo palma Séptimo Grupo 3
Yhon yiber ruales valencia y yeiner Stiven ruales Octavo Grupo 3
Juan David mena rojano ingri Preescolar Grupo 2
Brayan alexis perafán támara Kelly Noveno Grupo 2
ANDREY GERONIMO CABEZAS ZAPATA1 angelPrimero Grupo 2
Valerie Michell Castillo Cabezas Casti Séptimo Grupo 2
Sharoll Mariana Tejada Bautista princ Once Grupo 1
Diego Alejandro Torres Morales CarvaCuarto Grupo 4
Karen julieth Murcia carvajal Katty Séptimo Grupo 5
Jhoan Andres Gutiérrez Ortiz gutie Primero Grupo 2
JOSE RICARDO ROJAS PATIÑO Sexto Grupo 4
YENIFER YESENIA ROJA PATIÑO Séptimo Grupo 3
Faisuri alejandra contreras yalanda Tercero Grupo 1
Carlos Eduardo Macias Pinzon thechOctavo Grupo 2
Niyireth Duarte Bolivar Primero Grupo 1
avis darwin agredo coque darwiNoveno Grupo 1
Haider Alexis Duarte Bolivar Tercero Grupo 3
Samary claros Once Grupo 1
Andres felipe carvajal Cortés Preescolar Grupo 4
MEILYN SORANYI SANCHEZ BOLIVAR Sexto Grupo 1
Keiner sevastian velazques jaramillo. kevin santiago velaz Primero Grupo 1
Yeidi yulieth vaca portillo MayerPreescolar Grupo 2
DAYANA YARLEDY LOZADA TIMANA Séptimo Grupo 5
Juan Sebastián Ruiz zambrano Noveno Grupo 2
BRAYAN ALFREDO LOZADA TIMANA Octavo Grupo 4
Jhonalexanderanzolacuellar Décimo Grupo 1
Darwin Yohanis Medina Ramos Quinto Grupo 1
JHON FRANCO REYES MORENO jhonf Décimo Grupo 2
Jhon alejandro mejia marin Octavo Grupo 3
Jheison Adrian Gonzales Collazos Tercero Grupo 2
yarith sofia cuellar uribe Primero Grupo 4
Laura Valentina Joven Valencia Sexto Grupo 3
Yandri yulieth gutierres silva10 Séptimo Grupo 1
Angelo nicolas gasca saldaña jenys Cuarto Grupo 1
Yeiny Alexandra Castro Jiménez yuranSexto Grupo 3
Anyi Paola Perdomo tenorio SebasCuarto Grupo 4
Sebastián Perdomo tenorio SebasPrimero Grupo 6
Ghirian Zúñiga Toro Noveno Grupo 1
Yuri Perdomo tenorio SebasPrimero Grupo 2
Darwin valencia forero Octavo Grupo 3
Jheiner Joven Cuellar Sexto Grupo 1
Camilo Zuñiga Toro Sexto Grupo 2
David vera alape Tercero Grupo 2
Luis Vicente Casanova Garibello casanOnce Grupo 2
Wilmer Andrés Osorio jimenez yuranSexto Grupo 3
Karen Dayana Muñoz Bobadilla DayabDécimo Grupo 1
Lisseth trujillo Noveno Grupo 2
Nicolas parra artunduaga Primero Grupo 2
Juan David Vásquez Vargas Julia Octavo Grupo 3
Luz Andrea Collazo Córdoba Preescolar Grupo 5
SOFIA CENON HINCAPIE Preescolar Grupo 1
Carlos andres corral artunduaga CorraSexto Grupo 3
Joiner Stiven Cicery Cendales talle Sexto Grupo 2
Daniela Renteria Renteria Sexto Grupo 3
Nicolle sofia roa castro Preescolar Grupo 5
Sara isabel cuenca serna Sexto Grupo 2
Yureny Medina cuadrado Octavo Grupo 4
Danna isabel moreno roa Cuarto Grupo 3
Sharon stella cuenca serna Noveno Grupo 1
Yurely Medina cuadrado Octavo Grupo 4
Jorman felipe noreña bravo LeidyPreescolar Grupo 4
Adriana mikey avila monaneguedo Cuarto Grupo 4
Kevin andres cordoba monaneguedo Tercero Grupo 2
Brandon estiven cordoba monaneguedo Segudo Grupo 1
Angie Lizeth Scarpetta Ramírez Octavo Grupo 2
Laura Camila giraldo neira Sexto Grupo 2
Maicol Andrés cuéllar diaz Tercero Grupo 1
Miguel Ángel gomez silva Quinto Grupo 3
Jesus edilber cortes sandoval Décimo Grupo 2
Karen Nicole Gutiérrez Obregón Segudo Grupo 1
Carlos fabian gallego parra Séptimo Grupo 2
Cristal López gracia AngelSexto Grupo 5
Maira Yulieth Pabon talle Sexto Grupo 2
Yerson Yesid Mendoza Olaya yetonOnce Grupo 2
Cristián David gomez silva Preescolar Grupo 4
Claudia lizet Ruiz Aldana AldanSegudo Grupo 4
Andrea Valentina Quintero Palomares andreOnce Grupo 2
BRIYITH TATIANA RUIZ ALDANA AldanQuinto Grupo 3
Sharick Xuleimy Osorio Bolaños ShaxuOctavo Grupo 1
Mauren Sofía Valencia Perez Cuarto Grupo 1
Santiago Vargas muños Sexto Grupo 1
Lina Marcela Valencia Pérez linav Octavo Grupo 3
Jaime Andrés Valencia Pérez Octavo Grupo 4
Wendy murcia Séptimo Grupo 3
Robinson murcia Octavo Grupo 1
Grisli yulieth Facundo Suárez IsabeSexto Grupo 2
Diana katalina Cuarto Grupo 3
Greicy Sofia Castillo cuellar Primero Grupo 2
Diego fernando cuellar giraldo YasnoOctavo Grupo 3
Karen yuliana endo Séptimo Grupo 2
Ashly sharith ruiz YencyPreescolar Grupo 4
Juan David Ramírez diaz juandSéptimo Grupo 2
KARENJUIET NIETO VIDALES MariaSegudo Grupo 4
Yaira Alexandra flores acosta Yeini Segudo Grupo 4
Alcides yamid torres ruiz YencySexto Grupo 5
Brayan Alexis Suárez manrrique bs123Séptimo Grupo 1
JUAN CAMILO RUIZ ARRIGUI yulie Séptimo Grupo 1
Julian Andres Arango Quintero Alexi Sexto Grupo 2
Johan Andrés Suárez Gaitan Sexto Grupo 2
Cristian David Quiñones Vidales Once Grupo 1
Karen Melissa Murcia Andrade disnePrimero Grupo 4
Nehayra Bayari Bravo Muñoz bravoDécimo Grupo 1
Christian Andres Vaquiro Bautista Crist Séptimo Grupo 4
Maura tatiana Ortiz Suárez Alexi Preescolar Grupo 2
Heily Valentina Herrera Zapata heily Décimo Grupo 1
Oscar Miguel Romero Giraldo Crist Octavo Grupo 1
Dorlan Santiago Alvarez Tercero Grupo 1
Karen tatiana morales bocanegra BocanSexto Grupo 2
Yuliana Cuellar Alape ### Séptimo Grupo 5
Camilo Andres Lozada Polania Séptimo Grupo 4
Frank Sebastian Morales Bocanegra BocanQuinto Grupo 1
Angel andres Díaz ortiz Preescolar Grupo 2
Álvaro Andres Peña rocha Séptimo Grupo 1
Carlos Eduardo Peña Rocha Octavo Grupo 1
Yiseth Mariana Paez Cuellar yilic Primero Grupo 5
Bellanid Velandia Gonzáles [Link]
Octavo Grupo 3
Wendi natalia nuñez penagos Sexto Grupo 1
[Link]ñiga Cirzu Quinto Grupo 4
Franklin Stiven nuñez penagos Quinto Grupo 4
santofimio gomez Preescolar Grupo 5
Dayana Alejandra Vargas Andrade Once Grupo 2
Laura Natalia Bolaños Buitrago Décimo Grupo 1
Kevin Joseph Valdez Batista johnj Octavo Grupo 3
Didider alberto tique cespedes TiqueNoveno Grupo 1
Jhoan Sebastian Osso Moreno Once Grupo 2
Andrea csterine montiel Once Grupo 2
Jaider Alexis Garzon Rivera jaide Noveno Grupo 2
Auner Alexis joyas Carvajal reina Quinto Grupo 1
Karen maireth Barón pajoy Roci Séptimo Grupo 3
Michel Tatiana Ortiz Cuscue angelSegudo Grupo 4
Angel Andreis Sotto Rendon sotto Séptimo Grupo 3
Diego neimar ramos perez 0524aPreescolar Grupo 1
Cristian Alejandro tumbó floriano Sexto Grupo 4
Heidi Tatiana Rendon Tercero Grupo 4
Karen daniela moreno gonzalez 117 YamilSéptimo Grupo 2
Robinson Alexis Carvajal Gutiérrez Quinto Grupo 1
Briyin Alexandra Salcedo Sánchez briyi Sexto Grupo 4
Sara Nicolle Quintero 2000kSegudo Grupo 3
Saray yineth Quintero palomares 2000kSegudo Grupo 3
Sebastian vargas pajoy SebasTercero Grupo 4
Cristian Camilo Quiroz Álvarez vivid Noveno Grupo 1
Jhojan estiven zambrano silva piera Sexto Grupo 2
Laura Valentina Anacona Loaiza LauraSéptimo Grupo 2
Valeryn Salome Pajoy Guzmàn salomPrimero Grupo 2
Jasbleidy Dayanna Arias Zabala ZabalOctavo Grupo 1
Víctor Manuel Quiroz Alvarez vivid Segudo Grupo 1
Yury Camila Méndez Zabala ZabalTercero Grupo 1
Yeferzon Adrián Mosquera Andrade Cuarto Grupo 4
Luisa fernanda cuellar ortiz Sexto Grupo 4
Jordan Kaley vargas Sexto Grupo 2
Frank stiven oyuela Preescolar Grupo 2
Angy Paola Quintana Londoño Preescolar Grupo 2
Sharik Tatiana Obregón Vega nicol Séptimo Grupo 5
Laura Jisel Osorio Castaño Octavo Grupo 2
Kevin Osorio Cadtaño Décimo Grupo 1
Dahianna Alexandra Romero Clavijo yuanqNoveno Grupo 2
Yessica yulianna vargas Décimo Grupo 1
Darwin Alexis guaca Calderón Isa99Séptimo Grupo 4
DEICY MONTIEL ALAPE edwinCuarto Grupo 2
Jhoni ronaldo plazas montes anamiSexto Grupo 2
Hugo Alejandro silva mabesoy HugoaOctavo Grupo 3
Luisa fernanda polania Primero Grupo 2
Mishelle Natalia Zambrano jimenez Adria Décimo Grupo 1
Miguel Angel sarria ceron angelCuarto Grupo 3
Yohan estevens ceron samboni angelPreescolar Grupo 2
Nicolle jaissury guzman cortes Nicol Octavo Grupo 1
JEAN CARLOS BARBOSA SILVA Cuarto Grupo 2
MEDINA CUADRADO JHOINER ANDRES Cuarto Grupo 2
VIVIANA MEDINA CUADRADO Quinto Grupo 3
Yenni Fernanda Garzon Reyes Once Grupo 1
YULIETH FERNANDA NUÑEZ ALDANA Cuarto Grupo 2
KAROL VALENTINA NUÑEZ ALDANA valenDécimo Grupo 2
Rueda claros juan davi LorenSegudo Grupo 5
Johan javier reyes reyes Segudo Grupo 2
JUAN SEBASTIAN TORRES ROBLES Cuarto Grupo 2
Carlos andres rueda claros LorenQuinto Grupo 1
Maria fernanda rueda claros LorenPreescolar Grupo 5
Gabriel Angel Mora Lizcano Segudo Grupo 4
Juan David Gómez Monge jg931Octavo Grupo 4
mariana kamila trujillo naranjo yamil Preescolar Grupo 1
Nesly yiseth Trujillo Pastrana Sexto Grupo 2
Camila Stefany Guzman Pulecio camil Décimo Grupo 1
Jhorman David Velazquez Castaño jhormDécimo Grupo 1
Cristian David Acosta Tique acostDécimo Grupo 1
Andry Yulieth Penagos Gómez mary8Séptimo Grupo 1
Diego Felipe Lara Gómez mary8Tercero Grupo 4
Ana Cristina Hurtado claros Crish Quinto Grupo 3
Audry Lizeth Penagos Gómez mary8Séptimo Grupo 1
Nicoll Dayana Prada Martínez Octavo Grupo 3
Marly yurani Moreno Sánchez Décimo Grupo 2
Luis Enrique Zambrano silva alonsQuinto Grupo 2
Karol Daniela Anzola Cuellar Octavo Grupo 2
Frank Esteban Castillo cabezas Casti Quinto Grupo 2
Sara Taliana Castillo Cabezas Casti Tercero Grupo 3
Jairestibenpipicanoquintero Segudo Grupo 4
Harris stiven Arce Castillo Casti Quinto Grupo 3
JANIER ANDRES ESPINOSA QUINTERO Séptimo Grupo 2
DANIELA VALLEJO VARGAS danieDécimo Grupo 2
deibyn stiven manrique narvaez Quinto Grupo 2
NICOLLE DANIELA GALINDO VILLAQUIRA Séptimo Grupo 2
Keila Yuhandry Tabares Tapiero tabar Tercero Grupo 1
Emmanuel melo paredes ParedPrimero Grupo 3
Yinni lorena ortiz quintero Noveno Grupo 2
JHON HADER GOMEZ QUINTERO Séptimo Grupo 2
DAVINSON DUVAN MARIN VARGAS Séptimo Grupo 2
ROCISELA MARTINEZ PORTILLA rosiw Séptimo Grupo 2
Jhensy Lorena Baron Lozano BaronOnce Grupo 2
Luisa Fernanda Carvajal Gutierrez Noveno Grupo 1
LAURA CAMILA RAMIREZ JIMENEZ laura Séptimo Grupo 2
Juan sebastian angulo sanchez Preescolar Grupo 4
Jorge Alexander Ortiz Aroca Preescolar Grupo 1
Yeimy Acosta Orosco Octavo Grupo 1
Jasbleidy briñez ramirez Primero Grupo 4
Luis Carlos parraga montoya Luisc Octavo Grupo 4
Gomez Quintero Osiris Johana Tercero Grupo 2
Andrea Ximena Ramirez Diaz xr479Décimo Grupo 2
Wilson Méndez almario Quinto Grupo 2
Luisa Fernanda Medina Urrea Octavo Grupo 2
Regulo hermida murcia Primero Grupo 4
Jorge Andrés Mendez conde Yirac Primero Grupo 5
MARÍA JOSÉ VARON ENDO Kerly Primero Grupo 4
Jhon jaider gaitán olaya Noveno Grupo 2
Jhon kener bocanegra conde Yirac Tercero Grupo 2
Erika tatiana gomez cabrera Erika Octavo Grupo 4
Jessica alexandra rivera plaza Jessi Octavo Grupo 4
Suleiny stefania zamudio Pérez Primero Grupo 6
Anyie Liceth García Busto Octavo Grupo 4
Fernado garcia galvis Octavo Grupo 4
Laura sofia cardona chala Preescolar Grupo 1
ANGIE VANESSA CRUZ SILVA Noveno Grupo 1
Yuber sneider marines llanten Anyil Primero Grupo 4
Juan David Gil Gomez JuandOctavo Grupo 4
Laura Michelle Gil Gomez Cuarto Grupo 4
Paula Andrea Zarta monsalve Octavo Grupo 3
Fernando Stiven Hernandez Décimo Grupo 1
Fany yuliana ramirez sotto Octavo Grupo 1
Yerick Santiago Garzón Benavidez KayubPrimero Grupo 6
Alvaro alexislara Cuarto Grupo 3
Maikol Andres lara Segudo Grupo 5
Janna yileni cabrera Tercero Grupo 4
Jan carlos yate plazas Tercero Grupo 4
Jefferson Esteban Contreas Villada Tercero Grupo 2
daniel Felipe Sarrias Ducuara Preescolar Grupo 3
NILIYIRED YATE MUÑOZ niliy Décimo Grupo 2
ADRIAN FELIPE CUELLAR ALVAREZ Cuarto Grupo 4
ingri estefania horta flores ingri Once Grupo 2
Karen xiomara jimenez mendoza Tercero Grupo 3
Edinson David Betancourt home Primero Grupo 1
Jose leandro prieto nuñez Segudo Grupo 2
Jhon dairon prieto nuñez Quinto Grupo 1
Maicol Steven Suarez Trujillo Tercero Grupo 2
Alvaro José hernandez Segudo Grupo 2
DANIEL SEBASTIAN VASQUEZ ROMERO Cuarto Grupo 4
KEVIN ALEJANDRO VASQUEZ ROMERO Segudo Grupo 3
Jean carlos tovar rojas JeacaSexto Grupo 3
ANGEL DAVID VASQUEZ ROMERO Preescolar Grupo 4
Stefany yulieth buendia moreno Primero Grupo 2
Emanuel David montilla gasca Sexto Grupo 2
Aisleem valeria gutierrez melo Segudo Grupo 5
Breiner Andrés claros yate Quinto Grupo 2
Johan Stiven claros yate Cuarto Grupo 4
KAREN JULIETH VELASCO MARTINEZ luzneSéptimo Grupo 2
JHORMAN STIVEN VELASCO MARTINEZ jhormNoveno Grupo 2
ALCIDIADES OSPINA CHAUX Once Grupo 1
Carolina Acuña saldaña111 Séptimo Grupo 5
Jasbleidy andrea Castilla tellez andreSexto Grupo 3
Ángel David López ramos Sexto Grupo 1
Cristian camilo montalvo vera Sexto Grupo 5
Jordan David reyes torres Leidi Quinto Grupo 2
Paula Carolina castaño padilla Padil Primero Grupo 4
Andrés Felipe Uribe Clavijo yuanqQuinto Grupo 3
CAMILO ALEJANDRO CAICEDO CORREA alcar Segudo Grupo 3
JUSTIN NAURENS CARRILLO RAMIREZ Segudo Grupo 3
XIOMARY FERNANDA CORRAL ARTUNDUAGA Segudo Grupo 3
JOSE HERMINSON CORRAL ARTUNDUAGA Segudo Grupo 1
DANNA SOPHIA CUELLAR NUÑEZ Segudo Grupo 3
KAROL DAHIANA OYUELA CABRERA Segudo Grupo 3
STEFANY OYUELA CABRERA Primero Grupo 2
VALERY SOFIA QUILA TORO Segudo Grupo 3
THALIA BECERRA ANACONA Primero Grupo 3
KEVIN RENGIFO RODRIGUEZ Segudo Grupo 3
JHOAN SEBASTIAN BERMEO RODRIGUEZ Primero Grupo 3
HOWET ARLED DAVID SANCHEZ LOPEZ Segudo Grupo 3
ANDERSON STIVEN BERMEO RODRIGUEZ Cuarto Grupo 3
ANDRES FELIPE CARVAJAL TRIANA dianaPrimero Grupo 3
SCARLENT VANESSA CARVAJAL TRIANA dianaSéptimo Grupo 3
DANNA SARAHI VERTEL PAPAMIJA sandrSegudo Grupo 3
CRISTIAN DAVID VILLEGAS VARGAS Segudo Grupo 3
Camial Andrea Pena Buendia Quinto Grupo 4
Yeiner Santiago Buendia Moreno Preescolar Grupo 3
Johana Andrea Chica Ortiz Séptimo Grupo 4
Esneyder Chica Ortiz Octavo Grupo 1
María Camila Ramírez varela lili- Primero Grupo 1
Jhon Alver Chica Ortiz Primero Grupo 4
Miguel Ángel Ramírez varela lili- Primero Grupo 1
Angie Lizeth Quintero Celis loreo Sexto Grupo 5
Yancen Arley Ramirez Quintero loreo Cuarto Grupo 3
BRAYAN STIVEN BUSTAMANTE ZAMBRANO Sexto Grupo 5
KEVIN ALEXI CALDERÓN CANACUE Sexto Grupo 5
BARBOSA SILVA VALENTINA Séptimo Grupo 4
DAWIN ARLEY CUBILLOS CRUZ cubil Sexto Grupo 5
ANYELA DANIELA ESTERLIN HERNANDEZ Sexto Grupo 5
JOSHUA FABRIZIO GONZALEZ HERNANDEZ sermeSexto Grupo 5
Evelin duneshka gomez quintero Primero Grupo 2
CRISTIAN ROBINHO PINTO SIERRA Sexto Grupo 5
KAREN DALLANA YUSTES PERDOMO Sexto Grupo 5
Juan David galán Quiñonez Octavo Grupo 4
Jose daniel burgos gaitan Segudo Grupo 5
Edna Sofía Burgos Gaitan Cuarto Grupo 1
WILTON QUINTERO RODRÍGUEZ Séptimo Grupo 4
José Alejandro Burgos Primero Grupo 6
Jorge eliecer gaitan tovar Sexto Grupo 2
Bicky taliha alvarez cordoba talih Sexto Grupo 2
Laura Daniela Yoja Vargas Séptimo Grupo 1
Brandon Smith Muñoz cuero Eibar Segudo Grupo 1
LUISA MARIA dIAZ VILLADA diezl Octavo Grupo 4
CENON HINCAPIE KAREN VANESSA Séptimo Grupo 4
Cenon Hincapie Ronal Andres Séptimo Grupo 4
FAJARDO VILLAMIL DEISON ADRIAN Séptimo Grupo 4
CADENA VILLAMIL DAYAN FERNANDO Octavo Grupo 4
CABRERA QUIVANO BRAYAN ALEXIS quivaSéptimo Grupo 4
GRAJALES SALAS JOSE DIDIER Séptimo Grupo 4
LEAL ANZOLA GEMERSON Séptimo Grupo 4
LEAL LOAIZA YENNY Octavo Grupo 1
JUAN DAVID OTALORA VARGAS Octavo Grupo 4
Moreno Sanchez Bayron Alejandro Séptimo Grupo 4
jhordaiverzón bonilla trujillo jhordaSexto Grupo 3
Franky Julián Ortiz Brand XavinOctavo Grupo 4
PINEDA SOSA JUAN ESTEBAN Séptimo Grupo 4
KAREN YULIANA ROVIS GUTIERREZ Octavo Grupo 4
Zuñiga Cuellar Yisel Esperanza Séptimo Grupo 4
DILAN JAVIER CHAVERRA ANACONA leydi Primero Grupo 1
FERNÁNDEZ ROJAS DARLY SAMANTHA natal Sexto Grupo 3
Juan David Betancourt Jaramillo Tercero Grupo 1
CUTIVA RAMOS ANGELA YISELA Sexto Grupo 1
CUTIVA MUÑOZ JUAN DAVID Sexto Grupo 1
GERSON DAVID ROVIS GUTIERREZ karenCuarto Grupo 3
ZULY DANIELA GARCÍA BUSTOS Séptimo Grupo 2
YURLI LORENA ROVIS GUTIERREZ karenSegudo Grupo 4
RAMIREZ PULGARIN JADER ERMITH Séptimo Grupo 4
JHORMAN FRANCISCO DOMICO AISAMA Primero Grupo 1
ANA SOFIA RODRIGUEZ CASTAÑEDA Séptimo Grupo 2
Yurani renteria renteria JhuraOctavo Grupo 4
Sara mildre criollo ramirez Primero Grupo 3
ANDRES SANTIAGO LOZANO PLAZAS Primero Grupo 1
Yudi Alexandra Gutiérrez Cubillos Tercero Grupo 3
Andri valentina criollo ramirez Preescolar Grupo 3
Johan Camilo Tovar Triana camil Séptimo Grupo 2
Sebastián Josué Sánchez medina Tercero Grupo 3
DIEGO FERNANDO MARTINEZ CARRERA Octavo Grupo 4
Nikol. Capera. galindo Primero Grupo 4
Albert Ignacio Sánchez Medina Primero Grupo 3
GARCIA CARRERA JOHAN STIVEN Tercero Grupo 2
EDGAR EDUARDO GARCIA CARRERA Séptimo Grupo 1
Juan camilo llanos chala RudycPrimero Grupo 4
Gerson david muñoz rivera Primero Grupo 4
Laura Valentina Ospina trujillo Primero Grupo 4
Maribel León Cano Sexto Grupo 4
Karen Sofia Ramirez Hernandez KarenSexto Grupo 4
JUAN PABLO CARDENAS PARRA Tercero Grupo 3
CARMEN YULIANA RENETERIA PARRA Octavo Grupo 4
Yuccy tatiana Criollo murcia Séptimo Grupo 5
Salazar ospina yuliana andrea SalazNoveno Grupo 2
Pauleth yurani Nivia Nivia PauleOctavo Grupo 2
Yudi tatiana salazar ospina SalazOnce Grupo 1
Zahira vanessa palta bustos Primero Grupo 5
Brayan Stiven pinzón Coronado PauleCuarto Grupo 1
angie paola galindo villaquira Octavo Grupo 4
Danna Vanessa Quintero cardenas Sexto Grupo 1
Shirly yalena Ramirez Guapacha Primero Grupo 2
Cale tafur arturo Sorfi Primero Grupo 2
Juan diego gutierrez martinez Primero Grupo 5
Fabián esneider Restrepo González Primero Grupo 4
Zully Karina Escobar ospina mariaSéptimo Grupo 5
Caren Dayana Mejía Marín Séptimo Grupo 1
Angie Paola Pérez ortiz angieSéptimo Grupo 5
Brayan Alexander zambrano Herran Octavo Grupo 3
Karol Michel andrade Caicedo Karol Noveno Grupo 1
Linda Valentina aisama aisama Primero Grupo 3
Gheilly sambony cocoma LidasPrimero Grupo 3
PEREZ LUNA Primero Grupo 3
Liliana vargas pimentel EsmilSéptimo Grupo 5
Maicol Sebastián cobaleda carvajal Primero Grupo 4
Maryuri Bibiana Quiñones cobaleda Segudo Grupo 4
Johan Andrés galindez Claros AndreOctavo Grupo 3
Heidi yulieth plaza Rodríguez glomiPrimero Grupo 3
JOSE FRANCISCO LARA DÍAZ jenni Séptimo Grupo 3
Jimena Alejandra Ocampo ibarra olgacSéptimo Grupo 5
JHON SEBASTIÁN VARON ENDO Primero Grupo 3
Laura Valentina gualtero Sexto Grupo 4
Haminton Alexiz Ortiz Molano ortiz Séptimo Grupo 5
Valentina Duarte Rodriguez Sexto Grupo 4
Kelly jhoana yate vasquez Primero Grupo 3
Nikol Dayana Quintero campos Primero Grupo 3
Hioga David Quintero Florez Lina. Octavo Grupo 3
Jeeison Raul Quintero Florez Lina. Octavo Grupo 3
Dayana Lozada Pulecio dayix Once Grupo 1
Juan Miguel llanos castaño Séptimo Grupo 5
Darwin duarte Sexto Grupo 4
MURCIA ALAPE MILDRETH YULITZA murciOctavo Grupo 4
DANNA MARCELA PRIETO CARVAJAL yprie Primero Grupo 1
MICHEL YURANI ROJAS LEDESMA Primero Grupo 1
Andry Valentina Galíndez claros dianaTercero Grupo 1
KAREN XIOMARA ALONSO VELEZ Primero Grupo 2
ESTHEFANNY FERNANDA ALONSO VELEZ Primero Grupo 2
CARLOS ANDRES GARCIA URBINA Primero Grupo 2
YOAN STIVEN REYNA URBINA Preescolar Grupo 4
IVAN GUASIRUMA AYSAMA Primero Grupo 2
YEINER ANDRES GUASIRUMA AYSAMA Noveno Grupo 1
Brian brainer joven marin Primero Grupo 6
DANNA MICHELL Primero Grupo 2
Juan Manuel Granados Collazos Cuarto Grupo 1
Jhon edinson ospina lievano Quinto Grupo 2
JULIAN ALEXANDER PEREZ SIERRA elied Primero Grupo 2
CRISTIAN CAMILO CHARRY JUANIAS Primero Grupo 3
Andres felipe betancur Primero Grupo 5
Heimer stiven ramirez caipe Primero Grupo 4
Gelen sofia calderon cordoba Primero Grupo 6
ANGUCHO POLO YEISON poloySéptimo Grupo 4
VILLA GIRON RONALD ADRIAN Séptimo Grupo 4
VILLA GIRON MARIANA Sexto Grupo 4
JOHAN STIVEN VALENCIA RAMÍREZ Primero Grupo 5
Santiago Lozada Suárez Primero Grupo 6
Karen Vanessa Navia Osorio KarenDécimo Grupo 2
Andry yisel astudillos cubillos Séptimo Grupo 5
dylan farid mosquera artunduaga mosqu Cuarto Grupo 1
Angie yuliza valencia obando LucyrOctavo Grupo 3
Nery fernanda valencia obando LucyrQuinto Grupo 2
harrinson tejada lasso Noveno Grupo 1
Jiovani estiven betancur MonicCuarto Grupo 1
RIVERA VARGAS YUNNETE Séptimo Grupo 4
RIVERA VARGAS ANGIE LORENA Octavo Grupo 1
Jessica Sofía ibagon ramos Sexto Grupo 4
Alex duvan roncancio catachunga Sexto Grupo 1
Karen Julieth castilla andreSéptimo Grupo 5
Desireth Gómez claros Primero Grupo 3
Wendy yulitza Trujillo García garci Primero Grupo 6
Caldas losada kerly yutleny Kerly Décimo Grupo 1
carlos julio ortiz quintero ortiz Noveno Grupo 2
Ingrid Lizeth Calderon Marines CaldeOctavo Grupo 2
Luisa calderon marines CaldeSéptimo Grupo 1
Juan Carlos Calderon Marines CaldeDécimo Grupo 1
Luis Miguel Caldas Losada Sexto Grupo 4
ZAFIREKUDO RODRIGUEZ DEINER ADRIAN Primero Grupo 5
ANDRY VALENTINA ALMARIO DELGADO Primero Grupo 5
DILAN SANTIAGO BARRERA MENDOZA Primero Grupo 5
JHON ALEJANDRO BAUTISTA CORREA Primero Grupo 5
Jasbleidy Jineth Navia Gaviria Noveno Grupo 2
DAZA ARANGO DAIANA MELIZA Primero Grupo 5
kimberly Tatiana Gonzalez Lozano Séptimo Grupo 4
Valerie Daza Gomez Primero Grupo 5
JHOAN STIVEN DIAZ CAMARGO Primero Grupo 5
DAIRON DAVID FAJARDO SANCHEZ Primero Grupo 5
DANY ANDREA PEDRAZA CALDUCHO Primero Grupo 5
JADER STIVEN RESTREPO CASALLAS Primero Grupo 5
SHIRLEY SOFIA RUIZ ALDANA Primero Grupo 5
FABIAN STIVEN TRIVIÑO GUTIERRZ Primero Grupo 5
JONY ALEXANDER YELA ANGEL Primero Grupo 5
Jhonatan lozano ortiz JhonaOctavo Grupo 1
Eider Estiven Caro Madrigal Cuarto Grupo 1
Breiner Baron Ramírez Séptimo Grupo 2
Listo Brisney Barón Ramírez Décimo Grupo 2
Lucy Daniela Gomez Baca Octavo Grupo 1
Duran Rubiano Geidy Yuliana Octavo Grupo 3
Duran Rubiano Yudi Yulieth Segudo Grupo 5
Jair andres sedano correa Jairc Once Grupo 1
Darlyn Lizeth Silva Gomez Tercero Grupo 1
Alba Alexandra Barrera Jaramillo Sexto Grupo 2
Gilberth ramos arroyo Primero Grupo 6
Chelsy Escarlet Gutierrez Cabrera Octavo Grupo 1
Luis Fernando Lancheros Cuellar YolanQuinto Grupo 4
Isabel sofia laverde Hurtado Cuarto Grupo 3
Heilen Michel lozada Primero Grupo 6
Guerrero Díaz Jhoan Sebastián Tercero Grupo 2
Jose Esteban Gutierrez Gomez Tercero Grupo 2
Yeimy Sofia lopez Salcedo Tercero Grupo 2
Leidy Dayana parra españa Octavo Grupo 2
Johan sebastian campo capera Primero Grupo 6
Karenjulieth polania vega PolanPrimero Grupo 4
Angie sofia vasquez romero NubiaCuarto Grupo 3
Sandra patricia tapiero zapata Cuarto Grupo 3
Daniel albeiro tapiero zapata Segudo Grupo 2
Johan andres tapiero zapata Primero Grupo 3
Adriana lucia tapiero zapata Octavo Grupo 4
ANGEL WILFRAN FLOREZ SANCHEZ argenOctavo Grupo 1
YESICA PATRICIA SILVA MENDEZ Primero Grupo 4
LAURA VALENTINA SILVA MENDEZ Primero Grupo 4
LAURA NICOL BONILLA Primero Grupo 6
MAICOL STIVEN PRIETO NUÑEZ Primero Grupo 5
DUVAN ALEXIS IQUINA MONROY Tercero Grupo 3
GREIDY STEFHANIA YAGUE FERNANDEZ Tercero Grupo 3
Yasmín Montoya Solano niniy Sexto Grupo 1
Garcia martinez karen dayana Décimo Grupo 2
Milton andres ramirez vasquez Segudo Grupo 2
Sara camila Gaviria Erazo Quinto Grupo 1
Erick manuel marin navero Noveno Grupo 1
Geraldine Calderón Bautista Séptimo Grupo 5
Johan stiven vega Valencia Primero Grupo 4
Yeison Andres Prieto Galindo Preescolar Grupo 2
Karol briyith tique Cuarto Grupo 3
Nicole dayanna anacona morales Do46Segudo Grupo 3
Faiber Andrés tique Quintero Quinto Grupo 3
Wilson Matías Ochoa Vargas Preescolar Grupo 4
Jader David Olaya Córdoba Quinto Grupo 2
Laura Camila Olaya Córdova Cuarto Grupo 1
Johan Smith Bolaños fajardo Segudo Grupo 1
Irma clareni Bolaños fajardo Sexto Grupo 3
Valentina Perez ospina Tercero Grupo 1
Riquelme Marulanda ortiz Octavo Grupo 2
Santiago Marulanda ortiz Tercero Grupo 1
Carlos andres plazas garcia Ailen Sexto Grupo 5
Herlandy murcia cabrera Séptimo Grupo 4
Alfredo murcia cabrera Quinto Grupo 2
Jesus David Loaiza Macana Sexto Grupo 5
Damian Andres Loaiza C Cuarto Grupo 1
Sara Valentina Loaiza C Primero Grupo 6
¿El estudiante cuenta con De los siguientes recursos ¿El estudiante cuenta con De los siguientes recursos
No Smartphone (celular) Sí Conexión a internet vía saté
No Smartphone (celular) Sí Conexión a internet vía saté
Sí Computador de Escritorio Sí Internet Banda Ancha
No Smartphone (celular) Sí Internet Banda Ancha
No Smartphone (celular) Sí Conexión a internet vía saté
No Smartphone (celular) Sí Internet Banda Ancha
No Smartphone (celular) No Internet Banda Ancha
No Smartphone (celular) No Ninguno
No Smartphone (celular) Sí Internet Banda Ancha
Sí Smartphone (celular), Comp Sí Inalambrico
No Smartphone (celular) Sí Total Aztecas
Sí Computador de Escritorio Sí Conexión a internet vía saté
No Smartphone (celular) Sí Conexión a internet vía saté
Sí Smartphone (celular), Pórtat
Sí Conexión a internet vía saté
No Smartphone (celular) Sí Internet Banda Ancha
No Smartphone (celular) No Ninguno
Sí Pórtatil Sí Conexión a internet vía saté
No Smartphone (celular) Sí Internet Banda Ancha
No Smartphone (celular) No Ninguno
Sí Computador de Escritorio Sí Conexión a internet vía saté
No Smartphone (celular) Sí Conexión a internet vía saté
No Smartphone (celular) Sí Total Aztecas
No Smartphone (celular) Sí Internet Banda Ancha
No Smartphone (celular), CeluSí Conexión a internet vía saté
No Smartphone (celular) No Plan de Datos Telefonía Móvi
No Smartphone (celular) No Ninguno
No Smartphone (celular) Sí Conexión a internet vía saté
No Smartphone (celular) No Plan de Datos Telefonía Móvi
Sí Computador de Escritorio Sí Internet Banda Ancha
No Smartphone (celular) No Ninguno
No Smartphone (celular) Sí Internet Banda Ancha
Sí Computador de Escritorio Sí Internet Banda Ancha
No Smartphone (celular) No Plan de Datos Telefonía Móvi
No Smartphone (celular) Sí Conexión a internet vía saté
No Smartphone (celular) Sí Internet Banda Ancha
Sí Smartphone (celular) Sí Internet Banda Ancha
No Smartphone (celular) Sí Conexión a internet vía saté
No Smartphone (celular) No Plan de Datos Telefonía Móvi
No Smartphone (celular) No Plan de Datos Telefonía Móvi
Sí Pórtatil No Ninguno
No Smartphone (celular) Sí Internet Banda Ancha, Plan
No Smartphone (celular) No Ninguno
No Smartphone (celular) No Ninguno
Sí Smartphone (celular) Sí Internet Banda Ancha
No Smartphone (celular) No Plan de Datos Telefonía Móvi
No Smartphone (celular) No Plan de Datos Telefonía Móvi
No Smartphone (celular) Sí Internet Banda Ancha
No Ninguno Sí Internet Banda Ancha
No Smartphone (celular) No Plan de Datos Telefonía Móvi
No Celular tactil No Conexión a internet vía saté
No Ninguno Sí Internet Banda Ancha
Sí Pórtatil Sí Conexión a internet vía saté
Sí Smartphone (celular), Pórtat
Sí Conexión a internet vía saté
Sí Smartphone (celular), Comp Sí Internet Banda Ancha
No Smartphone (celular) Sí Internet Banda Ancha
No Smartphone (celular) Sí Internet Banda Ancha
No Smartphone (celular) Sí Conexión a internet vía saté
Sí Smartphone (celular) Sí Internet Banda Ancha
No Smartphone (celular) Sí Internet Banda Ancha
No Smartphone (celular) No Ninguno
Sí Smartphone (celular), Pórtat
Sí Plan de Datos Telefonía Móvi
No Ninguno Sí Plan de Datos Telefonía Móvi
Sí Computador de Escritorio Sí Plan de Datos Telefonía Móvi
No Smartphone (celular) No Ninguno
No Smartphone (celular) Sí Internet Banda Ancha
No Smartphone (celular) No Ninguno
No Smartphone (celular), CelulNo Plan de Datos Telefonía Móvi
No Smartphone (celular) No Ninguno
No Smartphone (celular) No Plan de Datos Telefonía Móvi
No Smartphone (celular) No Ninguno
Sí Pórtatil Sí Internet Banda Ancha
No Ninguno Sí Conexión a internet vía saté
Sí Smartphone (celular) Sí Internet Banda Ancha
No Smartphone (celular) No Plan de Datos Telefonía Móvi
No Ninguno No Ninguno
No Smartphone (celular) No Plan de Datos Telefonía Móvi
No Smartphone (celular) Sí Plan de Datos Telefonía Móvi
Sí Pórtatil No Ninguno
No Ninguno Sí Conexión a internet vía saté
Sí Smartphone (celular) Sí Internet Banda Ancha
No Smartphone (celular) Sí Conexión a internet vía saté
No Smartphone (celular) Sí Internet Banda Ancha
Sí Smartphone (celular), Comp Sí Internet Banda Ancha
No Smartphone (celular) No Ninguno
Sí Computador de Escritorio Sí Plan de Datos Telefonía Móvi
Sí Smartphone (celular), Comp Sí Inalambrico
No Smartphone (celular) No Plan de Datos Telefonía Móvi
No Smartphone (celular) Sí Conexión a internet vía saté
Sí Smartphone (celular), Pórtat
Sí Plan de Datos Telefonía Móvi
No Smartphone (celular) Sí Recarga por paquete
No Smartphone (celular) Sí Internet Banda Ancha
No Smartphone (celular) No Ninguno
No Smartphone (celular) Sí Conexión a internet vía saté
No Smartphone (celular) Sí Plan de Datos Telefonía Móvi
No Smartphone (celular) Sí Internet Banda Ancha
No Smartphone (celular) Sí Plan de Datos Telefonía Móvi
No Smartphone (celular) Sí Plan de Datos Telefonía Móvi
No Celular Sí Conexión a internet vía saté
No Smartphone (celular) Sí Plan de Datos Telefonía Móvi
No Ninguno No Plan de Datos Telefonía Móvi
No Ninguno No Ninguno
Sí Smartphone (celular), Comp Sí Internet Banda Ancha
No Ninguno No Ninguno
Sí Pórtatil Sí Conexión a internet vía saté
No Smartphone (celular) No Recargas
No Ninguno No Ninguno
No Smartphone (celular) Sí Los vesinos
Sí Smartphone (celular), Pórtat
No Plan de Datos Telefonía Móvi
Sí Computador de Escritorio Sí Internet Banda Ancha
No Smartphone (celular) Sí Conexión a internet vía saté
No Smartphone (celular) Sí Plan de Datos Telefonía Móvi
No Smartphone (celular) Sí Plan de Datos Telefonía Móvi
Sí Smartphone (celular), Pórtat
Sí Conexión a internet vía saté
No Ninguno No Ninguno
No Smartphone (celular) Sí Conexión a internet vía saté
No Celular No Ninguno
No Smartphone (celular) Sí Conexión a internet vía saté
Sí Smartphone (celular), Comp Sí Internet Banda Ancha
No Smartphone (celular) Sí Conexión a internet vía saté
No Smartphone (celular) Sí Plan de Datos Telefonía Móvi
No Smartphone (celular) Sí Conexión a internet vía saté
No Smartphone (celular) No Ninguno
Sí Pórtatil Sí Plan de Datos Telefonía Móvi
No Smartphone (celular) No Ninguno
No Smartphone (celular) Sí Plan de Datos Telefonía Móvi
No Ninguno No Ninguno
No Smartphone (celular) Sí Internet Banda Ancha
No Smartphone (celular) No Plan de Datos Telefonía Móvi
No Smartphone (celular) Sí Conexión a internet vía saté
No Smartphone (celular) Sí Conexión a internet vía saté
Sí Smartphone (celular), Comp Sí Internet Banda Ancha
Sí Smartphone (celular) Sí Plan de Datos Telefonía Móvi
No Smartphone (celular) Sí Plan de Datos Telefonía Móvi
Sí Smartphone (celular), Pórtat
No Plan de Datos Telefonía Móvi
Sí Smartphone (celular), Comp Sí Internet Banda Ancha
No Smartphone (celular) No Plan de Datos Telefonía Móvi
No Smartphone (celular) Sí Conexión a internet vía saté
No Ninguno No Ninguno
No Smartphone (celular) No Ninguno
No Smartphone (celular) Sí Internet Banda Ancha
No Ninguno No Ninguno
Sí Pórtatil No Plan de Datos Telefonía Móvi
No Ninguno No Ninguno
No Smartphone (celular) Sí Plan de Datos Telefonía Móvi
No Smartphone (celular) No Ninguno
No Smartphone (celular) Sí Plan de Datos Telefonía Móvi
Sí Smartphone (celular), PórtaSí Internet Banda Ancha
No Ninguno No Ninguno
No Smartphone (celular) No Plan de Datos Telefonía Móvi
No Smartphone (celular) No Plan de Datos Telefonía Móvi
No Smartphone (celular) No Ninguno
No Ninguno No Ninguno
Sí Pórtatil Sí Conexión a internet vía saté
No Smartphone (celular) No Ninguno
No Smartphone (celular) Sí Internet Banda Ancha
No Ninguno No Ninguno
Sí Smartphone (celular), Comp Sí Internet Banda Ancha
No Smartphone (celular) Sí Plan de Datos Telefonía Móvi
No Smartphone (celular) No Ninguno
No celular No Plan de Datos Telefonía Móvi
No Ninguno No Plan de Datos Telefonía Móvi
Sí Computador de Escritorio Sí Internet Banda Ancha
No Ninguno No Ninguno
No Smartphone (celular) No Ninguno
No Smartphone (celular) No Ninguno
No Ninguno No Ninguno
No Smartphone (celular) No Plan de Datos Telefonía Móvi
No Smartphone (celular) Sí Plan de Datos Telefonía Móvi
No Smartphone (celular) No Plan de Datos Telefonía Móvi
No Ninguno No Ninguno
No Smartphone (celular) Sí Plan de Datos Telefonía Móvi
No Smartphone (celular) Sí Internet Banda Ancha
No Smartphone (celular) No Ninguno
No Smartphone (celular) No Ninguno
No Celular pequeño (samsungSí Plan de Datos Telefonía Móvi
No Smartphone (celular) Sí Plan de Datos Telefonía Móvi
No Smartphone (celular) No Ninguno
No Smartphone (celular) No Plan de Datos Telefonía Móvi
No Smartphone (celular) No Ninguno
Sí Smartphone (celular), Pórtat
Sí Internet Banda Ancha
Sí Smartphone (celular) Sí fibra optica
No Smartphone (celular) Sí Conexión a internet vía saté
Sí Smartphone (celular), CompSí Internet Banda Ancha
No Smartphone (celular) No Ninguno
No Smartphone (celular) No Ninguno
No Smartphone (celular) No Ninguno
Sí Smartphone (celular), Pórtat
Sí Plan de Datos Telefonía Móvi
No Smartphone (celular) No Ninguno
No Smartphone (celular) Sí Plan de Datos Telefonía Móvi
No Smartphone (celular) Sí Plan de Datos Telefonía Móvi
No Smartphone (celular) No Ninguno
No Ninguno No Ninguno
No Smartphone (celular) No Ninguno
No Smartphone (celular) No Ninguno
No Smartphone (celular) No Datos
No Ninguno Sí Plan de Datos Telefonía Móvi
No Smartphone (celular) Sí Conexión a internet vía saté
No Samsung No Plan de Datos Telefonía Móvi
No Smartphone (celular) No Ninguno
No Smartphone (celular) No Ninguno
No Ninguno Sí Internet Banda Ancha
Sí Smartphone (celular), Pórtat
Sí Internet Banda Ancha
No Smartphone (celular) No Ninguno
No Smartphone (celular) No Ninguno
No Smartphone (celular) No Ninguno
Sí Pórtatil Sí Conexión a internet vía saté
No Smartphone (celular) Sí Internet Banda Ancha
No Smartphone (celular) No Ninguno
No Smartphone (celular) No Ninguno
No Smartphone (celular) Sí Internet Banda Ancha
No Smartphone (celular) No Ninguno
No Smartphone (celular) No Plan de Datos Telefonía Móvi
Sí Smartphone (celular), Pórtat
Sí Internet Banda Ancha
No Smartphone (celular) No Ninguno
No Smartphone (celular) No Recargas
No Smartphone (celular) No Plan de Datos Telefonía Móvi
No Smartphone (celular) No Ninguno
No Smartphone (celular) No Plan de Datos Telefonía Móvi
Sí Smartphone (celular), Pórtat
Sí Internet Banda Ancha
No Smartphone (celular) Sí Internet Banda Ancha
Sí Smartphone (celular), CompSí Conexión a internet vía saté
No Smartphone (celular) Sí Compramos wifi
No Smartphone (celular) Sí Plan de Datos Telefonía Móvi
Sí Smartphone (celular), Pórtat
Sí Internet Banda Ancha
No Smartphone (celular) Sí Internet Banda Ancha
Sí Smartphone (celular), Pórtat
Sí Internet Banda Ancha
No Smartphone (celular) No Ninguno
No Ninguno Sí Conexión a internet vía saté
No Ninguno No Ninguno
Sí Smartphone (celular), Tablet
Sí Plan de Datos Telefonía Móvi
Sí Smartphone (celular), Pórtat
Sí Conexión a internet vía saté
No Ninguno Sí Internet Banda Ancha
No Ninguno No Ninguno
No Smartphone (celular) No Ninguno
No Ninguno Sí Internet Banda Ancha
Sí Computador de Escritorio Sí Internet Banda Ancha
No Smartphone (celular) Sí Conexión a internet vía saté
No Smartphone (celular) No Plan de Datos Telefonía Móvi
Sí Smartphone (celular), CompSí Internet Banda Ancha
Sí Pórtatil Sí Internet Banda Ancha
No Smartphone (celular) Sí Conexión a internet vía saté
No Smartphone (celular) No Plan de Datos Telefonía Móvi
Sí Smartphone (celular), CompSí Conexión a internet vía saté
No Smartphone (celular) No Datos
No Smartphone (celular) No Ninguno
No Smartphone (celular) No Plan de Datos Telefonía Móvi
Sí Smartphone (celular), CompSí Internet Banda Ancha
No Smartphone (celular) No Plan de Datos Telefonía Móvi
No Smartphone (celular) No Plan de Datos Telefonía Móvi
Sí Smartphone (celular), Pórtat
Sí Conexión a internet vía saté
Sí Pórtatil Sí Internet Banda Ancha
No Smartphone (celular) No Ninguno
Sí Computador de Escritorio Sí Internet Banda Ancha
Sí Smartphone (celular), CompSí Internet Banda Ancha
No Smartphone (celular) Sí Conexión a internet vía saté
No Ninguno No Ninguno
No Smartphone (celular) Sí Internet Banda Ancha
Sí Smartphone (celular), CompSí Conexión a internet vía saté
No Smartphone (celular) No Ninguno
No Smartphone (celular) Sí Internet Banda Ancha
No Smartphone (celular) No Plan de Datos Telefonía Móvi
Sí Pórtatil No Ninguno
No Smartphone (celular) No Plan de Datos Telefonía Móvi
No Smartphone (celular) No Ninguno
No Ninguno No Ninguno
No Smartphone (celular) No Plan de Datos Telefonía Móvi
Sí Smartphone (celular), CompSí Conexión a internet vía saté
No Smartphone (celular) No Ninguno
Sí Computador de Escritorio Sí Conexión a internet vía saté
No Smartphone (celular) No Ninguno
No Cedular No Ninguno
No Smartphone (celular) No Plan de Datos Telefonía Móvi
No Smartphone (celular) Sí Internet Banda Ancha
No Ninguno No Ninguno
Sí Computador de Escritorio Sí Conexión a internet vía saté
Sí Smartphone (celular), Pórtat
Sí Conexión a internet vía saté
Sí Smartphone (celular), CompSí Wifi vecinos nos vende
No Smartphone (celular), CompSí Wifi
Sí Pórtatil Sí Conexión a internet vía saté
Sí Smartphone (celular), CompSí Conexión a internet vía saté
No Ninguno No Ninguno
No Ninguno Sí Conexión a internet vía saté
No Smartphone (celular) Sí Internet Banda Ancha
Sí Pórtatil No Ninguno
No Smartphone (celular) Sí Conexión a internet vía saté
No Smartphone (celular) No Ninguno
No Smartphone (celular) Sí Conexión a internet vía saté
No Smartphone (celular) No Cuando podemos colocar r
No Smartphone (celular) Sí Plan de Datos Telefonía Móvi
Sí Pórtatil Sí Internet Banda Ancha, Conex
Sí Smartphone (celular), Pórtat
Sí Internet Banda Ancha
No Smartphone (celular) No Ninguno
No Ninguno Sí Conexión a internet vía saté
No Smartphone (celular) No Ninguno
Sí Pórtatil Sí Conexión a internet vía saté
Sí Smartphone (celular), Pórtat
No Ninguno
No Smartphone (celular) No Ninguno
Sí Pórtatil No Ninguno
Sí Pórtatil Sí Internet Banda Ancha
No Smartphone (celular) No Ninguno
No Smartphone (celular) Sí Internet Banda Ancha
No Smartphone (celular) No Ninguno
Sí Smartphone (celular), Pórtat
No Ninguno
No Smartphone (celular) Sí Wifi
No Smartphone (celular) Sí Conexión a internet vía saté
No Ninguno No Ninguno
Sí Computador de Escritorio Sí Conexión a internet vía saté
Sí Smartphone (celular), Pórtat
Sí Internet Banda Ancha
No Smartphone (celular) Sí Plan de Datos Telefonía Móvi
No Ninguno No Ninguno
No Smartphone (celular) Sí Internet Banda Ancha
No Smartphone (celular) Sí Conexión a internet vía saté
No Smartphone (celular) Sí Conexión a internet vía saté
No Smartphone (celular) No Ninguno
Sí Smartphone (celular), CompSí Internet Banda Ancha, Plan
Sí Computador de Escritorio Sí Conexión a internet vía saté
No Smartphone (celular) Sí Plan de Datos Telefonía Móvi
No Ninguno Sí Plan de Datos Telefonía Móvi
Sí Smartphone (celular), CompSí Internet Banda Ancha, Plan
No Smartphone (celular) No Ninguno
No Smartphone (celular) Sí Internet Banda Ancha
No Smartphone (celular) No Ninguno
Sí Smartphone (celular), CompSí Internet por fibra óptica.
No Smartphone (celular) Sí Plan de Datos Telefonía Móvi
No Smartphone (celular) Sí Internet Banda Ancha
No celular Sí conpartiendo
Sí Smartphone (celular) Sí Internet Banda Ancha
Sí Smartphone (celular), CompSí Internet Banda Ancha
No Smartphone (celular) No Plan de Datos Telefonía Móvi
No Smartphone (celular) Sí Conexión a internet vía saté
Sí Smartphone (celular), CompSí Internet Banda Ancha
No Smartphone (celular) Sí Plan de Datos Telefonía Móvi
No Smartphone (celular) No Ninguno
No Smartphone (celular) Sí Internet fibra optica
No Tablet Sí Plan de Datos Telefonía Móvi
No Smartphone (celular) Sí Plan de Datos Telefonía Móvi
Sí Smartphone (celular) Sí Internet Banda Ancha
No Smartphone (celular) No Ninguno
No Smartphone (celular) No Conexión a internet vía saté
Sí Computador de Escritorio Sí Internet Banda Ancha
Sí Computador de Escritorio No Ninguno
No Smartphone (celular) Sí Internet Banda Ancha
No Smartphone (celular) Sí Internet Banda Ancha
Sí Smartphone (celular), Pórtat
Sí Internet Banda Ancha
No Smartphone (celular) Sí Internet Banda Ancha
No Smartphone (celular), Tabl No Plan de Datos Telefonía Móvi
No Smartphone (celular) No Plan de Datos Telefonía Móvi
No Smartphone (celular) Sí Pagandole al vecino mensu
No Smartphone (celular) Sí Conexión a internet vía saté
No Celular Motorola No Recargas de 2000
Sí Pórtatil Sí Rapinet
No Smartphone (celular) Sí Internet Banda Ancha
No Smartphone (celular) Sí Conexión a internet vía saté
No Smartphone (celular) No Ninguno
Sí Pórtatil Sí Plan de Datos Telefonía Móvi
Sí Pórtatil Sí Plan de Datos Telefonía Móvi
No Smartphone (celular) Sí Plan de Datos Telefonía Móvi
Sí Smartphone (celular) Sí Plan de Datos Telefonía Móvi
No Ninguno No Ninguno
No Ninguno Sí Internet Banda Ancha, Plan
Sí Smartphone (celular) Sí Plan de Datos Telefonía Móvi
No Ninguno No Ninguno
No Ninguno No Ninguno
No Smartphone (celular) Sí Plan de Datos Telefonía Móvi
Sí Smartphone (celular), Comp No Plan de Datos Telefonía Móvi
No Smartphone (celular) Sí Plan de Datos Telefonía Móvi
Sí Smartphone (celular), Pórtat
Sí Conexión a internet vía saté
No Ninguno No Ninguno
No Ninguno Sí FAMILI LEMUS se le paga i
Sí Smartphone (celular) No Ninguno
No Ninguno Sí Conexión a internet vía saté
No Ninguno Sí Conexión a internet vía saté
Sí Smartphone (celular) No Ninguno
Sí Smartphone (celular) Sí Plan de Datos Telefonía Móvi
No Smartphone (celular) Sí Conexión a internet vía saté
No Smartphone (celular) Sí Plan de Datos Telefonía Móvi
No Smartphone (celular) Sí Conexión a internet vía saté
No Smartphone (celular) No Plan de Datos Telefonía Móvi
No Ninguno No Plan de Datos Telefonía Móvi
No Smartphone (celular) Sí Internet Banda Ancha
No Smartphone (celular) No Plan de Datos Telefonía Móvi
No Smartphone (celular) Sí Internet Banda Ancha
No Ninguno No Plan de Datos Telefonía Móvi
No Smartphone (celular) Sí Internet Banda Ancha
No Smartphone (celular) No Plan de Datos Telefonía Móvi
No Smartphone (celular) Sí Plan de Datos Telefonía Móvi
No Smartphone (celular) No Plan de Datos Telefonía Móvi
No Smartphone (celular) No Plan de Datos Telefonía Móvi
Sí Computador de Escritorio Sí Conexión a internet vía saté
No Smartphone (celular) Sí Internet Banda Ancha
No Ninguno No Plan de Datos Telefonía Móvi
Sí Computador de Escritorio Sí Conexión a internet vía saté
No Smartphone (celular) No Solo cuando hacen recarga
Sí Smartphone (celular), Pórtat
Sí Internet Banda Ancha
Sí Computador de Escritorio Sí Internet Banda Ancha
Sí Smartphone (celular), Comp Sí Internet Banda Ancha
No Smartphone (celular) No Paquete de datos
No Ninguno No Ninguno
No Smartphone (celular) No Paquete de datos
No Smartphone (celular) Sí Visapline
No Smartphone (celular) No Paquete de datos
No Smartphone (celular) No Paquete de datos
No Smartphone (celular) Sí Conexión a internet vía saté
No Smartphone (celular) No Plan de Datos Telefonía Móvi
No Ninguno No Ninguno
No Smartphone (celular) Sí Visapline
No Smartphone (celular) No Redes sociales (whatsapp
No Smartphone (celular) No Redes sociales
Sí Computador de Escritorio No Plan de Datos Telefonía Móvi
No Smartphone (celular) Sí Wuifi me vende el vesino
No Smartphone (celular) No Redes sociales (whatsapp
No Smartphone (celular) No Plan de Datos Telefonía Móvi
Sí Computador de Escritorio Sí Conexión a internet vía saté
No Smartphone (celular) Sí Conexión a internet vía saté
No Smartphone (celular) Sí Conexión a internet vía saté
Sí Pórtatil Sí Internet Banda Ancha
No Smartphone (celular) No Plan de Datos Telefonía Móvi
No Smartphone (celular) Sí Con wi-fi
No Smartphone (celular) Sí Conexión a internet vía saté
No Smartphone (celular) Sí Internet Banda Ancha
No Smartphone (celular) Sí Internet Banda Ancha
No Ninguno No WhatsApp
No Smartphone (celular) Sí Conexión a internet vía saté
No Smartphone (celular) No Ninguno
No Smartphone (celular) No Ninguno
No Smartphone (celular) No Ninguno
No Smartphone (celular) No Ninguno
No Smartphone (celular) No Ninguno
Sí Smartphone (celular), Pórtat
Sí Conexión a internet vía saté
No Ninguno No Ninguno
No Smartphone (celular) No Ninguno
Sí Pórtatil Sí Conexión a internet vía saté
No Smartphone (celular) No Ninguno
No Smartphone (celular) Sí Internet Banda Ancha
No Smartphone (celular) Sí Conexión a internet vía saté
No Smartphone (celular) No Ninguno
No Smartphone (celular) Sí Internet Banda Ancha
No Smartphone (celular) Sí Conexión a internet vía saté
Sí Smartphone (celular), Pórtat
Sí Internet Banda Ancha, Plan
No Ninguno No Ninguno
No Ninguno No Ninguno
No Smartphone (celular) Sí Plan de Datos Telefonía Móvi
Sí Smartphone (celular), Pórtat
Sí Internet Banda Ancha, Plan
No Ninguno No Ninguno
No Smartphone (celular) No Ninguno
No Celular por whatsapp Sí Conexión a internet vía saté
No Smartphone (celular) No Ninguno
No Smartphone (celular) No Ninguno
No Smartphone (celular) No Ninguno
Sí Pórtatil Sí Internet Banda Ancha
No Smartphone (celular) No Plan de Datos Telefonía Móvi
Sí Smartphone (celular), Pórtat
No Ninguno
No Ninguno Sí Conexión a internet vía saté
No Smartphone (celular) Sí Plan de Datos Telefonía Móvi
No Smartphone (celular) No Ninguno
No Smartphone (celular) Sí Plan de Datos Telefonía Móvi
No Smartphone (celular) Sí Internet Banda Ancha
No Smartphone (celular) No Ninguno
Sí Smartphone (celular), CompSí Plan de Datos Telefonía Móvi
No Smartphone (celular) Sí Conexión a internet vía saté
No Smartphone (celular) Sí Plan de Datos Telefonía Móvi
No Smartphone (celular) No Plan de Datos Telefonía Móvi
No Smartphone (celular) Sí Plan de Datos Telefonía Móvi
Sí Smartphone (celular), Pórtat
Sí Internet Banda Ancha
No Tablet Sí Si de besinos
Sí Smartphone (celular) Sí Plan de Datos Telefonía Móvi
No Smartphone (celular) No Internet Banda Ancha
No Smartphone (celular) No Datos redes sociales
Sí Smartphone (celular), CompSí Internet del vesino
No Smartphone (celular) No Datos redes sociales
No Ninguno Sí Conexión a internet vía saté
No Smartphone (celular) Sí Visaplyne
No Smartphone (celular) Sí Internet Banda Ancha
No Smartphone (celular) Sí Plan de Datos Telefonía Móvi
No Smartphone (celular) No Internet Banda Ancha
No Smartphone (celular) No Plan de Datos Telefonía Móvi
Sí Smartphone (celular), CompSí Internet del vesino
No Tablet Sí De los besinos
No Ninguno No Ninguno
No Smartphone (celular) Sí Plan de Datos Telefonía Móvi
No Smartphone (celular) No Plan prepago de internet
No Smartphone (celular) Sí Plan de Datos Telefonía Móvi
Sí Pórtatil Sí Internet Banda Ancha
No Smartphone (celular) Sí Conexión a internet vía saté
No Smartphone (celular) No Plan de datos prepago
No Smartphone (celular) Sí Plan de Datos Telefonía Móvi
Sí Pórtatil Sí Internet Banda Ancha
No Smartphone (celular) Sí Plan de Datos Telefonía Móvi
No Smartphone (celular) Sí Internet Banda Ancha
No Smartphone (celular) No Plan de datos prepago
No Smartphone (celular) Sí Conexión a internet vía saté
Sí Computador de Escritorio Sí Internet Banda Ancha
Sí Smartphone (celular), Pórtat
Sí Conexión a internet vía saté
No Smartphone (celular) Sí radial
No Smartphone (celular) No Ninguno
No Smartphone (celular) Sí Internet Banda Ancha
No Smartphone (celular) Sí Plan de Datos Telefonía Móvi
No Smartphone (celular) Sí Plan de Datos Telefonía Móvi
No Smartphone (celular) Sí Plan de Datos Telefonía Móvi
No Smartphone (celular) No Plan de Datos Telefonía Móvi
No Smartphone (celular) No Plan de Datos Telefonía Móvi
Sí Smartphone (celular), CompNo Plan de Datos Telefonía Móvi
No Smartphone (celular) No Ninguno
No Smartphone (celular) No Plan de datos prepago
No Smartphone (celular) No Plan de datos prepago
No Ninguno No Ninguno
No Smartphone (celular) Sí Internet Banda Ancha
No Smartphone (celular) No Plan de Datos Telefonía Móvi
Sí Pórtatil Sí Plan de Datos Telefonía Móvi
No Smartphone (celular) No Plan de Datos Telefonía Móvi
No Smartphone (celular) No Ninguno
No Smartphone (celular) No Ninguno
No Smartphone (celular) No Plan de Datos Telefonía Móvi
No Smartphone (celular) Sí Plan de Datos Telefonía Móvi
No Smartphone (celular) Sí Plan de Datos Telefonía Móvi
No Smartphone (celular) No Ninguno
Sí Pórtatil Sí Visapline
No Smartphone (celular) No Ninguno
No Smartphone (celular) No Ninguno
No Smartphone (celular) Sí Internet por fibra óptica
Sí Computador de Escritorio Sí Internet Banda Ancha
No Smartphone (celular) No Plan de Datos Telefonía Móvi
No Smartphone (celular) No Ninguno
Sí Smartphone (celular) No Conexión a internet vía saté
No Smartphone (celular) No Plan de Datos Telefonía Móvi
No Smartphone (celular) Sí Plan de Datos Telefonía Móvi
Sí Smartphone (celular) Sí Internet Banda Ancha
No Smartphone (celular) Sí Conexión a internet vía saté
No Smartphone (celular) No Ninguno
No Smartphone (celular) No Ninguno
No Smartphone (celular) No Ninguno
No Smartphone (celular) No Ninguno
No Smartphone (celular) Sí Pagandole al vecino mensu
No Smartphone (celular) No Recargas
No Smartphone (celular) No Ninguno
Sí Pórtatil Sí Internet Banda Ancha
No Smartphone (celular) Sí Internet Banda Ancha
No Smartphone (celular) Sí Conexión a internet vía saté
No Smartphone (celular) No Ninguno
No Ninguno No Ninguno
No Smartphone (celular) No Plan de Datos Telefonía Móvi
No Smartphone (celular) No Ninguno
No Ninguno No Plan de Datos Telefonía Móvi
No Ninguno No Ninguno
No Smartphone (celular) Sí Conexión a internet vía saté
Sí Smartphone (celular), Pórtat
Sí Conexión a internet vía saté
No Smartphone (celular) No Datos
No Smartphone (celular) No Ninguno
No Smartphone (celular) No Plan de Datos Telefonía Móvi
No Ninguno No Plan de Datos Telefonía Móvi
No Smartphone (celular) No Ninguno
No Smartphone (celular) No Plan de Datos Telefonía Móvi
No Ninguno No Plan de Datos Telefonía Móvi
No Smartphone (celular) No Plan de Datos Telefonía Móvi
No Ninguno No Ninguno
No Ninguno No Ninguno
No Ninguno No Ninguno
Sí Smartphone (celular) Sí Conexión a internet vía saté
No Smartphone (celular) Sí Conexión a internet vía saté
No Smartphone (celular) Sí Plan de Datos Telefonía Móvi
Sí Pórtatil, Celular Sí Total play
No Ninguno No Ninguno
No Smartphone (celular) No Recarga de datos a través d
No Smartphone (celular) Sí Internet Banda Ancha
Sí Pórtatil Sí Internet Banda Ancha
Sí Smartphone (celular), Pórtat
Sí Conexión a internet vía saté
No Smartphone (celular) No Ninguno
Sí Pórtatil, Celular Sí Internet Banda Ancha, Tota
No Smartphone (celular) No Ninguno
No Smartphone (celular) No Ninguno
No Smartphone (celular) No Ninguno
Sí Smartphone (celular), PórtaSí Conexión a internet vía saté
No Smartphone (celular) No Ninguno
No Smartphone (celular) Sí Conexión a internet vía saté
No Smartphone (celular) No Ninguno
No Smartphone (celular), Tabl No Ninguno
No Ninguno No Ninguno
No Ninguno No Ninguno
No Smartphone (celular) No Recargas celular
No Ninguno No Ninguno
No Ninguno No Ninguno
No Smartphone (celular) Sí Plan de Datos Telefonía Móvi
No Ninguno No Ninguno
No Smartphone (celular) No Ninguno
Sí Smartphone (celular) No Ninguno
No Smartphone (celular) Sí Plan de Datos Telefonía Móvi
No Smartphone (celular) Sí Internet Banda Ancha
No Ninguno No Ninguno
No Smartphone (celular) Sí Internet Banda Ancha
No Smartphone (celular) No RECARGA
Sí Smartphone (celular), Pórtat
Sí Plan de Datos Telefonía Móvi
No Smartphone (celular) No Ninguno
Sí Smartphone (celular), Pórtat
Sí Internet Banda Ancha
Sí Computador de Escritorio Sí Conexión a internet vía saté
Sí Pórtatil Sí Internet Banda Ancha
No Smartphone (celular) Sí Internet Banda Ancha
No Smartphone (celular) No Ninguno
No Smartphone (celular) Sí Conexión a internet vía saté
No Smartphone (celular) Sí Internet Banda Ancha
Sí Pórtatil No Ninguno
No Smartphone (celular) Sí Plan de Datos Telefonía Móvi
No Smartphone (celular) No Ninguno
No Smartphone (celular) Sí Internet Banda Ancha
No Smartphone (celular) Sí Plan de Datos Telefonía Móvi
No Smartphone (celular) No Plan de Datos Telefonía Móvi
Sí Pórtatil Sí Internet Banda Ancha
Sí Pórtatil Sí Internet Banda Ancha
Sí Smartphone (celular), Pórtat
Sí Internet Banda Ancha
No Ninguno No Ninguno
No Smartphone (celular) Sí Wifi
No Smartphone (celular) Sí Conexión a internet vía saté
No Smartphone (celular) Sí Wifi
No Smartphone (celular) No Plan de Datos Telefonía Móvi
Sí Computador de Escritorio Sí Conexión a internet vía saté
No Smartphone (celular) No Plan de Datos Telefonía Móvi
Sí Smartphone (celular), TableSí Internet Banda Ancha, Plan
No Smartphone (celular) No Ninguno
No Smartphone (celular) No Ninguno
No Smartphone (celular) No Ninguno
No Ninguno No Ninguno
No Smartphone (celular) No Plan de Datos Telefonía Móvi
No Smartphone (celular) No Ninguno
No Tablet Sí Plan de Datos Telefonía Móvi
No Smartphone (celular) Sí Conexión a internet vía saté
No Ninguno No Ninguno
No Ninguno No Plan de Datos Telefonía Móvi
No Smartphone (celular) Sí Conexión a internet vía saté
No Ninguno No Ninguno
No Smartphone (celular) No Recarga de datos
No Ninguno No Ninguno
Sí Smartphone (celular) No Ninguno
No Pórtatil No Ninguno
No Smartphone (celular) No Ninguno
Sí Smartphone (celular), Pórtat
No Ninguno
Sí Computador de Escritorio Sí Internet Banda Ancha
No Smartphone (celular) No Plan de Datos Telefonía Móvi
No Smartphone (celular) No Ninguno
No Smartphone (celular) Sí Plan de Datos Telefonía Móvi
Sí Smartphone (celular), Pórtat
No Ninguno
No Smartphone (celular) Sí Plan de Datos Telefonía Móvi
Sí Pórtatil Sí Conexión a internet vía saté
No Smartphone (celular) Sí Conexión a internet vía saté
No Smartphone (celular) No Ninguno
No Smartphone (celular) No Ninguno
No Ninguno No Ninguno
No Smartphone (celular), Tabl Sí Internet Banda Ancha
Sí Smartphone (celular), Pórtat
Sí Conexión a internet vía saté
No Smartphone (celular), Pórtat
Sí Conexión a internet vía saté
No Ninguno No Ninguno
No Ninguno No Ninguno
No Smartphone (celular) Sí Plan de Datos Telefonía Móvi
No Smartphone (celular), TV No Plan de Datos Telefonía Mó
No Ninguno No Ninguno
Sí Smartphone (celular), Pórtat
Sí Fibra óptica
No Smartphone (celular) Sí Plan de Datos Telefonía Móvi
Sí Pórtatil Sí Internet Banda Ancha
Sí Pórtatil Sí Conexión a internet vía saté
Sí Pórtatil Sí Conexión a internet vía saté
Sí Pórtatil, Computador de EscSí Internet Banda Ancha
Sí Smartphone (celular), Pórtat
No Plan de Datos Telefonía Móv
No Ninguno No Ninguno
No Ninguno No Ninguno
No Ninguno No Ninguno
No Smartphone (celular) No Ninguno, RECARGA
No Smartphone (celular) No Plan de Datos Telefonía Móv
No Smartphone (celular) Sí Plan de Datos Telefonía Móvi
No Smartphone (celular) No Plan de Datos Telefonía Móvi
No Smartphone (celular) Sí Internet Banda Ancha
No Smartphone (celular) Sí Plan de Datos Telefonía Móvi
No Smartphone (celular) Sí Plan de Datos Telefonía Móvi
No Smartphone (celular) Sí Conexión a internet vía saté
No Smartphone (celular) No Ninguno
No Smartphone (celular) No Ninguno
No Smartphone (celular) No Internet del besino
Sí Smartphone (celular), Pórtat
Sí Internet Banda Ancha
No Smartphone (celular) Sí Internet Banda Ancha
No Smartphone (celular) Sí Internet Banda Ancha
Sí Pórtatil Sí Internet Banda Ancha
Sí Pórtatil Sí Internet Banda Ancha
No HUAWEI Sí Internet Banda Ancha
Sí Pórtatil Sí Internet Banda Ancha
No Smartphone (celular) Sí Conexión a internet vía saté
No Ninguno No Ninguno
Sí Computador de Escritorio Sí Internet Banda Ancha
No Smartphone (celular) No Plan de Datos Telefonía Móvi
No Smartphone (celular) Sí Plan de Datos Telefonía Móvi
No Smartphone (celular) Sí Plan de Datos Telefonía Móvi
No Smartphone (celular) No Ninguno
No Smartphone (celular) Sí Plan de Datos Telefonía Móvi
No Smartphone (celular) No Ninguno, recarga
No Smartphone (celular) No Plan de datos prepago
No Smartphone (celular) No Plan de Datos Telefonía Móvi
No Smartphone (celular) No Plan de Datos Telefonía Móvi
No Smartphone (celular) Sí Conexión a internet vía saté
No Smartphone (celular) No Ninguno
No Smartphone (celular) Sí Plan de Datos Telefonía Móvi
No Ninguno No Ninguno
Sí Pórtatil No Ninguno
No Smartphone (celular) Sí Internet Banda Ancha
No Smartphone (celular) No Ninguno
No Smartphone (celular) No Plan de Datos Telefonía Móvi
No Smartphone (celular) No Ninguno, recargas
No Smartphone (celular) No Plan de Datos Telefonía Móvi
No Ninguno No Ninguno
Sí Smartphone (celular), Comp Sí Conexión a internet vía saté
No Smartphone (celular) Sí Plan de Datos Telefonía Móvi
No Smartphone (celular) Sí Conexión a internet vía saté
No Ninguno No Ninguno
Sí Smartphone (celular), Pórtat
Sí Internet Banda Ancha
No Smartphone (celular) No Ninguno
No Smartphone (celular) Sí Plan de Datos Telefonía Móvi
No Ninguno No Ninguno
No Smartphone (celular) Sí Internet Banda Ancha
No Ninguno No Ninguno
No Smartphone (celular) No Ninguno
No Smartphone (celular) Sí Internet Banda Ancha
No Smartphone (celular) No Ninguno
No Smartphone (celular) No Ninguno
No Smartphone (celular) Sí Plan de Datos Telefonía Móvi
No Smartphone (celular) No Ninguno
No Smartphone (celular) No Ninguno
No Smartphone (celular) No Plan de Datos Telefonía Móvi
Sí Smartphone (celular), Pórtat
Sí Total play
No Smartphone (celular) Sí Plan de Datos Telefonía Móvi
No Smartphone (celular) Sí Conexión a internet vía saté
No Smartphone (celular) Sí Conexión a internet vía saté
No Ninguno No Ninguno
Sí Smartphone (celular), Pórtat
Sí Conexión a internet vía saté
No Smartphone (celular) Sí Ninguno
No Smartphone (celular), Tabl No Plan de Datos Telefonía Móvi
No Sedular No Ninguno
No Cedular No Ninguno
No Smartphone (celular) No Ninguno
No Smartphone (celular) Sí Plan de Datos Telefonía Móvi
No Smartphone (celular) No Plan de Datos Telefonía Móvi
No Smartphone (celular) No Ninguno
No Smartphone (celular) No Plan prepago de internet
No Smartphone (celular) No Plan de datos prepago
No Ninguno No recarga
No Ninguno No Ninguno
No Ninguno No Ninguno
No Tablet No Ninguno
No Tablet No Ninguno
No Smartphone (celular) Sí Plan de Datos Telefonía Móvi
No Smartphone (celular) Sí Plan de Datos Telefonía Móvi
No Smartphone (celular) No Plan prepagaado redes soc
No Smartphone (celular) No Plan de datos prepagado
Sí Pórtatil Sí Conexión a internet vía saté
No Smartphone (celular) No Plan de datos prepagado
No Ninguno No Ninguno
No Smartphone (celular) Sí Internet Banda Ancha
No Smartphone (celular) No Ninguno
No Smartphone (celular) Sí Internet Banda Ancha
No Smartphone (celular) Sí Internet Banda Ancha
No Ninguno No Ninguno
No Ninguno No Ninguno
No Smartphone (celular) No Plan de datos prepago
No Smartphone (celular) No Plan de Datos Telefonía Móvi
No Ninguno No Ninguno
No Celular No Ninguno, Recargas.
Sí Pórtatil Sí Conexión a internet vía saté
No Smartphone (celular) Sí Conexión a internet vía saté
No Ninguno No Ninguno
No Ninguno No Ninguno
No Smartphone (celular) No Ninguno, POSIBLE RECA
No Smartphone (celular) No POSIBLE RECARGA
No Smartphone (celular) No RECARGAS
No Smartphone (celular) No RECARGAR
No Smartphone (celular) Sí Plan de Datos Telefonía Móvi
No Ninguno, CELULAR (FLECNo Ninguno
No CELULAR (FLECHA) No Ninguno
No Smartphone (celular) No Plan de Datos Telefonía Móv
No Smartphone (celular) No Plan de Datos Telefonía Móvi
No Smartphone (celular) No POSIBLE RECARGA
No Smartphone (celular) No Plan de Datos Telefonía Móvi
No Smartphone (celular) No RECARGA
No Smartphone (celular) No Plan de Datos Telefonía Móvi
No Smartphone (celular) No Plan de Datos Telefonía Móvi
No Smartphone (celular) No Plan de Datos Telefonía Móvi
No Smartphone (celular) No Plan de Datos Telefonía Móvi
No Smartphone (celular) No RECARGA
No Smartphone (celular) No Plan de Datos Telefonía Móvi
No Smartphone (celular) No Plan de Datos Telefonía Móvi
No Smartphone (celular) No Ninguno
No Smartphone (celular) No Ninguno
No Smartphone (celular) Sí Conexión a internet vía saté
No Smartphone (celular) No Ninguno
No Smartphone (celular) Sí Conexión a internet vía saté
No Smartphone (celular) No Ninguno
No Smartphone (celular) No Ninguno
No Smartphone (celular) Sí Internet Banda Ancha
No Smartphone (celular) Sí Internet Banda Ancha
Sí Smartphone (celular), Pórtat
Sí Plan de Datos Telefonía Móvi
No Smartphone (celular) Sí Internet Banda Ancha
No Smartphone (celular) No Plan de Datos Telefonía Móvi
No Smartphone (celular) Sí Plan de Datos Telefonía Móvi
No Ninguno No Ninguno
No Ninguno No Ninguno
No Ninguno No Ninguno
No Smartphone (celular) Sí Internet Banda Ancha
No Smartphone (celular) No Ninguno
No Smartphone (celular) No Ninguno
No Smartphone (celular) Sí Plan de Datos Telefonía Móvi
No Smartphone (celular) No Ninguno
No Smartphone (celular) No Ninguno
No Ninguno No Recarga
Sí Smartphone (celular), Pórtat
Sí Internet Banda Ancha
Sí Pórtatil Sí Internet Banda Ancha
No Smartphone (celular) No Plan de Datos Telefonía Móv
No Smartphone (celular) Sí Plan de Datos Telefonía Móvi
No Smartphone (celular) Sí Plan de Datos Telefonía Móvi
No Smartphone (celular) Sí Plan de Datos Telefonía Móvi
No Smartphone (celular) Sí Plan de Datos Telefonía Móvi
Sí Smartphone (celular), Pórtat
No Plan pregado
No Ninguno No Ninguno
No Smartphone (celular) No Plan prepago
No Smartphone (celular) No Plan prepago
No Ninguno No Ninguno
No Smartphone (celular) No Plan de datos prepago
No Smartphone (celular) Sí Plan de Datos Telefonía Móvi
Sí Smartphone (celular), Pórtat
Sí Internet Banda Ancha
Sí Smartphone (celular), Pórtat
Sí Conexión a internet vía saté
Sí Smartphone (celular), Pórtat
Sí Internet Banda Ancha
No Smartphone (celular) No Plan de datos prepago
No Smartphone (celular) No Plan de Datos Telefonía Móvi
No Smartphone (celular) No Ninguno
No Smartphone (celular) Sí Conexión a internet vía saté
No Smartphone (celular), Tabl No Plan prepago de internet
No Smartphone (celular), Tabl No Plan de datos prepago
Sí Smartphone (celular), Pórtat
Sí Internet Banda Ancha
No Ninguno No Ninguno
Sí Smartphone (celular) Sí Internet Banda Ancha
No Smartphone (celular) No Plan de datos prepago
No Smartphone (celular) No RECARGA
No Smartphone (celular) No Ninguno, recargas de 1000
No Smartphone (celular) No Ninguno
No Ninguno No Ninguno
No Smartphone (celular) Sí Conexión a internet vía saté
No Smartphone (celular) No Ninguno
No Ninguno No Ninguno
No Smartphone (celular) No Ninguno, recarga de 1000
No Ninguno Sí Internet Banda Ancha
No Smartphone (celular) Sí Internet Banda Ancha, Plan
No Ninguno No Ninguno
No Smartphone (celular) Sí Internet Banda Ancha
No Smartphone (celular) Sí Internet Banda Ancha, Plan
No Smartphone (celular) Sí Internet Banda Ancha, Plan
No Smartphone (celular) No Plan de Datos Telefonía Móvi
No Smartphone (celular) No Ninguno
No Smartphone (celular) Sí Internet Banda Ancha
No Ninguno No Ninguno
Sí Smartphone (celular), Pórtat
Sí Internet Banda Ancha
No Smartphone (celular) No Ninguno
No Smartphone (celular) No Internet Banda Ancha, Nin
No Ninguno No Ninguno
Sí Pórtatil Sí Internet Banda Ancha
No Smartphone (celular) Sí Internet Banda Ancha
Sí Pórtatil Sí Internet Banda Ancha
No Smartphone (celular) Sí Plan de Datos Telefonía Móvi
No Smartphone (celular) Sí Internet Banda Ancha
No Smartphone (celular) No Ninguno
No Tablet No Plan de Datos Telefonía Móvi
No Ninguno No Ninguno
No Ninguno No Ninguno
No Smartphone (celular) No Ninguno
No Smartphone (celular) No Ninguno
No Smartphone (celular), Comp Sí Internet Banda Ancha, Plan
No Smartphone (celular) No Plan de Datos Telefonía Móvi
No Smartphone (celular) No Plan de Datos Telefonía Móvi
No Smartphone (celular) No Plan de Datos Telefonía Móvi
Sí Smartphone (celular), Comp No Ninguno
No Smartphone (celular) No Ninguno
No Smartphone (celular) No Ninguno
No Smartphone (celular) No Ninguno
No Smartphone (celular) No Plan de Datos Telefonía Móvi
No Smartphone (celular), Tabl Sí Plan de Datos Telefonía Móvi
No Smartphone (celular), Tabl Sí Plan de Datos Telefonía Móvi
No Smartphone (celular) No Ninguno
Sí Smartphone (celular) Sí Conexión a internet vía saté
Sí Smartphone (celular), Pórtat
Sí Internet Banda Ancha
Sí Smartphone (celular), Pórtat
Sí Internet Banda Ancha
No Ninguno No Ninguno
No Ninguno No Ninguno
No Smartphone (celular), Comp Sí Wifi
No Smartphone (celular) No Datos
No Ninguno No Ninguno
No Ninguno No Ninguno
Sí Smartphone (celular) Sí Internet Banda Ancha
Sí Smartphone (celular) Sí Internet Banda Ancha
Sí Smartphone (celular), Comp Sí Conexión a internet vía saté
No Smartphone (celular) No Ninguno
No Smartphone (celular) No Da tos
No Smartphone (celular) No Plan de Datos Telefonía Móvi
No Smartphone (celular) No Ninguno
No Smartphone (celular) No Ninguno
No Smartphone (celular) No Plan de Datos Telefonía Móvi
No Smartphone (celular) No Ninguno
No Smartphone (celular) No Ninguno
No Ninguno No Ninguno
No Ninguno No Ninguno
No Ninguno No Ninguno
No Ninguno No Ninguno
No Smartphone (celular) Sí Internet Banda Ancha
No Ninguno No Ninguno
Sí Computador de Escritorio Sí Conexión a internet vía saté
No Smartphone (celular) No Plan de Datos Telefonía Móvi
Sí Computador de Escritorio Sí Conexión a internet vía saté
No Smartphone (celular) Sí Conexión a internet vía saté
No Smartphone (celular) Sí Conexión a internet vía saté
No Ninguno Sí Plan de Datos Telefonía Móvi
No Smartphone (celular) Sí Plan de Datos Telefonía Móvi
No Smartphone (celular) No Plan de datos prepago
No Smartphone (celular) No Plan de datos prepago
No Smartphone (celular) No Plan de datos prepago
No Ninguno No Ninguno
No Smartphone (celular) No Ninguno
No Smartphone (celular) No Ninguno
Sí Pórtatil Sí Internet Banda Ancha
No Ninguno No Ninguno
No Smartphone (celular) No Ninguno
No Smartphone (celular) No Ninguno
No Smartphone (celular) Sí Plan de Datos Telefonía Móvi
No Smartphone (celular) Sí Conexión a internet vía saté
No Ninguno No Ninguno
No Ninguno No Ninguno
No Smartphone (celular) No Ninguno
No Smartphone (celular) No Paquete de datos
No Ninguno No Ninguno
No Ninguno No Ninguno
No Smartphone (celular) Sí Conexión a internet vía saté
No Smartphone (celular) No Ninguno
No Smartphone (celular) Sí Plan de Datos Telefonía Móvi
No Smartphone (celular) No Ninguno
No Smartphone (celular) No Ninguno
No Smartphone (celular) No Ninguno
No Smartphone (celular) No Ninguno
No Smartphone (celular) No Ninguno
No Smartphone (celular) No Ninguno
No Smartphone (celular) No Ninguno
No Smartphone (celular) No Ninguno
No Smartphone (celular) No Ninguno
No Smartphone (celular) No Ninguno
No Smartphone (celular) No Ninguno
No Smartphone (celular) No Plan de Datos Telefonía Móvi
No Ninguno No Ninguno
No Smartphone (celular) No Ninguno
No Smartphone (celular) No Ninguno
No Smartphone (celular) No Ninguno
No Smartphone (celular) No Ninguno
No Smartphone (celular) No Ninguno
No Smartphone (celular) No Ninguno
Sí Smartphone (celular), Pórtat
Sí Internet Banda Ancha
No Ninguno No Ninguno
No Smartphone (celular) No Ninguno
No Smartphone (celular) No Ninguno
No Ninguno Sí Internet Banda Ancha
No Smartphone (celular) Sí Conexión a internet vía saté
No Smartphone (celular) Sí Conexión a internet vía saté
No Smartphone (celular) Sí Internet Banda Ancha
Sí Smartphone (celular) Sí Plan de Datos Telefonía Móvi
No Smartphone (celular) No Ninguno
No Smartphone (celular) No Ninguno
No Ninguno No Ninguno
No Smartphone (celular) No Recargas cuando se puede
No Smartphone (celular) Sí Conexión a internet vía saté
No Smartphone (celular) No Plan de Datos Telefonía Móvi
No Smartphone (celular) No Plan de Datos Telefonía Móvi
No Smartphone (celular) Sí Internet Banda Ancha
No Ninguno No Ninguno
No Smartphone (celular) Sí Conexión a internet vía saté
No Smartphone (celular) Sí Plan de Datos Telefonía Móvi
No Smartphone (celular) No Ninguno
No Smartphone (celular) No Ninguno
No Smartphone (celular) Sí Conexión a internet vía saté
No Smartphone (celular) Sí Conexión a internet vía saté
No Smartphone (celular) Sí Conexión a internet vía saté
No Smartphone (celular) Sí Conexión a internet vía saté
No Smartphone (celular) Sí Internet Banda Ancha
No Smartphone (celular) No Ninguno
No Smartphone (celular) No Ninguno
No Ninguno No Ninguno
No Ninguno No Ninguno
No Ninguno No Ninguno
No Ninguno No Ninguno
No Smartphone (celular) No Ninguno
No Smartphone (celular) No Ninguno
No Ninguno Sí Plan de Datos Telefonía Móvi
Sí Smartphone (celular), Pórtat
No Plan de Datos Telefonía Móvi
No Smartphone (celular) No Ninguno
No Ninguno No Ninguno
No Ninguno No Ninguno
No Smartphone (celular) No Ninguno
No Ninguno No Ninguno
No Ninguno No Ninguno
No Ninguno No Ninguno
No Ninguno No Ninguno
No Smartphone (celular) No Recarga
No Smartphone (celular) No recarga
No Ninguno No Ninguno
No Ninguno No Ninguno
No Smartphone (celular) No Ninguno
No Ninguno No Ninguno
No Ninguno No Ninguno
No Smartphone (celular) Sí Internet Banda Ancha
No Ninguno No Ninguno
No Ninguno No Ninguno
No Smartphone (celular) No Plan de Datos Telefonía Móvi
No Smartphone (celular) No Plan de Datos Telefonía Móvi
No Smartphone (celular) No Plan de Datos Telefonía Móvi
Indique el número de estudiantes de la Institución Educativa La Esperanza que viven en su casa.
3
3
1
1
1
3
1
1
1
Más de 5
3
2
3
1
2
1
1
4
2
2
3
3
4
1
3
1
3
1
2
1
2
2
3
3
2
3
1
1
1
1
2
4
1
3
1
1
Más de 5
2
2
2
2
1
1
3
1
3
1
4
Más de 5
2
1
1
2
4
1
2
2
1
2
1
4
2
1
1
2
2
2
1
2
4
1
1
2
3
2
Más de 5
1
Más de 5
1
1
2
1
1
1
1
2
1
1
2
2
2
2
1
4
1
3
1
1
2
1
2
2
1
1
2
1
1
3
1
2
3
1
1
1
2
2
1
1
3
2
2
1
2
2
3
2
3
3
2
2
2
2
2
2
2
1
3
2
4
1
2
1
1
1
2
1
2
2
2
3
2
2
2
3
2
2
4
2
1
2
2
2
3
1
Más de 5
Más de 5
3
4
2
1
2
3
1
1
1
1
2
3
1
2
2
2
3
4
2
3
3
1
3
2
3
3
4
2
4
1
1
3
1
2
3
2
3
1
4
1
2
1
1
2
1
1
1
3
1
2
3
1
1
1
2
3
3
1
3
1
3
2
3
3
1
1
1
2
1
2
3
2
1
1
3
1
2
3
2
2
1
3
1
1
2
2
1
1
1
1
2
2
3
1
2
1
1
4
3
1
1
1
1
2
4
1
1
2
2
2
2
1
2
2
2
3
1
3
1
1
1
1
1
1
1
1
1
4
2
1
2
1
1
1
1
2
2
2
2
2
2
3
2
2
1
1
2
2
1
1
3
2
1
1
2
1
2
1
2
2
3
2
2
2
2
4
4
2
4
2
2
2
2
1
2
1
1
1
2
2
2
2
1
1
3
3
3
2
1
2
1
1
1
2
2
2
2
1
2
1
Más de 5
1
1
3
1
3
2
3
2
2
2
2
2
2
1
1
1
2
2
2
4
1
4
3
4
4
2
1
1
3
3
3
1
2
3
2
2
1
2
1
1
1
2
2
2
1
1
4
2
2
2
4
2
1
2
2
4
3
1
Más de 5
3
1
2
1
1
3
2
1
1
2
4
1
2
1
3
1
1
3
1
1
1
1
2
2
4
3
4
1
Más de 5
2
3
2
2
2
2
3
Más de 5
4
3
1
2
Más de 5
2
2
2
1
Más de 5
3
2
2
Más de 5
2
1
1
4
1
2
3
Más de 5
1
4
1
4
2
1
3
1
2
2
1
1
3
1
3
1
1
3
2
1
2
1
2
2
1
1
2
1
1
1
1
1
2
3
3
2
3
2
1
2
1
1
2
1
1
1
2
4
2
3
3
2
2
2
Más de 5
2
2
Más de 5
1
3
3
3
1
1
2
4
1
2
1
1
3
1
4
2
3
2
1
3
1
3
3
3
3
2
3
1
3
1
2
2
2
1
2
1
1
1
2
2
1
1
4
1
2
4
1
2
3
2
2
1
2
2
1
1
2
1
2
4
1
4
1
2
2
2
1
2
3
2
2
1
2
2
1
2
Más de 5
3
3
3
2
2
1
3
2
2
2
4
3
1
1
1
1
2
2
2
1
1
1
1
2
1
1
2
2
3
2
Más de 5
Más de 5
1
2
2
2
1
1
3
1
2
1
2
3
1
1
3
3
3
2
3
1
2
2
2
4
4
1
4
1
1
2
2
1
1
2
3
1
1
1
2
3
1
1
2
3
1
3
2
2
3
1
Más de 5
Más de 5
4
Más de 5
1
1
2
1
1
2
Más de 5
3
2
2
2
1
1
2
2
2
1
2
2
1
1
1
1
2
1
2
2
1
1
3
3
1
3
1
2
1
2
2
2
2
1
1
2
1
1
Más de 5
1
2
1
1
3
3
1
2
2
1
2
1
2
2
2
1
1
1
1
1
2
3
3
3
3
3
3
3
2
3
2
1
2
1
3
1
1
3
4
4
1
4
2
1
2
1
1
3
3
2
2
1
1
2
2
1
2
1
3
1
3
1
2
1
2
2
2
3
2
3
1
1
3
2
1
1
1
1
2
2
3
2
2
3
3
1
2
2
1
1
2
2
1
2
3
2
1
3
2
1
1
1
1
1
1
2
1
1
2
3
1
2
1
2
2
2
1
1
1
Más de 5
3
2
3
1
1
2
2
1
1
3
1
1
1
2
2
2
2
2
2
2
2
1
1
1
2
1
2
Más de 5
1
1
1
2
1
2
3
1
1
2
2
1
2
2
2
2
1
2
1
1
2
2
3
3
3
2
3
1
2
2
1
1
1
2
1
2
2
1
2
1
3
1
2
2
2
1
2
2
2
1
3
3
1
2
2
3
1
2
4
1
1
2
1
4
4
4
4
1
2
2
1
1
1
1
1
1
1
1
2
1
4
1
3
1
3
1
2
2
2
2
1
2
2
1
2
2
3
3
3
Nivel educativo que e Sum - Control
Cuarto Grupo 1 21
Cuarto Grupo 2 28
Cuarto Grupo 3 18
Cuarto Grupo 4 24
Décimo Grupo 1 29
Décimo Grupo 2 24
Noveno Grupo 1 32
Noveno Grupo 2 26
Octavo Grupo 1 22
Octavo Grupo 2 27
Octavo Grupo 3 21
Octavo Grupo 4 35
Once Grupo 1 17
Once Grupo 2 19
Preescolar Grupo 1 18
Preescolar Grupo 2 10
Preescolar Grupo 3 9
Preescolar Grupo 4 10
Preescolar Grupo 5 20
Primero Grupo 1 12
Primero Grupo 2 24
Primero Grupo 3 22
Primero Grupo 4 28
Primero Grupo 5 30
Primero Grupo 6 15
Quinto Grupo 1 19
Quinto Grupo 2 18
Quinto Grupo 3 16
Quinto Grupo 4 10
Segudo Grupo 1 20
Segudo Grupo 2 21
Segudo Grupo 3 18
Segudo Grupo 4 12
Segudo Grupo 5 13
Séptimo Grupo 1 16
Séptimo Grupo 2 32
Séptimo Grupo 3 22
Séptimo Grupo 4 30
Séptimo Grupo 5 29
Sexto Grupo 1 26
Sexto Grupo 2 24
Sexto Grupo 3 23
Sexto Grupo 4 26
Sexto Grupo 5 15
Tercero Grupo 1 21
Tercero Grupo 2 25
Tercero Grupo 3 19
Tercero Grupo 4 13
Total Result 1009
¿El estudiante cuenta con un computador dSum - Control

No 809 80%
Sí 200 20%
Total Result 1009
De los siguientes recursos tecnológicos señale con cuál (es) cuenta Sum - Control
Cedular 2
Celular 5
CELULAR (FLECHA) 1
Celular Motorola 1
Celular pequeño (samsung) 1
Celular por whatsapp 1
Celular tactil 1
Computador de Escritorio 30
HUAWEI 1
Ninguno 158
Ninguno, CELULAR (FLECHA) 1
Pórtatil 50
Pórtatil, Celular 2
Pórtatil, Computador de Escritorio 1
Samsung 1
Sedular 1
Smartphone (celular) 637
Smartphone (celular), Celular 1
Smartphone (celular), Celular de la mamá 1
Smartphone (celular), Computador de Escritorio 36
Smartphone (celular), Pórtatil 57
Smartphone (celular), Pórtatil, Computador de Escritorio 2
Smartphone (celular), Tablet 8
Smartphone (celular), Tablet, Pórtatil 1
Smartphone (celular), Tablet, Pórtatil, Computador de Escritorio 1
Smartphone (celular), TV 1
Tablet 7
Total Result 1009
Smartphone (celular) 754 75%
Tableta 17 2%
Portátil 114 11%
Computador de escritorio 70 7%
Ninguno 168 17%
1123
¿El estudiante cuenta con conexión a inter Sum - Control

No 536 53%
Sí 473 47%
Total Result 1009
Marca temporal Nombre del padre de familia o acudiente del estudiante. Control
4/3/2020 15:30 EMERITA QUINTERO CHAUX 1
4/3/2020 11:46 VILLADELCY ALDANA RUIZ 1
Indique un número de teléfono celular Nombres y apellidos del estudiante
3134715740 JANIER ANDRES ESPINOSA QUINTERO
3112240254 YULIETH FERNANDA NUÑEZ ALDANA
Número de identificación del estudiante
1118363063
1117524260
Escriba su correo electrónico (si no tiene deje en blanco) Nivel educativo que están cursando
Séptimo Grupo 2
Cuarto Grupo 2
Área de ubicación de la residencia Dirección de residencia
Urbanización La Gloria - Casas manz 3 casa 45
Urbanización La Gloria - Torres TORRE 13 APTO 505
¿El estudiante cuenta con un computador de mesa o portátil en su casa?
No
No
De los siguientes recursos tecnológicos señale con cuál (es) cuenta usted en su casa.
Smartphone (celular)
Smartphone (celular)
¿El estudiante cuenta con conexión a internet en su casa?
No
No
De los siguientes recursos de conexión a internet indique con cuales cuenta usted.
Ninguno, RECARGA
Ninguno, RECARGA
Indique el número de estudiantes de la Institución Educativa La Esperanza que viven en su casa.
1
2
De los siguientes recursos de conexión a internet indique con cuales cuenta usted.
Compramos wifi
Con wi-fi
Conexión a internet vía satélite
conpartiendo
Cuando podemos colocar recargas
Da tos
Datos
Datos redes sociales
De los besinos
FAMILI LEMUS se le paga internet
fibra optica
Fibra óptica
Inalambrico
Internet Banda Ancha
Internet Banda Ancha, Conexión a internet vía satélite
Internet Banda Ancha, Ninguno
Internet Banda Ancha, Plan de Datos Telefonía Móvil ( internet a través del celular)
Internet Banda Ancha, Total play
Internet del besino
Internet del vesino
Internet fibra optica
Internet por fibra óptica
Internet por fibra óptica.
Los vesinos
Ninguno
Ninguno, Recargas.
Ninguno, POSIBLE RECARGA
Ninguno, recarga de 1000
Ninguno, recargas
Ninguno, recargas de 1000
Pagandole al vecino mensual
Paquete de datos
Paquete de datos
Plan de datos prepagado
Plan de datos prepago
Plan de Datos Telefonía Móvil ( internet a través del celular)
Plan de Datos Telefonía Móvil ( internet a través del celular), A veces se compran datos, pero no reproducen videos
Plan de Datos Telefonía Móvil ( internet a través del celular), CON RECARGAS
Plan de Datos Telefonía Móvil ( internet a través del celular), Ninguno
Plan de Datos Telefonía Móvil ( internet a través del celular), RECARGA
Plan de Datos Telefonía Móvil ( internet a través del celular), Recarga
Plan de Datos Telefonía Móvil ( internet a través del celular), Solo redes sociales
Plan pregado
Plan prepagaado redes sociales
Plan prepago
Plan prepago de internet
POSIBLE RECARGA
radial
Rapinet
Recarga
Recarga de datos
Recarga de datos a través del celular
Recarga por paquete
RECARGAR
RECARGAS
Recargas
Recargas celular
Recargas cuando se puede
Recargas de 2000
Redes sociales
Redes sociales (whatsapp - facebook)
Redes sociales (whatsapp - facebook)
Si de besinos
Solo cuando hacen recargas de datos
Total Aztecas
Total play
Visapline
Visaplyne
WhatsApp
Wifi
Wifi
Wifi vecinos nos vende
Wuifi me vende el vesino
Ninguno, recarga
Recarga
Total Result
Sum - Control
1
1
144
1
1
1
4
2
1
1
1
1 -101
2
174
1
1
11
1
1
2
1 Internet Banda Ancha
1 Plan de Datos Telefonía Móvil ( internet a través del celular)
1 Conexión a internet vía satélite
1 Prepago (recargas)
341 Wifi vecino
1 radial
1 Ninguno
1 Total
1 Del total de población que manifestó disponer de internet, únicamente el 24% d
1
2
1
4
2
14
223 36
1
1
1
3
1
1
1
1
2
3
2
1 53
1
1
1
1 72
1
1
1
3
1
1
1
1
1
1
1
1 75
2
2 76
3
1
1
4
1
1
1
2
7
1009
202 20%
223 22%
144 14%
77 8%
21 2%
1 0%
341 34%
1009 100%
ternet, únicamente el 24% dispone de una conexión estable mediante servicio de banda ancha o conexión satétital.
Indique el número de eSum - Control

1 391 39%
2 369 37%
3 166 16%
4 56 6%
Más de 5 27 3%
Total Result 1009

También podría gustarte